Provisional Data: Young Woman's Creek near North Bend, PA


Please select a monitoring station.
Please select start date.
Please select start date.

Toggle Unit: C/F Toggle Unit: C/F
Sample Time Temperature (C) Temperature (F) Specific Conductivity (mS/cm) pH   Turbidity (NTU+) DO (mg/L)
5/4/2021 12:00:00 AM 10.86 51.548 0.032 7.26 0.77 10.41
5/4/2021 12:15:00 AM 10.84 51.512 0.032 7.26 0.64 10.42
5/4/2021 12:30:00 AM 10.82 51.476 0.032 7.37 0.71 10.42
5/4/2021 12:45:00 AM 10.79 51.422 0.032 7.45 0.79 10.43
5/4/2021 1:00:00 AM 10.77 51.386 0.032 7.32 0.75 10.43
5/4/2021 1:15:00 AM 10.76 51.368 0.032 7.25 0.79 10.43
5/4/2021 1:30:00 AM 10.74 51.332 0.032 7.21 0.7 10.44
5/4/2021 1:45:00 AM 10.72 51.296 0.032 7.21 0.56 10.45
5/4/2021 2:00:00 AM 10.7 51.26 0.032 7.26 0.64 10.45
5/4/2021 2:15:00 AM 10.69 51.242 0.032 7.39 0.7 10.45
5/4/2021 2:30:00 AM 10.67 51.206 0.032 7.31 0.6 10.45
5/4/2021 2:45:00 AM 10.66 51.188 0.032 7.31 0.7 10.45
5/4/2021 3:00:00 AM 10.64 51.152 0.032 7.23 0.58 10.45
5/4/2021 3:15:00 AM 10.63 51.134 0.032 7.37 0.55 10.45
5/4/2021 3:30:00 AM 10.61 51.098 0.032 7.4 0.59 10.46
5/4/2021 3:45:00 AM 10.6 51.08 0.032 7.42 0.57 10.46
5/4/2021 4:00:00 AM 10.59 51.062 0.032 7.31 0.68 10.46
5/4/2021 4:15:00 AM 10.58 51.044 0.032 7.33 0.73 10.47
5/4/2021 4:30:00 AM 10.58 51.044 0.032 7.35 0.52 10.47
5/4/2021 4:45:00 AM 10.57 51.026 0.032 7.32 0.59 10.47
5/4/2021 5:00:00 AM 10.56 51.008 0.032 7.26 0.66 10.48
5/4/2021 5:15:00 AM 10.54 50.972 0.032 7.21 0.67 10.48
5/4/2021 5:30:00 AM 10.53 50.954 0.032 7.15 0.73 10.48
5/4/2021 5:45:00 AM 10.52 50.936 0.032 7.16 0.71 10.48
5/4/2021 6:00:00 AM 10.51 50.918 0.032 7.32 0.61 10.48
5/4/2021 6:15:00 AM 10.5 50.9 0.032 7.34 0.66 10.49
5/4/2021 6:30:00 AM 10.49 50.882 0.032 7.32 0.58 10.5
5/4/2021 6:45:00 AM 10.49 50.882 0.032 7.23 0.68 10.51
5/4/2021 7:00:00 AM 10.48 50.864 0.032 7.33 0.65 10.53
5/4/2021 7:15:00 AM 10.48 50.864 0.032 7.28 0.47 10.55
5/4/2021 7:30:00 AM 10.48 50.864 0.032 7.22 0.53 10.58
5/4/2021 7:45:00 AM 10.48 50.864 0.032 7.08 0.6 10.61
5/4/2021 8:00:00 AM 10.5 50.9 0.032 7.09 0.42 10.65
5/4/2021 8:15:00 AM 10.51 50.918 0.032 7.08 0.61 10.68
5/4/2021 8:30:00 AM 10.53 50.954 0.032 7.27 0.61 10.7
5/4/2021 8:45:00 AM 10.56 51.008 0.032 7.32 0.68 10.73
5/4/2021 9:00:00 AM 10.59 51.062 0.032 7.21 0.51 10.74
5/4/2021 9:15:00 AM 10.63 51.134 0.032 7.26 0.47 10.76
5/4/2021 9:30:00 AM 10.67 51.206 0.032 7.33 0.55 10.78
5/4/2021 9:45:00 AM 10.72 51.296 0.032 7.24 0.56 10.77
5/4/2021 10:00:00 AM 10.77 51.386 0.032 7.25 0.42 10.77
5/4/2021 10:15:00 AM 10.86 51.548 0.032 7.26 0.56 10.77
5/4/2021 10:30:00 AM 10.96 51.728 0.032 7.33 0.49 10.77
5/4/2021 10:45:00 AM 11.04 51.872 0.032 7.34 0.74 10.74
5/4/2021 11:00:00 AM 11.14 52.052 0.031 7.4 0.6 10.71
5/4/2021 11:15:00 AM 11.27 52.286 0.031 7.48 0.43 10.73
5/4/2021 11:30:00 AM 11.42 52.556 0.031 7.36 0.56 10.71
5/4/2021 11:45:00 AM 11.5 52.7 0.031 7.38 0.84 10.67
5/4/2021 12:00:00 PM 11.56 52.808 0.031 7.44 0.52 10.67
5/4/2021 12:15:00 PM 11.63 52.934 0.031 7.32 0.82 10.65
5/4/2021 12:30:00 PM 11.73 53.114 0.031 7.37 0.46 10.63
5/4/2021 12:45:00 PM 11.9 53.42 0.031 7.43 0.61 10.62
5/4/2021 1:00:00 PM 12.03 53.654 0.031 7.43 0.56 10.59
5/4/2021 1:15:00 PM 12.18 53.924 0.031 7.43 0.6 10.58
5/4/2021 1:30:00 PM 12.31 54.158 0.031 7.43 0.73 10.54
5/4/2021 1:45:00 PM 12.54 54.572 0.031 7.44 0.63 10.52
5/4/2021 2:00:00 PM 12.69 54.842 0.031 7.48 0.73 10.47
5/4/2021 2:15:00 PM 12.86 55.148 0.031 7.52 0.68 10.43
5/4/2021 2:30:00 PM 12.95 55.31 0.03 7.51 0.65 10.38
5/4/2021 2:45:00 PM 13.06 55.508 0.03 7.72 0.65 10.36
5/4/2021 3:00:00 PM 13.11 55.598 0.031 8.38 0.64 10.33
5/4/2021 3:15:00 PM 13.09 55.562 0.031 8.04 0.72 10.24
5/4/2021 3:30:00 PM 13.08 55.544 0.031 7.91 0.69 10.15
5/4/2021 3:45:00 PM 13.08 55.544 0.031 7.91 0.95 10.12
5/4/2021 4:00:00 PM 13.07 55.526 0.031 7.64 0.73 10.08
5/4/2021 4:15:00 PM 13.12 55.616 0.031 7.52 1.08 10.05
5/4/2021 4:30:00 PM 13.12 55.616 0.031 7.7 1.04 10.12
5/4/2021 4:45:00 PM 13.15 55.67 0.031 7.46 1.08 10.17
5/4/2021 5:00:00 PM 13.17 55.706 0.031 7.51 1.19 10.17
5/4/2021 5:15:00 PM 13.19 55.742 0.031 7.51 0.9 10.16
5/4/2021 5:30:00 PM 13.2 55.76 0.031 7.63 0.86 10.15
5/4/2021 5:45:00 PM 13.18 55.724 0.031 7.66 1.06 10.08
5/4/2021 6:00:00 PM 13.15 55.67 0.031 7.67 0.79 10.08
5/4/2021 6:15:00 PM 13.11 55.598 0.031 7.53 1.09 10.06
5/4/2021 6:30:00 PM 13.08 55.544 0.031 7.66 0.93 10.08
5/4/2021 6:45:00 PM 13.05 55.49 0.031 7.53 1.22 10.05
5/4/2021 7:00:00 PM 13.01 55.418 0.031 7.49 0.88 10.02
5/4/2021 7:15:00 PM 12.97 55.346 0.031 7.51 0.96 9.98
5/4/2021 7:30:00 PM 12.94 55.292 0.031 7.61 1.08 9.97
5/4/2021 7:45:00 PM 12.9 55.22 0.031 7.42 0.91 9.95
5/4/2021 8:00:00 PM 12.86 55.148 0.031 7.4 0.99 9.94
5/4/2021 8:15:00 PM 12.82 55.076 0.031 7.29 1.08 9.94
5/4/2021 8:30:00 PM 12.77 54.986 0.031 7.19 0.88 9.94
5/4/2021 8:45:00 PM 12.72 54.896 0.031 7.26 1.03 9.94
5/4/2021 9:00:00 PM 12.69 54.842 0.031 7.2 1.09 9.95
5/4/2021 9:15:00 PM 12.64 54.752 0.031 7.18 1.07 9.96
5/4/2021 9:30:00 PM 12.59 54.662 0.031 7.14 1.26 9.97
5/4/2021 9:45:00 PM 12.53 54.554 0.031 7.13 0.95 9.97
5/4/2021 10:00:00 PM 12.47 54.446 0.031 7.26 1.09 9.98
5/4/2021 10:15:00 PM 12.42 54.356 0.032 7.28 1.07 10
5/4/2021 10:30:00 PM 12.36 54.248 0.032 7.19 1.1 10.01
5/4/2021 10:45:00 PM 12.3 54.14 0.032 7.19 1.08 10.03
5/4/2021 11:00:00 PM 12.25 54.05 0.032 7.16 1.17 10.05
5/4/2021 11:15:00 PM 12.19 53.942 0.032 7.11 1.43 10.06
5/4/2021 11:30:00 PM 12.14 53.852 0.032 7.21 1.22 10.09
5/4/2021 11:45:00 PM 12.09 53.762 0.032 7.06 1.2 10.1
5/5/2021 12:00:00 AM 12.03 53.654 0.032 7.11 1.06 10.11
5/5/2021 12:15:00 AM 11.99 53.582 0.032 7.16 1.12 10.12
5/5/2021 12:30:00 AM 11.95 53.51 0.032 7.13 1.24 10.14
5/5/2021 12:45:00 AM 11.91 53.438 0.032 7.22 1.36 10.15
5/5/2021 1:00:00 AM 11.88 53.384 0.032 7.1 1.05 10.16
5/5/2021 1:15:00 AM 11.84 53.312 0.032 7.23 1.02 10.16
5/5/2021 1:30:00 AM 11.8 53.24 0.032 7.11 0.9 10.17
5/5/2021 1:45:00 AM 11.77 53.186 0.032 7.1 1 10.18
5/5/2021 2:00:00 AM 11.73 53.114 0.032 7.16 1.2 10.18
5/5/2021 2:15:00 AM 11.7 53.06 0.032 7.13 1.09 10.19
5/5/2021 2:30:00 AM 11.67 53.006 0.032 7.14 1.01 10.2
5/5/2021 2:45:00 AM 11.64 52.952 0.032 7.18 1.03 10.21
5/5/2021 3:00:00 AM 11.6 52.88 0.032 7.23 0.81 10.22
5/5/2021 3:15:00 AM 11.56 52.808 0.032 7.03 0.99 10.23
5/5/2021 3:30:00 AM 11.53 52.754 0.032 7.18 0.92 10.24
5/5/2021 3:45:00 AM 11.51 52.718 0.032 7.18 0.9 10.24
5/5/2021 4:00:00 AM 11.48 52.664 0.032 7.28 0.87 10.25
5/5/2021 4:15:00 AM 11.45 52.61 0.032 7.12 0.82 10.26
5/5/2021 4:30:00 AM 11.43 52.574 0.032 7.07 1 10.27
5/5/2021 4:45:00 AM 11.4 52.52 0.032 7.12 0.79 10.27
5/5/2021 5:00:00 AM 11.37 52.466 0.032 7.02 0.97 10.28
5/5/2021 5:15:00 AM 11.35 52.43 0.032 7.15 0.96 10.28
5/5/2021 5:30:00 AM 11.32 52.376 0.032 7.04 0.9 10.29
5/5/2021 5:45:00 AM 11.3 52.34 0.032 6.95 0.94 10.3
5/5/2021 6:00:00 AM 11.27 52.286 0.032 7.07 0.82 10.3
5/5/2021 6:15:00 AM 11.25 52.25 0.032 7.16 1 10.31
5/5/2021 6:30:00 AM 11.23 52.214 0.032 7.04 0.81 10.32
5/5/2021 6:45:00 AM 11.21 52.178 0.032 6.97 0.89 10.33
5/5/2021 7:00:00 AM 11.19 52.142 0.032 7.12 0.69 10.35
5/5/2021 7:15:00 AM 11.17 52.106 0.032 7.09 0.81 10.36
5/5/2021 7:30:00 AM 11.15 52.07 0.032 7.01 0.63 10.38
5/5/2021 7:45:00 AM 11.14 52.052 0.032 6.97 0.66 10.42
5/5/2021 8:00:00 AM 11.13 52.034 0.032 7.04 0.76 10.43
5/5/2021 8:15:00 AM 11.12 52.016 0.032 6.95 0.6 10.44
5/5/2021 8:30:00 AM 11.11 51.998 0.032 7.1 0.77 10.44
5/5/2021 8:45:00 AM 11.11 51.998 0.032 7.06 0.66 10.45
5/5/2021 9:00:00 AM 11.1 51.98 0.032 7.03 0.78 10.45
5/5/2021 9:15:00 AM 11.1 51.98 0.032 7.15 0.63 10.47
5/5/2021 9:30:00 AM 11.1 51.98 0.032 7.12 0.76 10.48
5/5/2021 9:45:00 AM 11.1 51.98 0.032 7.11 0.6 10.51
5/5/2021 10:00:00 AM 11.11 51.998 0.032 7.12 0.69 10.54
5/5/2021 10:15:00 AM 11.12 52.016 0.032 7.11 0.73 10.57
5/5/2021 10:30:00 AM 11.12 52.016 0.031 7.15 0.65 10.56
5/5/2021 10:45:00 AM 11.12 52.016 0.031 7.09 0.98 10.58
5/5/2021 11:00:00 AM 11.13 52.034 0.031 7.23 1.07 10.6
5/5/2021 11:15:00 AM 11.14 52.052 0.031 7.21 0.75 10.6
5/5/2021 11:30:00 AM 11.13 52.034 0.031 7.14 0.98 10.58
5/5/2021 11:45:00 AM 11.15 52.07 0.031 7.21 0.86 10.61
5/5/2021 12:00:00 PM 11.19 52.142 0.031 7.3 1.59 10.65
5/5/2021 12:15:00 PM 11.23 52.214 0.031 7.26 1.02 10.69
5/5/2021 12:30:00 PM 11.24 52.232 0.031 7.23 0.93 10.66
5/5/2021 12:45:00 PM 11.28 52.304 0.031 7.24 0.95 10.69
5/5/2021 1:00:00 PM 11.31 52.358 0.031 7.37 1.16 10.69
5/5/2021 1:15:00 PM 11.3 52.34 0.031 7.37 1.07 10.66
5/5/2021 1:30:00 PM 11.26 52.268 0.031 7.29 0.92 10.61
5/5/2021 1:45:00 PM 11.23 52.214 0.031 7.27 0.89 10.63
5/5/2021 2:00:00 PM 11.23 52.214 0.031 7.24 0.78 10.66
5/5/2021 2:15:00 PM 11.24 52.232 0.031 7.35 0.93 10.67
5/5/2021 2:30:00 PM 11.26 52.268 0.031 7.34 0.96 10.69
5/5/2021 2:45:00 PM 11.31 52.358 0.031 7.3 0.91 10.7
5/5/2021 3:00:00 PM 11.34 52.412 0.031 7.26 0.78 10.69
5/5/2021 3:15:00 PM 11.35 52.43 0.031 7.2 0.74 10.67
5/5/2021 3:30:00 PM 11.34 52.412 0.031 7.19 0.93 10.65
5/5/2021 3:45:00 PM 11.33 52.394 0.03 7.25 0.87 10.65
5/5/2021 4:00:00 PM 11.31 52.358 0.031 7.23 0.76 10.65
5/5/2021 4:15:00 PM 11.3 52.34 0.031 7.19 0.85 10.65
5/5/2021 4:30:00 PM 11.31 52.358 0.031 7.26 0.68 10.68
5/5/2021 4:45:00 PM 11.31 52.358 0.031 7.24 0.8 10.69
5/5/2021 5:00:00 PM 11.31 52.358 0.031 7.19 0.9 10.7
5/5/2021 5:15:00 PM 11.3 52.34 0.031 7.17 0.83 10.68
5/5/2021 5:30:00 PM 11.29 52.322 0.03 7.22 0.84 10.66
5/5/2021 5:45:00 PM 11.28 52.304 0.03 7.21 0.85 10.64
5/5/2021 6:00:00 PM 11.25 52.25 0.03 7.18 0.75 10.6
5/5/2021 6:15:00 PM 11.23 52.214 0.031 7.3 0.74 10.57
5/5/2021 6:30:00 PM 11.2 52.16 0.031 7.2 0.64 10.55
5/5/2021 6:45:00 PM 11.16 52.088 0.031 7.15 0.85 10.55
5/5/2021 7:00:00 PM 11.12 52.016 0.031 7.14 0.79 10.56
5/5/2021 7:15:00 PM 11.07 51.926 0.031 7.07 0.79 10.56
5/5/2021 7:30:00 PM 11.01 51.818 0.031 7.18 0.85 10.56
5/5/2021 7:45:00 PM 10.95 51.71 0.031 7.15 0.87 10.55
5/5/2021 8:00:00 PM 10.89 51.602 0.031 7.17 0.81 10.55
5/5/2021 8:15:00 PM 10.82 51.476 0.031 7.22 0.75 10.55
5/5/2021 8:30:00 PM 10.76 51.368 0.031 7.05 0.94 10.55
5/5/2021 8:45:00 PM 10.69 51.242 0.031 7.1 0.92 10.56
5/5/2021 9:00:00 PM 10.63 51.134 0.031 7.08 0.93 10.57
5/5/2021 9:15:00 PM 10.57 51.026 0.031 7.08 0.9 10.59
5/5/2021 9:30:00 PM 10.51 50.918 0.031 7.11 0.85 10.6
5/5/2021 9:45:00 PM 10.44 50.792 0.031 7.05 0.9 10.61
5/5/2021 10:00:00 PM 10.38 50.684 0.031 7.16 0.6 10.63
5/5/2021 10:15:00 PM 10.32 50.576 0.031 7.04 0.86 10.64
5/5/2021 10:30:00 PM 10.26 50.468 0.031 7.09 0.91 10.66
5/5/2021 10:45:00 PM 10.21 50.378 0.031 7 0.52 10.68
5/5/2021 11:00:00 PM 10.16 50.288 0.031 7.14 0.69 10.69
5/5/2021 11:15:00 PM 10.11 50.198 0.031 7.05 0.87 10.71
5/5/2021 11:30:00 PM 10.06 50.108 0.031 7 0.71 10.72
5/5/2021 11:45:00 PM 10.01 50.018 0.031 7.06 0.68 10.74
5/6/2021 12:00:00 AM 9.95 49.91 0.031 7.07 0.79 10.75
5/6/2021 12:15:00 AM 9.9 49.82 0.031 7.12 0.58 10.77
5/6/2021 12:30:00 AM 9.85 49.73 0.031 7.08 0.85 10.78
5/6/2021 12:45:00 AM 9.8 49.64 0.031 7.15 0.61 10.79
5/6/2021 1:00:00 AM 9.75 49.55 0.031 7.11 0.76 10.81
5/6/2021 1:15:00 AM 9.7 49.46 0.031 7.14 0.78 10.81
5/6/2021 1:30:00 AM 9.66 49.388 0.031 7.16 0.74 10.83
5/6/2021 1:45:00 AM 9.62 49.316 0.031 7.05 0.71 10.84
5/6/2021 2:00:00 AM 9.57 49.226 0.031 7.1 0.91 10.85
5/6/2021 2:15:00 AM 9.53 49.154 0.031 7.07 0.52 10.87
5/6/2021 2:30:00 AM 9.5 49.1 0.032 7.05 0.54 10.87
5/6/2021 2:45:00 AM 9.46 49.028 0.031 7.12 0.74 10.88
5/6/2021 3:00:00 AM 9.42 48.956 0.031 7.03 0.58 10.9
5/6/2021 3:15:00 AM 9.37 48.866 0.031 7.07 0.71 10.91
5/6/2021 3:30:00 AM 9.32 48.776 0.031 7.07 0.76 10.92
5/6/2021 3:45:00 AM 9.27 48.686 0.031 7.06 0.63 10.94
5/6/2021 4:00:00 AM 9.22 48.596 0.031 7.08 0.82 10.95
5/6/2021 4:15:00 AM 9.18 48.524 0.031 7.05 0.57 10.96
5/6/2021 4:30:00 AM 9.14 48.452 0.031 7.06 0.69 10.97
5/6/2021 4:45:00 AM 9.1 48.38 0.031 7.12 0.62 10.98
5/6/2021 5:00:00 AM 9.07 48.326 0.031 7.07 0.62 10.99
5/6/2021 5:15:00 AM 9.03 48.254 0.031 7.05 0.71 11
5/6/2021 5:30:00 AM 9 48.2 0.031 7.08 0.71 11.01
5/6/2021 5:45:00 AM 8.96 48.128 0.031 7.07 0.56 11.03
5/6/2021 6:00:00 AM 8.93 48.074 0.031 7.09 0.68 11.04
5/6/2021 6:15:00 AM 8.89 48.002 0.031 7.07 0.61 11.05
5/6/2021 6:30:00 AM 8.86 47.948 0.031 7.08 0.52 11.08
5/6/2021 6:45:00 AM 8.84 47.912 0.031 7.1 0.64 11.11
5/6/2021 7:00:00 AM 8.8 47.84 0.031 7.16 0.63 11.13
5/6/2021 7:15:00 AM 8.78 47.804 0.031 7.18 0.73 11.17
5/6/2021 7:30:00 AM 8.78 47.804 0.031 7.18 0.6 11.21
5/6/2021 7:45:00 AM 8.76 47.768 0.031 7.22 0.76 11.22
5/6/2021 8:00:00 AM 8.75 47.75 0.031 7.14 0.53 11.24
5/6/2021 8:15:00 AM 8.72 47.696 0.031 7.17 0.52 11.24
5/6/2021 8:30:00 AM 8.7 47.66 0.031 7.15 0.62 11.25
5/6/2021 8:45:00 AM 8.69 47.642 0.031 7.15 0.77 11.26
5/6/2021 9:00:00 AM 8.68 47.624 0.031 7.19 0.5 11.28
5/6/2021 9:15:00 AM 8.68 47.624 0.031 7.2 0.47 11.29
5/6/2021 9:30:00 AM 8.7 47.66 0.031 7.25 0.44 11.31
5/6/2021 9:45:00 AM 8.76 47.768 0.031 7.03 0.46 11.35
5/6/2021 10:00:00 AM 8.8 47.84 0.031 7.24 0.54 11.35
5/6/2021 10:15:00 AM 8.88 47.984 0.031 7.22 0.5 11.35
5/6/2021 10:30:00 AM 8.94 48.092 0.031 7.2 0.5 11.36
5/6/2021 10:45:00 AM 9.02 48.236 0.031 7.27 0.5 11.37
5/6/2021 11:00:00 AM 9.13 48.434 0.03 7.31 0.57 11.34
5/6/2021 11:15:00 AM 9.28 48.704 0.03 7.3 0.82 11.32
5/6/2021 11:30:00 AM 9.38 48.884 0.03 7.29 0.48 11.3
5/6/2021 11:45:00 AM 9.53 49.154 0.03 7.21 0.64 11.27
5/6/2021 12:00:00 PM 9.75 49.55 0.03 7.32 0.48 11.23
5/6/2021 12:15:00 PM 10.01 50.018 0.03 7.31 0.47 11.19
5/6/2021 12:30:00 PM 10.09 50.162 0.03 7.35 0.5 11.16
5/6/2021 12:45:00 PM 10.2 50.36 0.03 7.36 0.72 11.13
5/6/2021 1:00:00 PM 10.24 50.432 0.03 7.33 0.56 11.11
5/6/2021 1:15:00 PM 10.36 50.648 0.03 7.32 0.59 11.09
5/6/2021 1:30:00 PM 10.5 50.9 0.03 7.32 0.53 11.06
5/6/2021 1:45:00 PM 10.64 51.152 0.03 7.34 0.62 11.03
5/6/2021 2:00:00 PM 10.71 51.278 0.03 7.4 0.72 11
5/6/2021 2:15:00 PM 10.79 51.422 0.03 7.29 0.54 10.98
5/6/2021 2:30:00 PM 10.88 51.584 0.03 7.33 0.65 10.95
5/6/2021 2:45:00 PM 10.93 51.674 0.03 7.39 0.8 10.93
5/6/2021 3:00:00 PM 11.01 51.818 0.03 7.31 0.7 10.91
5/6/2021 3:15:00 PM 11.1 51.98 0.03 7.34 0.6 10.89
5/6/2021 3:30:00 PM 11.15 52.07 0.03 7.3 0.6 10.87
5/6/2021 3:45:00 PM 11.18 52.124 0.03 7.31 0.52 10.84
5/6/2021 4:00:00 PM 11.21 52.178 0.03 7.3 0.69 10.82
5/6/2021 4:15:00 PM 11.27 52.286 0.03 7.23 0.65 10.8
5/6/2021 4:30:00 PM 11.33 52.394 0.03 7.35 0.59 10.79
5/6/2021 4:45:00 PM 11.34 52.412 0.03 7.31 0.61 10.77
5/6/2021 5:00:00 PM 11.34 52.412 0.03 7.33 0.6 10.76
5/6/2021 5:15:00 PM 11.34 52.412 0.03 7.24 0.68 10.74
5/6/2021 5:30:00 PM 11.32 52.376 0.03 7.37 0.65 10.73
5/6/2021 5:45:00 PM 11.29 52.322 0.03 7.25 0.73 10.7
5/6/2021 6:00:00 PM 11.26 52.268 0.03 7.27 0.53 10.69
5/6/2021 6:15:00 PM 11.23 52.214 0.03 7.19 0.63 10.67
5/6/2021 6:30:00 PM 11.18 52.124 0.03 7.15 0.7 10.65
5/6/2021 6:45:00 PM 11.13 52.034 0.03 7.17 0.68 10.62
5/6/2021 7:00:00 PM 11.09 51.962 0.03 7.1 0.6 10.61
5/6/2021 7:15:00 PM 11.06 51.908 0.03 7.12 0.62 10.61
5/6/2021 7:30:00 PM 11 51.8 0.03 7.13 0.84 10.59
5/6/2021 7:45:00 PM 10.93 51.674 0.03 7.14 0.82 10.59
5/6/2021 8:00:00 PM 10.84 51.512 0.03 7.07 0.63 10.58
5/6/2021 8:15:00 PM 10.74 51.332 0.031 7.1 0.76 10.59
5/6/2021 8:30:00 PM 10.65 51.17 0.031 7.01 0.74 10.59
5/6/2021 8:45:00 PM 10.56 51.008 0.031 7.12 0.69 10.6
5/6/2021 9:00:00 PM 10.47 50.846 0.031 7.12 0.7 10.62
5/6/2021 9:15:00 PM 10.38 50.684 0.031 7.03 0.63 10.63
5/6/2021 9:30:00 PM 10.28 50.504 0.031 7.06 0.7 10.65
5/6/2021 9:45:00 PM 10.19 50.342 0.031 7.08 0.71 10.68
5/6/2021 10:00:00 PM 10.1 50.18 0.031 7.04 0.86 10.7
5/6/2021 10:15:00 PM 10 50 0.031 7.12 0.71 10.73
5/6/2021 10:30:00 PM 9.91 49.838 0.031 7.14 0.96 10.75
5/6/2021 10:45:00 PM 9.82 49.676 0.031 7.16 0.57 10.77
5/6/2021 11:00:00 PM 9.73 49.514 0.031 7.1 0.55 10.8
5/6/2021 11:15:00 PM 9.65 49.37 0.031 7.07 0.72 10.82
5/6/2021 11:30:00 PM 9.56 49.208 0.031 7.07 0.57 10.84
5/6/2021 11:45:00 PM 9.48 49.064 0.031 7.06 0.51 10.87
5/7/2021 12:00:00 AM 9.39 48.902 0.031 7.1 0.67 10.89
5/7/2021 12:15:00 AM 9.31 48.758 0.031 6.99 0.69 10.91
5/7/2021 12:30:00 AM 9.23 48.614 0.031 6.96 0.49 10.93
5/7/2021 12:45:00 AM 9.15 48.47 0.031 7.02 0.56 10.95
5/7/2021 1:00:00 AM 9.07 48.326 0.031 7 0.7 10.97
5/7/2021 1:15:00 AM 9 48.2 0.031 7 0.84 10.99
5/7/2021 1:30:00 AM 8.92 48.056 0.031 7.03 0.53 11.02
5/7/2021 1:45:00 AM 8.85 47.93 0.031 7.08 0.65 11.04
5/7/2021 2:00:00 AM 8.78 47.804 0.031 7.09 0.59 11.06
5/7/2021 2:15:00 AM 8.71 47.678 0.031 6.98 0.51 11.07
5/7/2021 2:30:00 AM 8.64 47.552 0.031 7.01 0.62 11.09
5/7/2021 2:45:00 AM 8.57 47.426 0.031 7.02 0.47 11.11
5/7/2021 3:00:00 AM 8.5 47.3 0.031 7.03 0.49 11.12
5/7/2021 3:15:00 AM 8.44 47.192 0.031 7.06 0.47 11.14
5/7/2021 3:30:00 AM 8.37 47.066 0.031 7.08 0.66 11.16
5/7/2021 3:45:00 AM 8.31 46.958 0.031 6.99 0.51 11.17
5/7/2021 4:00:00 AM 8.24 46.832 0.031 7.09 0.49 11.19
5/7/2021 4:15:00 AM 8.18 46.724 0.031 7.06 0.55 11.21
5/7/2021 4:30:00 AM 8.11 46.598 0.031 7.08 0.47 11.23
5/7/2021 4:45:00 AM 8.05 46.49 0.031 7.02 0.4 11.25
5/7/2021 5:00:00 AM 8 46.4 0.031 7.18 0.41 11.27
5/7/2021 5:15:00 AM 7.94 46.292 0.031 7.09 0.32 11.28
5/7/2021 5:30:00 AM 7.88 46.184 0.031 7.11 0.48 11.3
5/7/2021 5:45:00 AM 7.83 46.094 0.031 7.14 0.66 11.31
5/7/2021 6:00:00 AM 7.77 45.986 0.031 7.05 0.62 11.32
5/7/2021 6:15:00 AM 7.72 45.896 0.031 7.18 0.52 11.34
5/7/2021 6:30:00 AM 7.67 45.806 0.031 7.1 0.6 11.36
5/7/2021 6:45:00 AM 7.63 45.734 0.031 7.14 0.39 11.4
5/7/2021 7:00:00 AM 7.6 45.68 0.031 7.09 0.36 11.43
5/7/2021 7:15:00 AM 7.57 45.626 0.031 7.04 0.31 11.46
5/7/2021 7:30:00 AM 7.56 45.608 0.031 7.2 0.62 11.51
5/7/2021 7:45:00 AM 7.55 45.59 0.031 7.22 0.27 11.54
5/7/2021 8:00:00 AM 7.55 45.59 0.031 7.19 0.33 11.57
5/7/2021 8:15:00 AM 7.56 45.608 0.031 7.24 0.26 11.59
5/7/2021 8:30:00 AM 7.56 45.608 0.031 7.32 0.21 11.61
5/7/2021 8:45:00 AM 7.58 45.644 0.031 7.28 0.21 11.61
5/7/2021 9:00:00 AM 7.6 45.68 0.031 7.22 0.16 11.62
5/7/2021 9:15:00 AM 7.64 45.752 0.031 7.21 0.22 11.62
5/7/2021 9:30:00 AM 7.69 45.842 0.03 7.3 0.33 11.62
5/7/2021 9:45:00 AM 7.76 45.968 0.03 7.34 0.23 11.62
5/7/2021 10:00:00 AM 7.87 46.166 0.03 7.27 0.41 11.63
5/7/2021 10:15:00 AM 7.97 46.346 0.03 7.31 0.37 11.61
5/7/2021 10:30:00 AM 8.07 46.526 0.03 7.25 0.25 11.6
5/7/2021 10:45:00 AM 8.19 46.742 0.03 7.31 0.41 11.57
5/7/2021 11:00:00 AM 8.3 46.94 0.03 7.34 0.27 11.54
5/7/2021 11:15:00 AM 8.36 47.048 0.03 7.33 0.23 11.52
5/7/2021 11:30:00 AM 8.46 47.228 0.03 7.37 0.33 11.51
5/7/2021 11:45:00 AM 8.61 47.498 0.03 7.33 0.19 11.48
5/7/2021 12:00:00 PM 8.75 47.75 0.03 7.26 0.32 11.45
5/7/2021 12:15:00 PM 8.85 47.93 0.03 7.38 0.35 11.41
5/7/2021 12:30:00 PM 8.95 48.11 0.03 7.38 0.29 11.39
5/7/2021 12:45:00 PM 9.01 48.218 0.03 7.31 0.24 11.34
5/7/2021 1:00:00 PM 9.09 48.362 0.03 7.4 0.26 11.3
5/7/2021 1:15:00 PM 9.15 48.47 0.03 7.32 0.39 11.24
5/7/2021 1:30:00 PM 9.21 48.578 0.03 7.25 0.3 11.19
5/7/2021 1:45:00 PM 9.25 48.65 0.03 7.33 0.48 11.18
5/7/2021 2:00:00 PM 9.29 48.722 0.03 7.24 0.31 11.15
5/7/2021 2:15:00 PM 9.31 48.758 0.03 7.21 0.35 11.12
5/7/2021 2:30:00 PM 9.34 48.812 0.03 7.21 0.41 11.09
5/7/2021 2:45:00 PM 9.36 48.848 0.03 7.21 0.5 11.08
5/7/2021 3:00:00 PM 9.39 48.902 0.03 7.27 0.4 11.09
5/7/2021 3:15:00 PM 9.43 48.974 0.03 7.29 0.38 11.11
5/7/2021 3:30:00 PM 9.46 49.028 0.03 7.33 0.47 11.13
5/7/2021 3:45:00 PM 9.48 49.064 0.03 7.24 0.33 11.12
5/7/2021 4:00:00 PM 9.48 49.064 0.03 7.25 0.42 11.09
5/7/2021 4:15:00 PM 9.5 49.1 0.03 7.27 0.43 11.09
5/7/2021 4:30:00 PM 9.51 49.118 0.03 7.25 0.51 11.09
5/7/2021 4:45:00 PM 9.51 49.118 0.03 7.36 0.39 11.07
5/7/2021 5:00:00 PM 9.5 49.1 0.03 7.31 0.45 11.05
5/7/2021 5:15:00 PM 9.48 49.064 0.03 7.23 0.69 11.01
5/7/2021 5:30:00 PM 9.47 49.046 0.03 7.24 0.56 11.01
5/7/2021 5:45:00 PM 9.45 49.01 0.03 7.19 0.52 11
5/7/2021 6:00:00 PM 9.44 48.992 0.03 7.25 0.45 10.99
5/7/2021 6:15:00 PM 9.42 48.956 0.03 7.25 0.59 10.98
5/7/2021 6:30:00 PM 9.4 48.92 0.03 7.18 0.44 10.97
5/7/2021 6:45:00 PM 9.38 48.884 0.03 7.22 0.73 10.96
5/7/2021 7:00:00 PM 9.35 48.83 0.03 7.23 0.6 10.95
5/7/2021 7:15:00 PM 9.32 48.776 0.03 7.13 0.61 10.95
5/7/2021 7:30:00 PM -99999.99 -179968 -99999.99 -99999.99 -99999.99 -99999.99
5/7/2021 7:45:00 PM -99999.99 -179968 -99999.99 -99999.99 -99999.99 -99999.99
5/7/2021 8:00:00 PM -99999.99 -179968 -99999.99 -99999.99 -99999.99 -99999.99
5/7/2021 8:15:00 PM -99999.99 -179968 -99999.99 -99999.99 -99999.99 -99999.99
5/7/2021 8:30:00 PM -99999.99 -179968 -99999.99 -99999.99 -99999.99 -99999.99
5/7/2021 8:45:00 PM -99999.99 -179968 -99999.99 -99999.99 -99999.99 -99999.99
5/7/2021 9:00:00 PM -99999.99 -179968 -99999.99 -99999.99 -99999.99 -99999.99
5/7/2021 9:15:00 PM -99999.99 -179968 -99999.99 -99999.99 -99999.99 -99999.99
5/7/2021 9:30:00 PM -99999.99 -179968 -99999.99 -99999.99 -99999.99 -99999.99
5/7/2021 9:45:00 PM -99999.99 -179968 -99999.99 -99999.99 -99999.99 -99999.99
5/7/2021 10:00:00 PM -99999.99 -179968 -99999.99 -99999.99 -99999.99 -99999.99
5/7/2021 10:15:00 PM -99999.99 -179968 -99999.99 -99999.99 -99999.99 -99999.99
5/7/2021 10:30:00 PM -99999.99 -179968 -99999.99 -99999.99 -99999.99 -99999.99
5/7/2021 10:45:00 PM -99999.99 -179968 -99999.99 -99999.99 -99999.99 -99999.99
5/7/2021 11:00:00 PM -99999.99 -179968 -99999.99 -99999.99 -99999.99 -99999.99
5/7/2021 11:15:00 PM -99999.99 -179968 -99999.99 -99999.99 -99999.99 -99999.99
5/7/2021 11:30:00 PM -99999.99 -179968 -99999.99 -99999.99 -99999.99 -99999.99
5/7/2021 11:45:00 PM -99999.99 -179968 -99999.99 -99999.99 -99999.99 -99999.99
5/8/2021 12:00:00 AM -99999.99 -179968 -99999.99 -99999.99 -99999.99 -99999.99
5/8/2021 12:15:00 AM -99999.99 -179968 -99999.99 -99999.99 -99999.99 -99999.99
5/8/2021 12:30:00 AM -99999.99 -179968 -99999.99 -99999.99 -99999.99 -99999.99
5/8/2021 12:45:00 AM -99999.99 -179968 -99999.99 -99999.99 -99999.99 -99999.99
5/8/2021 1:00:00 AM 8.52 47.336 0.033 7.22 -0.44 10.98
5/8/2021 1:15:00 AM 8.47 47.246 0.031 7.16 0.65 11.11
5/8/2021 1:30:00 AM 8.42 47.156 0.03 7.13 0.35 11.12
5/8/2021 1:45:00 AM 8.37 47.066 0.03 7.11 0.68 11.14
5/8/2021 2:00:00 AM 8.33 46.994 0.031 7.21 0.4 11.15
5/8/2021 2:15:00 AM 8.29 46.922 0.03 7.27 0.75 11.16
5/8/2021 2:30:00 AM 8.25 46.85 0.031 7.2 0.52 11.17
5/8/2021 2:45:00 AM 8.21 46.778 0.03 7.13 0.54 11.19
5/8/2021 3:00:00 AM 8.17 46.706 0.03 7.21 0.39 11.2
5/8/2021 3:15:00 AM 8.14 46.652 0.03 7.14 0.38 11.21
5/8/2021 3:30:00 AM 8.11 46.598 0.031 7.15 0.5 11.22
5/8/2021 3:45:00 AM 8.08 46.544 0.03 7.11 0.51 11.22
5/8/2021 4:00:00 AM 8.05 46.49 0.03 7.1 0.43 11.23
5/8/2021 4:15:00 AM 8.03 46.454 0.031 7.14 0.52 11.24
5/8/2021 4:30:00 AM 8 46.4 0.03 7.2 0.45 11.25
5/8/2021 4:45:00 AM 7.97 46.346 0.03 7.16 0.45 11.25
5/8/2021 5:00:00 AM 7.94 46.292 0.031 7.17 0.52 11.26
5/8/2021 5:15:00 AM 7.92 46.256 0.031 7.2 0.5 11.27
5/8/2021 5:30:00 AM 7.9 46.22 0.031 7.2 0.41 11.28
5/8/2021 5:45:00 AM 7.87 46.166 0.031 7.18 0.33 11.28
5/8/2021 6:00:00 AM 7.85 46.13 0.031 7.23 0.4 11.29
5/8/2021 6:15:00 AM 7.82 46.076 0.03 7.17 0.43 11.3
5/8/2021 6:30:00 AM 7.8 46.04 0.031 7.18 0.44 11.32
5/8/2021 6:45:00 AM 7.78 46.004 0.031 7.15 0.42 11.34
5/8/2021 7:00:00 AM 7.77 45.986 0.03 7.17 0.36 11.38
5/8/2021 7:15:00 AM 7.76 45.968 0.03 7.19 0.35 11.42
5/8/2021 7:30:00 AM 7.76 45.968 0.03 7.12 0.42 11.45
5/8/2021 7:45:00 AM 7.77 45.986 0.03 7.18 0.37 11.49
5/8/2021 8:00:00 AM 7.77 45.986 0.03 7.18 0.28 11.5
5/8/2021 8:15:00 AM 7.79 46.022 0.03 7.19 0.2 11.52
5/8/2021 8:30:00 AM 7.79 46.022 0.03 7.25 0.29 11.53
5/8/2021 8:45:00 AM 7.81 46.058 0.03 7.24 0.28 11.55
5/8/2021 9:00:00 AM 7.84 46.112 0.03 7.25 0.28 11.57
5/8/2021 9:15:00 AM 7.87 46.166 0.03 7.31 0.26 11.58
5/8/2021 9:30:00 AM 7.92 46.256 0.03 7.27 0.21 11.58
5/8/2021 9:45:00 AM 7.97 46.346 0.03 7.29 0.2 11.58
5/8/2021 10:00:00 AM 8.01 46.418 0.03 7.33 0.14 11.58
5/8/2021 10:15:00 AM 8.06 46.508 0.03 7.31 0.09 11.57
5/8/2021 10:30:00 AM 8.11 46.598 0.03 7.33 0.25 11.56
5/8/2021 10:45:00 AM 8.14 46.652 0.03 7.29 0.29 11.54
5/8/2021 11:00:00 AM 8.18 46.724 0.03 7.36 0.22 11.54
5/8/2021 11:15:00 AM 8.22 46.796 0.03 7.26 0.36 11.52
5/8/2021 11:30:00 AM 8.25 46.85 0.03 7.4 0.43 11.51
5/8/2021 11:45:00 AM 8.33 46.994 0.03 7.28 0.22 11.5
5/8/2021 12:00:00 PM 8.41 47.138 0.03 7.28 0.26 11.51
5/8/2021 12:15:00 PM 8.5 47.3 0.03 7.36 0.27 11.5
5/8/2021 12:30:00 PM 8.57 47.426 0.03 7.35 0.15 11.49
5/8/2021 12:45:00 PM 8.7 47.66 0.03 7.33 0.27 11.48
5/8/2021 1:00:00 PM 8.79 47.822 0.03 7.29 0.37 11.45
5/8/2021 1:15:00 PM 8.96 48.128 0.03 7.38 0.18 11.42
5/8/2021 1:30:00 PM 8.94 48.092 0.03 7.43 0.2 11.36
5/8/2021 1:45:00 PM 8.97 48.146 0.03 7.34 0.2 11.36
5/8/2021 2:00:00 PM 9.02 48.236 0.03 7.5 0.24 11.35
5/8/2021 2:15:00 PM 9.09 48.362 0.03 7.42 0.3 11.32
5/8/2021 2:30:00 PM 9.05 48.29 0.03 7.44 0.25 11.28
5/8/2021 2:45:00 PM 9.06 48.308 0.03 7.43 0.42 11.24
5/8/2021 3:00:00 PM 9.13 48.434 0.03 7.34 0.27 11.27
5/8/2021 3:15:00 PM 9.27 48.686 0.03 7.32 0.43 11.3
5/8/2021 3:30:00 PM 9.32 48.776 0.03 7.42 0.47 11.28
5/8/2021 3:45:00 PM 9.3 48.74 0.03 7.42 0.3 11.25
5/8/2021 4:00:00 PM 9.4 48.92 0.03 7.33 0.3 11.25
5/8/2021 4:15:00 PM 9.41 48.938 0.03 7.42 0.23 11.21
5/8/2021 4:30:00 PM 9.41 48.938 0.03 7.38 0.45 11.21
5/8/2021 4:45:00 PM 9.44 48.992 0.03 7.4 0.26 11.21
5/8/2021 5:00:00 PM 9.5 49.1 0.03 7.44 0.49 11.2
5/8/2021 5:15:00 PM 9.5 49.1 0.03 7.43 0.43 11.15
5/8/2021 5:30:00 PM 9.48 49.064 0.03 7.26 0.51 11.06
5/8/2021 5:45:00 PM 9.43 48.974 0.03 7.28 0.56 11.03
5/8/2021 6:00:00 PM 9.41 48.938 0.03 7.35 0.64 11.08
5/8/2021 6:15:00 PM 9.35 48.83 0.03 7.31 0.45 11.07
5/8/2021 6:30:00 PM 9.33 48.794 0.03 7.41 0.44 11.07
5/8/2021 6:45:00 PM 9.31 48.758 0.03 7.29 0.68 11.06
5/8/2021 7:00:00 PM 9.28 48.704 0.03 7.29 0.58 11.05
5/8/2021 7:15:00 PM 9.24 48.632 0.03 7.31 0.47 11.05
5/8/2021 7:30:00 PM 9.21 48.578 0.03 7.22 0.5 11.05
5/8/2021 7:45:00 PM 9.18 48.524 0.03 7.2 0.44 11.05
5/8/2021 8:00:00 PM 9.15 48.47 0.03 7.27 0.36 11.05
5/8/2021 8:15:00 PM 9.13 48.434 0.03 7.25 0.46 11.03
5/8/2021 8:30:00 PM 9.09 48.362 0.03 7.21 0.49 11.03
5/8/2021 8:45:00 PM 9.05 48.29 0.03 7.25 0.49 11.03
5/8/2021 9:00:00 PM 9.01 48.218 0.03 7.27 0.63 11.03
5/8/2021 9:15:00 PM 8.95 48.11 0.03 7.2 0.54 11.04
5/8/2021 9:30:00 PM 8.9 48.02 0.03 7.27 0.44 11.06
5/8/2021 9:45:00 PM 8.84 47.912 0.03 7.15 0.54 11.07
5/8/2021 10:00:00 PM 8.79 47.822 0.03 7.19 0.57 11.09
5/8/2021 10:15:00 PM 8.75 47.75 0.03 7.22 0.41 11.1
5/8/2021 10:30:00 PM 8.7 47.66 0.03 7.13 0.39 11.12
5/8/2021 10:45:00 PM 8.65 47.57 0.03 7.24 0.37 11.13
5/8/2021 11:00:00 PM 8.61 47.498 0.03 7.24 0.36 11.14
5/8/2021 11:15:00 PM 8.57 47.426 0.031 7.31 0.33 11.15
5/8/2021 11:30:00 PM 8.53 47.354 0.031 7.19 0.5 11.16
5/8/2021 11:45:00 PM 8.5 47.3 0.031 7.24 0.32 11.17
5/9/2021 12:00:00 AM 8.46 47.228 0.031 7.22 0.35 11.18
5/9/2021 12:15:00 AM 8.43 47.174 0.031 7.25 0.24 11.19
5/9/2021 12:30:00 AM 8.39 47.102 0.031 7.22 0.42 11.21
5/9/2021 12:45:00 AM 8.35 47.03 0.031 7.15 0.5 11.22
5/9/2021 1:00:00 AM 8.31 46.958 0.031 7.25 0.42 11.23
5/9/2021 1:15:00 AM 8.27 46.886 0.031 7.26 0.49 11.24
5/9/2021 1:30:00 AM 8.23 46.814 0.031 7.24 0.35 11.26
5/9/2021 1:45:00 AM 8.19 46.742 0.031 7.34 0.41 11.27
5/9/2021 2:00:00 AM 8.15 46.67 0.031 7.12 0.46 11.28
5/9/2021 2:15:00 AM 8.11 46.598 0.031 7.1 0.32 11.29
5/9/2021 2:30:00 AM 8.06 46.508 0.031 7.07 0.3 11.31
5/9/2021 2:45:00 AM 8.02 46.436 0.031 7.08 0.4 11.32
5/9/2021 3:00:00 AM 7.98 46.364 0.031 7.1 0.19 11.33
5/9/2021 3:15:00 AM 7.93 46.274 0.031 7.09 0.25 11.34
5/9/2021 3:30:00 AM 7.89 46.202 0.031 7.07 0.44 11.35
5/9/2021 3:45:00 AM 7.85 46.13 0.031 7.11 0.2 11.36
5/9/2021 4:00:00 AM 7.81 46.058 0.031 7.07 0.51 11.37
5/9/2021 4:15:00 AM 7.77 45.986 0.031 7.09 0.29 11.38
5/9/2021 4:30:00 AM 7.73 45.914 0.031 7.1 0.3 11.4
5/9/2021 4:45:00 AM 7.7 45.86 0.031 7.1 0.24 11.41
5/9/2021 5:00:00 AM 7.66 45.788 0.031 7.04 0.34 11.42
5/9/2021 5:15:00 AM 7.63 45.734 0.031 7.08 0.42 11.43
5/9/2021 5:30:00 AM 7.59 45.662 0.031 7.09 0.42 11.44
5/9/2021 5:45:00 AM 7.56 45.608 0.031 7.11 0.35 11.45
5/9/2021 6:00:00 AM 7.53 45.554 0.031 7.11 0.35 11.46
5/9/2021 6:15:00 AM 7.51 45.518 0.031 7.1 0.27 11.48
5/9/2021 6:30:00 AM 7.47 45.446 0.031 7.04 0.32 11.49
5/9/2021 6:45:00 AM 7.44 45.392 0.031 7.14 0.22 11.53
5/9/2021 7:00:00 AM 7.41 45.338 0.031 7.08 0.32 11.56
5/9/2021 7:15:00 AM 7.39 45.302 0.031 7.17 0.21 11.59
5/9/2021 7:30:00 AM 7.36 45.248 0.031 7.14 0.26 11.62
5/9/2021 7:45:00 AM 7.36 45.248 0.031 7.19 0.15 11.66
5/9/2021 8:00:00 AM 7.35 45.23 0.03 7.2 0.23 11.7
5/9/2021 8:15:00 AM 7.36 45.248 0.03 7.24 0.28 11.73
5/9/2021 8:30:00 AM 7.36 45.248 0.03 7.22 0.11 11.74
5/9/2021 8:45:00 AM 7.37 45.266 0.03 7.29 0.25 11.76
5/9/2021 9:00:00 AM 7.39 45.302 0.03 7.21 0.08 11.78
5/9/2021 9:15:00 AM 7.42 45.356 0.03 7.26 0.21 11.78
5/9/2021 9:30:00 AM 7.48 45.464 0.03 7.19 0.1 11.8
5/9/2021 9:45:00 AM 7.54 45.572 0.03 7.25 0.21 11.79
5/9/2021 10:00:00 AM 7.6 45.68 0.03 7.34 0.08 11.78
5/9/2021 10:15:00 AM 7.65 45.77 0.03 7.29 0.13 11.76
5/9/2021 10:30:00 AM 7.69 45.842 0.03 7.32 0.2 11.74
5/9/2021 10:45:00 AM 7.72 45.896 0.03 7.28 0.08 11.73
5/9/2021 11:00:00 AM 7.76 45.968 0.03 7.29 0.1 11.71
5/9/2021 11:15:00 AM 7.81 46.058 0.03 7.3 0.22 11.71
5/9/2021 11:30:00 AM 7.86 46.148 0.03 7.24 0.25 11.7
5/9/2021 11:45:00 AM 7.91 46.238 0.03 7.31 0.22 11.68
5/9/2021 12:00:00 PM 7.95 46.31 0.03 7.46 0.13 11.65
5/9/2021 12:15:00 PM 7.96 46.328 0.03 7.31 0.23 11.6
5/9/2021 12:30:00 PM 7.98 46.364 0.03 7.35 0.28 11.59
5/9/2021 12:45:00 PM 7.99 46.382 0.03 7.45 0.24 11.57
5/9/2021 1:00:00 PM 8 46.4 0.03 7.38 0.27 11.54
5/9/2021 1:15:00 PM 8 46.4 0.03 7.49 0.35 11.52
5/9/2021 1:30:00 PM 7.98 46.364 0.03 7.48 0.37 11.51
5/9/2021 1:45:00 PM 7.96 46.328 0.03 7.39 0.27 11.5
5/9/2021 2:00:00 PM 7.95 46.31 0.03 7.42 0.34 11.5
5/9/2021 2:15:00 PM 7.92 46.256 0.029 7.42 0.34 11.52
5/9/2021 2:30:00 PM 7.9 46.22 0.029 7.47 0.36 11.52
5/9/2021 2:45:00 PM 7.87 46.166 0.029 7.43 0.41 11.53
5/9/2021 3:00:00 PM 7.83 46.094 0.029 7.37 0.36 11.51
5/9/2021 3:15:00 PM 7.79 46.022 0.029 7.37 0.51 11.49
5/9/2021 3:30:00 PM 7.75 45.95 0.029 7.4 0.39 11.49
5/9/2021 3:45:00 PM 7.68 45.824 0.029 7.37 0.4 11.51
5/9/2021 4:00:00 PM 7.63 45.734 0.029 7.37 0.6 11.52
5/9/2021 4:15:00 PM 7.57 45.626 0.029 7.36 0.59 11.54
5/9/2021 4:30:00 PM 7.51 45.518 0.029 7.33 0.77 11.53
5/9/2021 4:45:00 PM 7.45 45.41 0.029 7.46 0.82 11.54
5/9/2021 5:00:00 PM 7.41 45.338 0.029 7.42 0.99 11.55
5/9/2021 5:15:00 PM 7.37 45.266 0.029 7.45 1.15 11.56
5/9/2021 5:30:00 PM 7.32 45.176 0.029 7.45 1.31 11.55
5/9/2021 5:45:00 PM 7.28 45.104 0.029 7.38 1.45 11.55
5/9/2021 6:00:00 PM 7.25 45.05 0.029 7.39 2.19 11.56
5/9/2021 6:15:00 PM 7.21 44.978 0.029 7.37 2.27 11.56
5/9/2021 6:30:00 PM 7.19 44.942 0.029 7.41 2.64 11.55
5/9/2021 6:45:00 PM 7.16 44.888 0.029 7.32 3.04 11.54
5/9/2021 7:00:00 PM 7.13 44.834 0.029 7.39 3.59 11.54
5/9/2021 7:15:00 PM 7.1 44.78 0.029 7.45 4.45 11.53
5/9/2021 7:30:00 PM 7.08 44.744 0.03 7.37 5.73 11.53
5/9/2021 7:45:00 PM 7.07 44.726 0.03 7.35 6.76 11.52
5/9/2021 8:00:00 PM 7.05 44.69 0.03 7.3 8.22 11.52
5/9/2021 8:15:00 PM 7.04 44.672 0.03 7.25 9.57 11.52
5/9/2021 8:30:00 PM 7.02 44.636 0.03 7.28 11.14 11.53
5/9/2021 8:45:00 PM 7.01 44.618 0.029 7.32 12.98 11.53
5/9/2021 9:00:00 PM 7.01 44.618 0.029 7.22 14.53 11.53
5/9/2021 9:15:00 PM 7 44.6 0.029 7.27 15.47 11.53
5/9/2021 9:30:00 PM 7 44.6 0.029 7.24 12.51 11.53
5/9/2021 9:45:00 PM 7 44.6 0.029 7.25 18.09 11.54
5/9/2021 10:00:00 PM 7 44.6 0.029 7.32 14.72 11.53
5/9/2021 10:15:00 PM 7 44.6 0.029 7.3 14.35 11.53
5/9/2021 10:30:00 PM 7.01 44.618 0.029 7.33 15.07 11.53
5/9/2021 10:45:00 PM 7.02 44.636 0.029 7.31 18.11 11.52
5/9/2021 11:00:00 PM 7.03 44.654 0.029 7.27 15.93 11.53
5/9/2021 11:15:00 PM 7.04 44.672 0.029 7.28 25.91 11.52
5/9/2021 11:30:00 PM 7.06 44.708 0.029 7.31 16.18 11.52
5/9/2021 11:45:00 PM 7.07 44.726 0.029 7.3 14.72 11.52
5/10/2021 12:00:00 AM 7.08 44.744 0.029 7.14 19.31 11.52
5/10/2021 12:15:00 AM 7.1 44.78 0.029 7.32 17.02 11.52
5/10/2021 12:30:00 AM 7.11 44.798 0.029 7.32 17.94 11.51
5/10/2021 12:45:00 AM 7.12 44.816 0.029 7.31 17.53 11.51
5/10/2021 1:00:00 AM 7.13 44.834 0.029 7.36 17.44 11.51
5/10/2021 1:15:00 AM 7.15 44.87 0.029 7.31 15.71 11.51
5/10/2021 1:30:00 AM 7.16 44.888 0.029 7.36 14.39 11.51
5/10/2021 1:45:00 AM 7.17 44.906 0.029 7.3 15.79 11.51
5/10/2021 2:00:00 AM 7.18 44.924 0.029 7.33 14.53 11.51
5/10/2021 2:15:00 AM 7.19 44.942 0.028 7.32 14.63 11.51
5/10/2021 2:30:00 AM 7.2 44.96 0.029 7.25 15.87 11.51
5/10/2021 2:45:00 AM 7.2 44.96 0.028 7.37 14.97 11.51
5/10/2021 3:00:00 AM 7.21 44.978 0.028 7.35 13.57 11.51
5/10/2021 3:15:00 AM 7.21 44.978 0.028 7.4 13.99 11.51
5/10/2021 3:30:00 AM 7.21 44.978 0.028 7.33 12.64 11.51
5/10/2021 3:45:00 AM 7.22 44.996 0.028 7.36 13.81 11.51
5/10/2021 4:00:00 AM 7.22 44.996 0.028 7.34 13.29 11.51
5/10/2021 4:15:00 AM 7.22 44.996 0.028 7.33 13.34 11.52
5/10/2021 4:30:00 AM 7.22 44.996 0.028 7.35 12.27 11.52
5/10/2021 4:45:00 AM 7.22 44.996 0.028 7.36 12.66 11.53
5/10/2021 5:00:00 AM 7.23 45.014 0.028 7.33 11.85 11.53
5/10/2021 5:15:00 AM 7.23 45.014 0.028 7.25 11.92 11.53
5/10/2021 5:30:00 AM 7.24 45.032 0.028 7.35 11.08 11.53
5/10/2021 5:45:00 AM 7.24 45.032 0.028 7.28 11.03 11.54
5/10/2021 6:00:00 AM 7.24 45.032 0.028 7.36 10.64 11.54
5/10/2021 6:15:00 AM 7.25 45.05 0.028 7.39 11.98 11.54
5/10/2021 6:30:00 AM 7.25 45.05 0.028 7.39 10.61 11.54
5/10/2021 6:45:00 AM 7.26 45.068 0.028 7.38 10.88 11.55
5/10/2021 7:00:00 AM 7.26 45.068 0.028 7.28 10.29 11.55
5/10/2021 7:15:00 AM 7.28 45.104 0.028 7.29 10.04 11.56
5/10/2021 7:30:00 AM 7.29 45.122 0.028 7.38 9.18 11.57
5/10/2021 7:45:00 AM 7.31 45.158 0.028 7.31 8.91 11.59
5/10/2021 8:00:00 AM 7.33 45.194 0.028 7.41 9.74 11.6
5/10/2021 8:15:00 AM 7.36 45.248 0.028 7.37 8.48 11.61
5/10/2021 8:30:00 AM 7.39 45.302 0.028 7.36 8.54 11.61
5/10/2021 8:45:00 AM 7.43 45.374 0.028 7.33 8.43 11.61
5/10/2021 9:00:00 AM 7.46 45.428 0.028 7.4 8.15 11.61
5/10/2021 9:15:00 AM 7.49 45.482 0.028 7.34 8.58 11.6
5/10/2021 9:30:00 AM 7.54 45.572 0.028 7.28 8.08 11.59
5/10/2021 9:45:00 AM 7.59 45.662 0.028 7.36 8.02 11.59
5/10/2021 10:00:00 AM 7.65 45.77 0.028 7.44 7.76 11.58
5/10/2021 10:15:00 AM 7.72 45.896 0.028 7.33 7.68 11.57
5/10/2021 10:30:00 AM 7.83 46.094 0.028 7.41 7.37 11.56
5/10/2021 10:45:00 AM 7.93 46.274 0.028 7.56 7.52 11.55
5/10/2021 11:00:00 AM 8.02 46.436 0.028 7.55 7.74 11.53
5/10/2021 11:15:00 AM 8.15 46.67 0.028 7.5 6.82 11.5
5/10/2021 11:30:00 AM 8.28 46.904 0.028 7.4 7.01 11.47
5/10/2021 11:45:00 AM 8.4 47.12 0.028 7.52 7.32 11.45
5/10/2021 12:00:00 PM 8.52 47.336 0.028 7.47 6.66 11.43
5/10/2021 12:15:00 PM 8.59 47.462 0.028 7.46 6.92 11.4
5/10/2021 12:30:00 PM 8.62 47.516 0.028 7.46 6.46 11.38
5/10/2021 12:45:00 PM 8.74 47.732 0.028 7.38 6.86 11.36
5/10/2021 1:00:00 PM 8.93 48.074 0.028 7.52 6.66 11.33
5/10/2021 1:15:00 PM 8.98 48.164 0.028 7.47 7 11.3
5/10/2021 1:30:00 PM 8.98 48.164 0.028 7.49 6.59 11.29
5/10/2021 1:45:00 PM 9.08 48.344 0.028 7.44 6.2 11.26
5/10/2021 2:00:00 PM 9.23 48.614 0.028 7.55 6.38 11.25
5/10/2021 2:15:00 PM 9.28 48.704 0.028 7.49 5.98 11.22
5/10/2021 2:30:00 PM 9.28 48.704 0.028 7.48 5.8 11.2
5/10/2021 2:45:00 PM 9.45 49.01 0.028 7.41 6.07 11.19
5/10/2021 3:00:00 PM 9.55 49.19 0.028 7.44 5.74 11.17
5/10/2021 3:15:00 PM 9.63 49.334 0.028 7.41 6.17 11.13
5/10/2021 3:30:00 PM 9.74 49.532 0.028 7.34 5.46 11.1
5/10/2021 3:45:00 PM 9.78 49.604 0.028 7.39 6.13 11.07
5/10/2021 4:00:00 PM 9.76 49.568 0.028 7.44 5.68 11.05
5/10/2021 4:15:00 PM 9.77 49.586 0.028 7.41 5.81 11.03
5/10/2021 4:30:00 PM 9.81 49.658 0.028 7.32 5.76 11.02
5/10/2021 4:45:00 PM 9.84 49.712 0.028 7.36 6.47 11.01
5/10/2021 5:00:00 PM 9.83 49.694 0.028 7.3 5.18 11
5/10/2021 5:15:00 PM 9.79 49.622 0.028 7.43 5.71 11
5/10/2021 5:30:00 PM 9.78 49.604 0.028 7.34 5.66 11.01
5/10/2021 5:45:00 PM 9.74 49.532 0.028 7.23 5.44 11
5/10/2021 6:00:00 PM 9.69 49.442 0.028 7.35 5.11 11
5/10/2021 6:15:00 PM 9.62 49.316 0.028 7.23 5.34 11.02
5/10/2021 6:30:00 PM 9.53 49.154 0.028 7.23 5.52 11.02
5/10/2021 6:45:00 PM 9.46 49.028 0.028 7.3 4.91 11.03
5/10/2021 7:00:00 PM 9.37 48.866 0.028 7.33 5.3 11.04
5/10/2021 7:15:00 PM 9.29 48.722 0.028 7.29 5.01 11.05
5/10/2021 7:30:00 PM 9.21 48.578 0.028 7.12 4.77 11.06
5/10/2021 7:45:00 PM 9.13 48.434 0.028 7.16 5.25 11.07
5/10/2021 8:00:00 PM 9.05 48.29 0.028 7.09 5.74 11.09
5/10/2021 8:15:00 PM 8.98 48.164 0.028 7 5.07 11.11
5/10/2021 8:30:00 PM 8.9 48.02 0.028 7.1 4.95 11.12
5/10/2021 8:45:00 PM 8.84 47.912 0.028 7.15 4.85 11.14
5/10/2021 9:00:00 PM 8.77 47.786 0.028 7.21 5.04 11.15
5/10/2021 9:15:00 PM 8.71 47.678 0.028 7.15 5.23 11.17
5/10/2021 9:30:00 PM 8.65 47.57 0.028 7.15 4.35 11.19
5/10/2021 9:45:00 PM 8.59 47.462 0.028 7.13 4.74 11.2
5/10/2021 10:00:00 PM 8.54 47.372 0.028 7.19 5.26 11.22
5/10/2021 10:15:00 PM 8.48 47.264 0.028 7.15 4.35 11.23
5/10/2021 10:30:00 PM 8.43 47.174 0.028 7.19 4.37 11.25
5/10/2021 10:45:00 PM 8.38 47.084 0.028 7.16 4.64 11.26
5/10/2021 11:00:00 PM 8.33 46.994 0.028 7.07 4.44 11.28
5/10/2021 11:15:00 PM 8.29 46.922 0.028 7.06 4.22 11.29
5/10/2021 11:30:00 PM 8.24 46.832 0.028 7.04 4.68 11.3
5/10/2021 11:45:00 PM 8.19 46.742 0.028 7.05 4.46 11.32
5/11/2021 12:00:00 AM 8.15 46.67 0.028 6.99 4.46 11.33
5/11/2021 12:15:00 AM 8.11 46.598 0.028 6.95 4.16 11.34
5/11/2021 12:30:00 AM 8.07 46.526 0.028 7.04 4.25 11.36
5/11/2021 12:45:00 AM 8.03 46.454 0.028 6.94 4.22 11.37
5/11/2021 1:00:00 AM 7.99 46.382 0.028 7 4.37 11.38
5/11/2021 1:15:00 AM 7.95 46.31 0.028 7.05 4.14 11.4
5/11/2021 1:30:00 AM 7.92 46.256 0.028 6.99 3.96 11.4
5/11/2021 1:45:00 AM 7.88 46.184 0.028 7.02 3.86 11.41
5/11/2021 2:00:00 AM 7.85 46.13 0.028 7 3.91 11.42
5/11/2021 2:15:00 AM 7.81 46.058 0.028 6.99 3.73 11.43
5/11/2021 2:30:00 AM 7.79 46.022 0.028 7.01 3.73 11.44
5/11/2021 2:45:00 AM 7.76 45.968 0.028 7.03 4.32 11.45
5/11/2021 3:00:00 AM 7.74 45.932 0.028 7.03 3.79 11.45
5/11/2021 3:15:00 AM 7.71 45.878 0.028 7.11 3.83 11.46
5/11/2021 3:30:00 AM 7.69 45.842 0.028 7.12 3.49 11.47
5/11/2021 3:45:00 AM 7.67 45.806 0.028 7.09 3.58 11.48
5/11/2021 4:00:00 AM 7.65 45.77 0.028 7.09 3.78 11.48
5/11/2021 4:15:00 AM 7.63 45.734 0.028 7.1 4 11.49
5/11/2021 4:30:00 AM 7.61 45.698 0.028 7.11 3.67 11.49
5/11/2021 4:45:00 AM 7.59 45.662 0.028 7.03 3.69 11.5
5/11/2021 5:00:00 AM 7.57 45.626 0.028 7.03 3.51 11.5
5/11/2021 5:15:00 AM 7.54 45.572 0.028 7.1 3.7 11.51
5/11/2021 5:30:00 AM 7.52 45.536 0.028 7.05 3.75 11.52
5/11/2021 5:45:00 AM 7.49 45.482 0.028 7.07 3.76 11.53
5/11/2021 6:00:00 AM 7.46 45.428 0.028 7.1 3.5 11.53
5/11/2021 6:15:00 AM 7.43 45.374 0.028 6.93 3.77 11.55
5/11/2021 6:30:00 AM 7.4 45.32 0.028 7.07 3.43 11.56
5/11/2021 6:45:00 AM 7.38 45.284 0.028 7.04 3.42 11.58
5/11/2021 7:00:00 AM 7.35 45.23 0.028 7.2 3.38 11.6
5/11/2021 7:15:00 AM 7.33 45.194 0.028 7.16 3.24 11.62
5/11/2021 7:30:00 AM 7.31 45.158 0.028 7.18 3.18 11.63
5/11/2021 7:45:00 AM 7.29 45.122 0.028 7.13 3.3 11.64
5/11/2021 8:00:00 AM 7.28 45.104 0.028 7.21 3.1 11.65
5/11/2021 8:15:00 AM 7.27 45.086 0.028 7.1 3.05 11.67
5/11/2021 8:30:00 AM 7.28 45.104 0.028 7.12 2.83 11.67
5/11/2021 8:45:00 AM 7.29 45.122 0.028 7.11 3.29 11.67
5/11/2021 9:00:00 AM 7.32 45.176 0.028 7.13 2.89 11.68
5/11/2021 9:15:00 AM 7.37 45.266 0.028 7.12 2.98 11.68
5/11/2021 9:30:00 AM 7.43 45.374 0.028 7.13 2.92 11.68
5/11/2021 9:45:00 AM 7.5 45.5 0.028 7.04 2.94 11.68
5/11/2021 10:00:00 AM 7.56 45.608 0.028 7.14 2.86 11.67
5/11/2021 10:15:00 AM 7.65 45.77 0.028 7.09 2.77 11.66
5/11/2021 10:30:00 AM 7.73 45.914 0.028 7.03 2.31 11.63
5/11/2021 10:45:00 AM 7.82 46.076 0.028 7.05 2.52 11.62
5/11/2021 11:00:00 AM 7.91 46.238 0.028 7.13 2.7 11.6
5/11/2021 11:15:00 AM 8.03 46.454 0.028 7.18 2.57 11.58
5/11/2021 11:30:00 AM 8.12 46.616 0.028 7.09 2.45 11.54
5/11/2021 11:45:00 AM 8.18 46.724 0.028 7.14 2.5 11.53
5/11/2021 12:00:00 PM 8.2 46.76 0.028 7.22 2.72 11.52
5/11/2021 12:15:00 PM 8.3 46.94 0.028 7.23 3.03 11.51
5/11/2021 12:30:00 PM 8.39 47.102 0.028 7.16 2.69 11.48
5/11/2021 12:45:00 PM 8.5 47.3 0.028 7.25 2.87 11.46
5/11/2021 1:00:00 PM 8.63 47.534 0.028 7.17 2.68 11.44
5/11/2021 1:15:00 PM 8.69 47.642 0.028 7.19 2.68 11.41
5/11/2021 1:30:00 PM 8.85 47.93 0.028 7.19 2.66 11.39
5/11/2021 1:45:00 PM 8.91 48.038 0.028 7.15 2.64 11.36
5/11/2021 2:00:00 PM 8.96 48.128 0.028 7.18 2.81 11.34
5/11/2021 2:15:00 PM 8.98 48.164 0.028 7.18 2.62 11.32
5/11/2021 2:30:00 PM 9.11 48.398 0.028 6.94 2.51 11.3
5/11/2021 2:45:00 PM 9.22 48.596 0.028 6.98 2.28 11.27
5/11/2021 3:00:00 PM 9.4 48.92 0.028 7.18 2.78 11.24
5/11/2021 3:15:00 PM 9.46 49.028 0.028 7 2.21 11.2
5/11/2021 3:30:00 PM 9.52 49.136 0.028 7.14 2.4 11.17
5/11/2021 3:45:00 PM 9.47 49.046 0.028 7.03 2.92 11.17
5/11/2021 4:00:00 PM 9.49 49.082 0.028 7.07 2.46 11.17
5/11/2021 4:15:00 PM 9.51 49.118 0.028 7.24 1.96 11.17
5/11/2021 4:30:00 PM 9.55 49.19 0.028 7.09 2.31 11.14
5/11/2021 4:45:00 PM 9.62 49.316 0.028 7.14 2.33 11.11
5/11/2021 5:00:00 PM 9.63 49.334 0.028 7.18 2.36 11.09
5/11/2021 5:15:00 PM 9.64 49.352 0.028 7.23 2.2 11.09
5/11/2021 5:30:00 PM 9.56 49.208 0.028 7.08 2.55 11.09
5/11/2021 5:45:00 PM 9.51 49.118 0.028 7.18 2.34 11.1
5/11/2021 6:00:00 PM 9.41 48.938 0.028 7.23 2.37 11.12
5/11/2021 6:15:00 PM 9.31 48.758 0.028 7.19 2.41 11.14
5/11/2021 6:30:00 PM 9.22 48.596 0.028 7.09 2.52 11.15
5/11/2021 6:45:00 PM 9.15 48.47 0.028 7.17 2.56 11.15
5/11/2021 7:00:00 PM 9.08 48.344 0.028 7.23 2.53 11.16
5/11/2021 7:15:00 PM 9 48.2 0.028 7.24 2.32 11.17
5/11/2021 7:30:00 PM 8.92 48.056 0.028 7.11 2.66 11.18
5/11/2021 7:45:00 PM 8.85 47.93 0.028 7.21 2.26 11.2
5/11/2021 8:00:00 PM 8.78 47.804 0.028 7.25 2.3 11.22
5/11/2021 8:15:00 PM 8.72 47.696 0.028 7.13 2.25 11.23
5/11/2021 8:30:00 PM 8.65 47.57 0.028 7.03 2.33 11.24
5/11/2021 8:45:00 PM 8.59 47.462 0.028 7.17 2.19 11.25
5/11/2021 9:00:00 PM 8.52 47.336 0.028 7.18 2.4 11.26
5/11/2021 9:15:00 PM 8.47 47.246 0.028 7.01 2.4 11.28
5/11/2021 9:30:00 PM 8.41 47.138 0.028 7.01 2.3 11.29
5/11/2021 9:45:00 PM 8.34 47.012 0.028 6.99 2.36 11.31
5/11/2021 10:00:00 PM 8.28 46.904 0.028 7.06 2.34 11.33
5/11/2021 10:15:00 PM 8.22 46.796 0.028 7.05 2.28 11.35
5/11/2021 10:30:00 PM 8.16 46.688 0.028 7.05 2.43 11.37
5/11/2021 10:45:00 PM 8.1 46.58 0.028 7.11 2.41 11.39
5/11/2021 11:00:00 PM 8.04 46.472 0.028 7.1 2.34 11.4
5/11/2021 11:15:00 PM 7.98 46.364 0.028 7 2.14 11.42
5/11/2021 11:30:00 PM 7.92 46.256 0.028 6.97 2.35 11.44
5/11/2021 11:45:00 PM 7.87 46.166 0.028 7.12 2.48 11.45
5/12/2021 12:00:00 AM 7.81 46.058 0.028 6.98 2.23 11.47
5/12/2021 12:15:00 AM 7.75 45.95 0.028 7.14 1.72 11.49
5/12/2021 12:30:00 AM 7.7 45.86 0.028 7.09 2.3 11.5
5/12/2021 12:45:00 AM 7.64 45.752 0.028 7.1 2 11.52
5/12/2021 1:00:00 AM 7.59 45.662 0.028 7.08 1.95 11.54
5/12/2021 1:15:00 AM 7.53 45.554 0.028 7.08 2.27 11.55
5/12/2021 1:30:00 AM 7.48 45.464 0.028 6.87 2.3 11.57
5/12/2021 1:45:00 AM 7.43 45.374 0.028 7.02 2.09 11.58
5/12/2021 2:00:00 AM 7.38 45.284 0.028 7.07 2.07 11.6
5/12/2021 2:15:00 AM 7.33 45.194 0.028 7.1 2.21 11.61
5/12/2021 2:30:00 AM 7.28 45.104 0.027 7.09 2.1 11.62
5/12/2021 2:45:00 AM 7.23 45.014 0.028 7 2.07 11.63
5/12/2021 3:00:00 AM 7.19 44.942 0.028 7.14 2.11 11.64
5/12/2021 3:15:00 AM 7.15 44.87 0.028 6.97 2.3 11.66
5/12/2021 3:30:00 AM 7.1 44.78 0.028 6.93 2.17 11.67
5/12/2021 3:45:00 AM 7.06 44.708 0.027 6.94 2.18 11.68
5/12/2021 4:00:00 AM 7.02 44.636 0.028 6.95 2.08 11.69
5/12/2021 4:15:00 AM 6.98 44.564 0.028 6.92 2.07 11.7
5/12/2021 4:30:00 AM 6.94 44.492 0.028 6.95 2.07 11.72
5/12/2021 4:45:00 AM 6.9 44.42 0.028 6.89 2.08 11.73
5/12/2021 5:00:00 AM 6.86 44.348 0.028 6.9 2.05 11.74
5/12/2021 5:15:00 AM 6.83 44.294 0.028 6.79 2.4 11.76
5/12/2021 5:30:00 AM 6.79 44.222 0.028 7.01 2.05 11.77
5/12/2021 5:45:00 AM 6.76 44.168 0.027 6.86 1.97 11.78
5/12/2021 6:00:00 AM 6.73 44.114 0.028 7 1.98 11.8
5/12/2021 6:15:00 AM 6.7 44.06 0.028 7.06 2.01 11.81
5/12/2021 6:30:00 AM 6.67 44.006 0.028 7.07 2.12 11.83
5/12/2021 6:45:00 AM 6.65 43.97 0.028 7 1.78 11.84
5/12/2021 7:00:00 AM 6.63 43.934 0.028 7.07 2.09 11.86
5/12/2021 7:15:00 AM 6.61 43.898 0.029 7.07 1.78 11.87
5/12/2021 7:30:00 AM 6.59 43.862 0.028 7.12 1.74 11.88
5/12/2021 7:45:00 AM 6.57 43.826 0.028 7.06 1.69 11.89
5/12/2021 8:00:00 AM 6.57 43.826 0.028 7.09 1.79 11.9
5/12/2021 8:15:00 AM 6.57 43.826 0.028 6.97 1.71 11.91
5/12/2021 8:30:00 AM 6.58 43.844 0.028 7.1 1.97 11.92
5/12/2021 8:45:00 AM 6.61 43.898 0.028 7.21 2.2 11.93
5/12/2021 9:00:00 AM 6.66 43.988 0.029 7.27 1.65 11.93
5/12/2021 9:15:00 AM 6.74 44.132 0.028 7.22 1.73 11.93
5/12/2021 9:30:00 AM 6.82 44.276 0.028 7.18 1.55 11.92
5/12/2021 9:45:00 AM 6.91 44.438 0.028 7.18 1.3 11.9
5/12/2021 10:00:00 AM 7.02 44.636 0.028 7.2 1.57 11.88
5/12/2021 10:15:00 AM 7.14 44.852 0.028 7.21 1.23 11.86
5/12/2021 10:30:00 AM 7.27 45.086 0.028 7.19 1.37 11.84
5/12/2021 10:45:00 AM 7.42 45.356 0.028 7.26 1.49 11.81
5/12/2021 11:00:00 AM 7.57 45.626 0.028 7.24 1.36 11.77
5/12/2021 11:15:00 AM 7.75 45.95 0.028 7.22 1.54 11.73
5/12/2021 11:30:00 AM 7.92 46.256 0.028 7.11 1.63 11.7
5/12/2021 11:45:00 AM 8.11 46.598 0.028 7.31 1.51 11.67
5/12/2021 12:00:00 PM 8.23 46.814 0.028 7.22 1.63 11.62
5/12/2021 12:15:00 PM 8.38 47.084 0.028 7.22 1.75 11.58
5/12/2021 12:30:00 PM 8.5 47.3 0.028 7.18 1.62 11.53
5/12/2021 12:45:00 PM 8.64 47.552 0.028 7.19 1.51 11.51
5/12/2021 1:00:00 PM 8.72 47.696 0.028 7.11 1.48 11.49
5/12/2021 1:15:00 PM 8.79 47.822 0.028 7.29 1.51 11.46
5/12/2021 1:30:00 PM 8.88 47.984 0.028 7.2 1.98 11.43
5/12/2021 1:45:00 PM 9 48.2 0.028 7.26 1.45 11.41
5/12/2021 2:00:00 PM 9.09 48.362 0.026 7.27 1.63 11.39
5/12/2021 2:15:00 PM 9.25 48.65 0.028 7.35 1.48 11.37
5/12/2021 2:30:00 PM 9.36 48.848 0.028 7.24 1.87 11.31
5/12/2021 2:45:00 PM 9.32 48.776 0.028 7.2 1.79 11.28
5/12/2021 3:00:00 PM 9.4 48.92 0.028 7.26 1.65 11.29
5/12/2021 3:15:00 PM 9.51 49.118 0.028 7.28 1.56 11.28
5/12/2021 3:30:00 PM 9.61 49.298 0.028 7.21 1.59 11.26
5/12/2021 3:45:00 PM 9.65 49.37 0.028 7.21 1.51 11.23
5/12/2021 4:00:00 PM 9.7 49.46 0.028 7.18 1.34 11.2
5/12/2021 4:15:00 PM 9.77 49.586 0.028 6.97 6.77 11.18
5/12/2021 4:30:00 PM 9.86 49.748 0.028 7.21 2.16 11.16
5/12/2021 4:45:00 PM 9.9 49.82 0.028 7.34 2.99 11.14
5/12/2021 5:00:00 PM 9.88 49.784 0.028 7.05 1.77 11.13
5/12/2021 5:15:00 PM 9.86 49.748 0.028 7.19 1.64 11.1
5/12/2021 5:30:00 PM 9.89 49.802 0.028 7.22 1.72 11.09
5/12/2021 5:45:00 PM 9.91 49.838 0.028 7.11 1.67 11.08
5/12/2021 6:00:00 PM 9.88 49.784 0.028 7.16 1.7 11.06
5/12/2021 6:15:00 PM 9.82 49.676 0.028 7.17 1.64 11.05
5/12/2021 6:30:00 PM 9.76 49.568 0.028 7.17 1.74 11.04
5/12/2021 6:45:00 PM 9.71 49.478 0.028 7.11 1.63 11.04
5/12/2021 7:00:00 PM 9.64 49.352 0.028 7.14 1.79 11.04
5/12/2021 7:15:00 PM 9.58 49.244 0.028 7.14 1.62 11.05
5/12/2021 7:30:00 PM 9.53 49.154 0.028 7.18 1.62 11.06
5/12/2021 7:45:00 PM 9.47 49.046 0.028 7.23 1.64 11.06
5/12/2021 8:00:00 PM 9.41 48.938 0.028 7.29 1.54 11.07
5/12/2021 8:15:00 PM 9.35 48.83 0.028 7.19 1.71 11.08
5/12/2021 8:30:00 PM 9.28 48.704 0.028 7.18 1.68 11.09
5/12/2021 8:45:00 PM 9.21 48.578 0.028 7.17 1.59 11.1
5/12/2021 9:00:00 PM 9.14 48.452 0.028 7.15 1.67 11.11
5/12/2021 9:15:00 PM 9.07 48.326 0.028 7.18 1.79 11.12
5/12/2021 9:30:00 PM 9 48.2 0.028 7.15 1.72 11.15
5/12/2021 9:45:00 PM 8.92 48.056 0.029 7.12 1.59 11.17
5/12/2021 10:00:00 PM 8.85 47.93 0.028 7.18 1.69 11.19
5/12/2021 10:15:00 PM 8.78 47.804 0.028 7.18 1.8 11.21
5/12/2021 10:30:00 PM 8.71 47.678 0.028 6.99 1.66 11.24
5/12/2021 10:45:00 PM 8.64 47.552 0.029 7.04 1.54 11.26
5/12/2021 11:00:00 PM 8.57 47.426 0.028 6.98 1.75 11.27
5/12/2021 11:15:00 PM 8.51 47.318 0.029 7.12 1.61 11.29
5/12/2021 11:30:00 PM 8.44 47.192 0.029 7.11 1.55 11.3
5/12/2021 11:45:00 PM 8.37 47.066 0.028 7.12 1.83 11.33
5/13/2021 12:00:00 AM 8.3 46.94 0.029 7.07 1.51 11.35
5/13/2021 12:15:00 AM 8.24 46.832 0.028 7.1 1.58 11.37
5/13/2021 12:30:00 AM 8.17 46.706 0.028 7.1 1.77 11.39
5/13/2021 12:45:00 AM 8.11 46.598 0.028 7.1 1.56 11.41
5/13/2021 1:00:00 AM 8.04 46.472 0.028 7.15 1.74 11.43
5/13/2021 1:15:00 AM 7.98 46.364 0.03 7.03 1.74 11.44
5/13/2021 1:30:00 AM 7.92 46.256 0.028 7.16 1.7 11.46
5/13/2021 1:45:00 AM 7.86 46.148 0.029 7.16 1.79 11.48
5/13/2021 2:00:00 AM 7.79 46.022 0.028 7.05 1.7 11.49
5/13/2021 2:15:00 AM 7.73 45.914 0.029 7.12 1.52 11.51
5/13/2021 2:30:00 AM 7.67 45.806 0.028 7.13 1.57 11.53
5/13/2021 2:45:00 AM 7.61 45.698 0.028 7.12 1.62 11.55
5/13/2021 3:00:00 AM 7.55 45.59 0.028 7.12 1.54 11.56
5/13/2021 3:15:00 AM 7.49 45.482 0.029 7.16 1.52 11.58
5/13/2021 3:30:00 AM 7.43 45.374 0.028 7.05 1.34 11.6
5/13/2021 3:45:00 AM 7.38 45.284 0.028 7.08 1.69 11.62
5/13/2021 4:00:00 AM 7.32 45.176 0.028 7.1 1.71 11.63
5/13/2021 4:15:00 AM 7.27 45.086 0.028 7.16 1.58 11.65
5/13/2021 4:30:00 AM 7.21 44.978 0.028 7.16 1.45 11.66
5/13/2021 4:45:00 AM 7.16 44.888 0.028 6.97 1.41 11.68
5/13/2021 5:00:00 AM 7.11 44.798 0.028 7.12 1.59 11.69
5/13/2021 5:15:00 AM 7.05 44.69 0.029 7.13 1.28 11.71
5/13/2021 5:30:00 AM 7 44.6 0.028 7.15 1.61 11.73
5/13/2021 5:45:00 AM 6.95 44.51 0.028 7.15 1.45 11.75
5/13/2021 6:00:00 AM 6.9 44.42 0.029 7.1 1.48 11.76
5/13/2021 6:15:00 AM 6.85 44.33 0.029 7.11 1.65 11.78
5/13/2021 6:30:00 AM 6.81 44.258 0.029 6.9 1.41 11.8
5/13/2021 6:45:00 AM 6.77 44.186 0.029 7.02 1.45 11.83
5/13/2021 7:00:00 AM 6.73 44.114 0.028 7.05 1.42 11.85
5/13/2021 7:15:00 AM 6.69 44.042 0.028 7.08 1.42 11.86
5/13/2021 7:30:00 AM 6.66 43.988 0.028 7 1.28 11.88
5/13/2021 7:45:00 AM 6.63 43.934 0.028 7.08 1.2 11.9
5/13/2021 8:00:00 AM 6.6 43.88 0.028 6.98 1.4 11.92
5/13/2021 8:15:00 AM 6.59 43.862 0.028 7.05 1.32 11.93
5/13/2021 8:30:00 AM 6.59 43.862 0.029 6.86 1.08 11.94
5/13/2021 8:45:00 AM 6.61 43.898 0.029 7.08 1.18 11.95
5/13/2021 9:00:00 AM 6.64 43.952 0.028 7.12 1.08 11.96
5/13/2021 9:15:00 AM 6.7 44.06 0.028 7.11 1.05 11.96
5/13/2021 9:30:00 AM 6.77 44.186 0.028 7.27 1.11 11.95
5/13/2021 9:45:00 AM 6.85 44.33 0.028 7.18 1.03 11.94
5/13/2021 10:00:00 AM 6.96 44.528 0.028 7.2 0.99 11.93
5/13/2021 10:15:00 AM 7.08 44.744 0.028 7.25 1.06 11.9
5/13/2021 10:30:00 AM 7.22 44.996 0.028 7.24 0.88 11.88
5/13/2021 10:45:00 AM 7.35 45.23 0.029 7.19 0.95 11.86
5/13/2021 11:00:00 AM 7.49 45.482 0.028 7.19 1.08 11.83
5/13/2021 11:15:00 AM 7.61 45.698 0.028 7.28 1.09 11.79
5/13/2021 11:30:00 AM 7.67 45.806 0.028 7.17 1.04 11.76
5/13/2021 11:45:00 AM 7.75 45.95 0.028 7.18 0.97 11.72
5/13/2021 12:00:00 PM 7.9 46.22 0.028 7.19 1.11 11.72
5/13/2021 12:15:00 PM 7.98 46.364 0.028 7.26 1.08 11.69
5/13/2021 12:30:00 PM 8.04 46.472 0.028 7.33 1.1 11.67
5/13/2021 12:45:00 PM 8.1 46.58 0.028 7.36 0.96 11.64
5/13/2021 1:00:00 PM 8.28 46.904 0.028 7.31 1.12 11.63
5/13/2021 1:15:00 PM 8.51 47.318 0.028 7.25 1.03 11.6
5/13/2021 1:30:00 PM 8.54 47.372 0.028 7.33 1.28 11.54
5/13/2021 1:45:00 PM 8.69 47.642 0.029 7.37 0.6 11.52
5/13/2021 2:00:00 PM 8.77 47.786 0.028 7.3 1.12 11.46
5/13/2021 2:15:00 PM 8.81 47.858 0.027 7.28 1.14 11.43
5/13/2021 2:30:00 PM 9 48.2 0.029 7.22 1.28 11.42
5/13/2021 2:45:00 PM 9.03 48.254 0.028 7.11 1.35 11.37
5/13/2021 3:00:00 PM 9.11 48.398 0.028 7.23 1.56 11.39
5/13/2021 3:15:00 PM 9.15 48.47 0.028 7.12 1.28 11.34
5/13/2021 3:30:00 PM 9.18 48.524 0.029 7.17 1.12 11.33
5/13/2021 3:45:00 PM 9.28 48.704 0.028 7.16 1.4 11.33
5/13/2021 4:00:00 PM 9.33 48.794 0.028 7.21 1.25 11.27
5/13/2021 4:15:00 PM 9.45 49.01 0.028 7.19 1.4 11.25
5/13/2021 4:30:00 PM 9.55 49.19 0.028 7.34 1.22 11.24
5/13/2021 4:45:00 PM 9.6 49.28 0.028 7.33 1.22 11.23
5/13/2021 5:00:00 PM 9.66 49.388 0.028 7.37 1.32 11.17
5/13/2021 5:15:00 PM 9.71 49.478 0.028 7.3 1.37 11.15
5/13/2021 5:30:00 PM 9.74 49.532 0.028 7.24 1.3 11.13
5/13/2021 5:45:00 PM 9.75 49.55 0.028 7.31 1.58 11.1
5/13/2021 6:00:00 PM 9.78 49.604 0.028 7.16 1.37 11.08
5/13/2021 6:15:00 PM 9.77 49.586 0.029 7.23 1.23 11.07
5/13/2021 6:30:00 PM 9.75 49.55 0.028 7.24 1.16 11.07
5/13/2021 6:45:00 PM 9.71 49.478 0.029 7.21 1.35 11.04
5/13/2021 7:00:00 PM 9.68 49.424 0.029 7.1 1.24 11.05
5/13/2021 7:15:00 PM 9.65 49.37 0.028 7.14 1.45 11.05
5/13/2021 7:30:00 PM 9.61 49.298 0.029 7.16 1.17 11.05
5/13/2021 7:45:00 PM 9.57 49.226 0.029 7.13 1.25 11.06
5/13/2021 8:00:00 PM 9.54 49.172 0.028 7.16 1.31 11.04
5/13/2021 8:15:00 PM 9.5 49.1 0.028 7.01 1.27 11.04
5/13/2021 8:30:00 PM 9.45 49.01 0.029 7.03 1.18 11.03
5/13/2021 8:45:00 PM 9.4 48.92 0.03 7.07 1.23 11.04
5/13/2021 9:00:00 PM 9.35 48.83 0.029 7.12 1.15 11.05
5/13/2021 9:15:00 PM 9.29 48.722 0.029 7.09 1.45 11.09
5/13/2021 9:30:00 PM 9.23 48.614 0.03 7.12 1.38 11.07
5/13/2021 9:45:00 PM 9.17 48.506 0.028 7.13 1.23 11.08
5/13/2021 10:00:00 PM 9.11 48.398 0.029 7.17 1.28 11.09
5/13/2021 10:15:00 PM 9.05 48.29 0.029 7.1 1.32 11.11
5/13/2021 10:30:00 PM 8.99 48.182 0.029 7.01 1.3 11.13
5/13/2021 10:45:00 PM 8.93 48.074 0.029 7.1 1.17 11.16
5/13/2021 11:00:00 PM 8.87 47.966 0.029 6.97 3.48 11.16
5/13/2021 11:15:00 PM 8.8 47.84 0.029 6.99 1.24 11.18
5/13/2021 11:30:00 PM 8.74 47.732 0.029 7.07 1.16 11.21
5/13/2021 11:45:00 PM 8.67 47.606 0.029 7.08 1.22 11.22
5/14/2021 12:00:00 AM 8.61 47.498 0.029 7.12 1.18 11.24
5/14/2021 12:15:00 AM 8.54 47.372 0.029 7.14 1.15 11.27
5/14/2021 12:30:00 AM 8.48 47.264 0.03 7.09 0.99 11.27
5/14/2021 12:45:00 AM 8.42 47.156 0.029 7.04 1.28 11.28
5/14/2021 1:00:00 AM 8.36 47.048 0.029 6.92 1.21 11.31
5/14/2021 1:15:00 AM 8.29 46.922 0.03 7.09 1.34 11.32
5/14/2021 1:30:00 AM 8.23 46.814 0.029 7.02 1.25 11.34
5/14/2021 1:45:00 AM 8.17 46.706 0.029 7.01 2.97 11.36
5/14/2021 2:00:00 AM 8.11 46.598 0.029 6.97 1.23 11.38
5/14/2021 2:15:00 AM 8.05 46.49 0.029 7.04 1.15 11.41
5/14/2021 2:30:00 AM 7.99 46.382 0.03 6.92 1.3 11.41
5/14/2021 2:45:00 AM 7.92 46.256 0.029 6.92 1.09 11.43
5/14/2021 3:00:00 AM 7.87 46.166 0.029 7.01 1.39 11.44
5/14/2021 3:15:00 AM 7.8 46.04 0.029 6.96 1.1 11.46
5/14/2021 3:30:00 AM 7.74 45.932 0.029 6.96 1.17 11.47
5/14/2021 3:45:00 AM 7.69 45.842 0.029 6.99 1.2 11.49
5/14/2021 4:00:00 AM 7.63 45.734 0.03 6.96 1.14 11.51
5/14/2021 4:15:00 AM 7.57 45.626 0.029 7.02 1.38 11.53
5/14/2021 4:30:00 AM 7.52 45.536 0.03 6.94 0.94 11.54
5/14/2021 4:45:00 AM 7.46 45.428 0.029 7 1.27 11.58
5/14/2021 5:00:00 AM 7.41 45.338 0.03 6.96 1.14 11.58
5/14/2021 5:15:00 AM 7.36 45.248 0.029 7.15 1.15 11.6
5/14/2021 5:30:00 AM 7.31 45.158 0.03 6.97 1.07 11.61
5/14/2021 5:45:00 AM 7.26 45.068 0.03 6.9 0.59 11.62
5/14/2021 6:00:00 AM 7.21 44.978 0.029 6.97 1.23 11.64
5/14/2021 6:15:00 AM 7.16 44.888 0.027 7.01 1.07 11.65
5/14/2021 6:30:00 AM 7.12 44.816 0.029 7.01 1.33 11.67
5/14/2021 6:45:00 AM 7.08 44.744 0.03 7.02 0.97 11.7
5/14/2021 7:00:00 AM 7.04 44.672 0.028 7.1 0.91 11.71
5/14/2021 7:15:00 AM 7.01 44.618 0.029 7.07 1.09 11.74
5/14/2021 7:30:00 AM 6.97 44.546 0.029 6.99 0.99 11.76
5/14/2021 7:45:00 AM 6.94 44.492 0.029 7.23 0.93 11.77
5/14/2021 8:00:00 AM 6.92 44.456 0.029 7.14 0.92 11.79
5/14/2021 8:15:00 AM 6.9 44.42 0.029 7.2 0.92 11.81
5/14/2021 8:30:00 AM 6.91 44.438 0.029 7.1 0.98 11.81
5/14/2021 8:45:00 AM 6.93 44.474 0.029 7.15 0.82 11.82
5/14/2021 9:00:00 AM 6.97 44.546 0.029 7.16 0.99 11.83
5/14/2021 9:15:00 AM 7.02 44.636 0.03 7.25 0.81 11.83
5/14/2021 9:30:00 AM 7.09 44.762 0.027 7.12 0.94 11.82
5/14/2021 9:45:00 AM 7.18 44.924 0.029 7.05 0.76 11.82
5/14/2021 10:00:00 AM 7.28 45.104 0.03 7.16 1.72 11.81
5/14/2021 10:15:00 AM 7.4 45.32 0.028 7.16 0.8 11.79
5/14/2021 10:30:00 AM 7.53 45.554 0.03 7.2 1.4 11.77
5/14/2021 10:45:00 AM 7.69 45.842 0.028 7.24 0.98 11.73
5/14/2021 11:00:00 AM 7.87 46.166 0.03 7.2 1.93 11.71
5/14/2021 11:15:00 AM 8.06 46.508 0.029 7.24 0.74 11.68
5/14/2021 11:30:00 AM 8.28 46.904 0.028 7.22 0.87 11.63
5/14/2021 11:45:00 AM 8.5 47.3 0.029 7.18 1.32 11.59
5/14/2021 12:00:00 PM 8.59 47.462 0.028 7.02 0.9 11.51
5/14/2021 12:15:00 PM 8.71 47.678 0.029 7.11 0.97 11.46
5/14/2021 12:30:00 PM 8.82 47.876 0.028 6.97 0.87 11.42
5/14/2021 12:45:00 PM 8.88 47.984 0.029 7.06 0.85 11.41
5/14/2021 1:00:00 PM 8.97 48.146 0.028 7.07 0.93 11.39
5/14/2021 1:15:00 PM 9.14 48.452 0.028 7.08 0.82 11.36
5/14/2021 1:30:00 PM 9.32 48.776 0.027 7.14 0.58 11.34
5/14/2021 1:45:00 PM 9.46 49.028 0.028 7.17 0.88 11.32
5/14/2021 2:00:00 PM 9.72 49.496 0.028 6.96 1.02 11.3
5/14/2021 2:15:00 PM 9.88 49.784 0.028 7.1 0.64 11.27
5/14/2021 2:30:00 PM 9.92 49.856 0.029 7.16 0.8 11.24
5/14/2021 2:45:00 PM 9.81 49.658 0.029 7.06 1.08 11.19
5/14/2021 3:00:00 PM 9.72 49.496 0.028 7.13 1.14 11.16
5/14/2021 3:15:00 PM 9.64 49.352 0.029 7 1.14 11.16
5/14/2021 3:30:00 PM 9.62 49.316 0.028 7.12 1 11.17
5/14/2021 3:45:00 PM 9.64 49.352 0.028 7 0.94 11.16
5/14/2021 4:00:00 PM 9.68 49.424 0.028 7.07 0.79 11.16
5/14/2021 4:15:00 PM 9.73 49.514 0.028 7.13 0.95 11.16
5/14/2021 4:30:00 PM 9.8 49.64 0.028 7.07 0.98 11.17
5/14/2021 4:45:00 PM 9.91 49.838 0.028 7.16 1.04 11.15
5/14/2021 5:00:00 PM 10 50 0.028 7.04 0.97 11.12
5/14/2021 5:15:00 PM 10.05 50.09 0.029 7.06 0.82 11.08
5/14/2021 5:30:00 PM 10.11 50.198 0.028 7.04 1.04 11.03
5/14/2021 5:45:00 PM 10.16 50.288 0.029 7.18 0.62 10.99
5/14/2021 6:00:00 PM 10.2 50.36 0.029 7.1 0.92 10.96
5/14/2021 6:15:00 PM 10.23 50.414 0.028 7.24 1 10.93
5/14/2021 6:30:00 PM 10.25 50.45 0.028 7.11 4.05 10.91
5/14/2021 6:45:00 PM 10.25 50.45 0.028 7.05 2.15 10.91
5/14/2021 7:00:00 PM 10.24 50.432 0.028 7.06 1.13 10.89
5/14/2021 7:15:00 PM 10.23 50.414 0.028 6.98 0.92 10.88
5/14/2021 7:30:00 PM 10.22 50.396 0.028 7.15 1.01 10.87
5/14/2021 7:45:00 PM 10.2 50.36 0.029 7.08 1.03 10.86
5/14/2021 8:00:00 PM 10.17 50.306 0.03 7.03 0.69 10.84
5/14/2021 8:15:00 PM 10.14 50.252 0.03 7.04 0.42 10.83
5/14/2021 8:30:00 PM 10.1 50.18 0.029 7.16 1.15 10.83
5/14/2021 8:45:00 PM 10.05 50.09 0.03 7.1 1.88 10.83
5/14/2021 9:00:00 PM 10 50 0.029 7.06 1.16 10.83
5/14/2021 9:15:00 PM 9.94 49.892 0.03 7.1 1.11 10.84
5/14/2021 9:30:00 PM 9.88 49.784 0.029 6.87 1.03 10.85
5/14/2021 9:45:00 PM 9.82 49.676 0.029 7.04 1.21 10.87
5/14/2021 10:00:00 PM 9.76 49.568 0.029 7.08 1.15 10.88
5/14/2021 10:15:00 PM 9.69 49.442 0.029 7 1.11 10.89
5/14/2021 10:30:00 PM 9.63 49.334 0.027 6.99 1.22 10.91
5/14/2021 10:45:00 PM 9.57 49.226 0.029 6.97 1.2 10.93
5/14/2021 11:00:00 PM 9.5 49.1 0.03 7.08 1.53 10.95
5/14/2021 11:15:00 PM 9.44 48.992 0.029 7.01 1 10.97
5/14/2021 11:30:00 PM 9.37 48.866 0.03 6.96 0.91 10.99
5/14/2021 11:45:00 PM 9.31 48.758 0.029 7.04 1.15 11
5/15/2021 12:00:00 AM 9.24 48.632 0.029 6.85 1.89 11.02
5/15/2021 12:15:00 AM 9.18 48.524 0.029 7.04 1.08 11.04
5/15/2021 12:30:00 AM 9.12 48.416 0.029 7.11 1.15 11.05
5/15/2021 12:45:00 AM 9.06 48.308 0.029 6.9 0.97 11.07
5/15/2021 1:00:00 AM 9.01 48.218 0.029 7.12 1.26 11.09
5/15/2021 1:15:00 AM 8.95 48.11 0.029 7.03 1.23 11.12
5/15/2021 1:30:00 AM 8.9 48.02 0.029 6.95 1.03 11.11
5/15/2021 1:45:00 AM 8.84 47.912 0.03 7.03 0.97 11.13
5/15/2021 2:00:00 AM 8.79 47.822 0.03 6.91 0.9 11.15
5/15/2021 2:15:00 AM 8.73 47.714 0.03 7.07 0.99 11.16
5/15/2021 2:30:00 AM 8.68 47.624 0.03 7.05 1.05 11.18
5/15/2021 2:45:00 AM 8.62 47.516 0.029 7.13 1.09 11.19
5/15/2021 3:00:00 AM 8.57 47.426 0.03 7.05 1.15 11.21
5/15/2021 3:15:00 AM 8.51 47.318 0.029 7.12 2.47 11.22
5/15/2021 3:30:00 AM 8.46 47.228 0.029 7.07 1.09 11.23
5/15/2021 3:45:00 AM 8.4 47.12 0.029 7.06 1.13 11.25
5/15/2021 4:00:00 AM 8.35 47.03 0.029 7.07 1.11 11.26
5/15/2021 4:15:00 AM 8.3 46.94 0.029 7.05 0.93 11.27
5/15/2021 4:30:00 AM 8.25 46.85 0.029 7.09 0.97 11.29
5/15/2021 4:45:00 AM 8.2 46.76 0.03 7.11 1.04 11.31
5/15/2021 5:00:00 AM 8.14 46.652 0.029 7.09 1.3 11.32
5/15/2021 5:15:00 AM 8.09 46.562 0.029 7.11 1.02 11.34
5/15/2021 5:30:00 AM 8.04 46.472 0.029 7.11 0.93 11.35
5/15/2021 5:45:00 AM 7.99 46.382 0.029 7.09 1.07 11.37
5/15/2021 6:00:00 AM 7.93 46.274 0.029 7.05 1.22 11.38
5/15/2021 6:15:00 AM 7.88 46.184 0.029 7.09 0.98 11.4
5/15/2021 6:30:00 AM 7.84 46.112 0.029 7.08 0.94 11.43
5/15/2021 6:45:00 AM 7.79 46.022 0.029 7.1 0.92 11.45
5/15/2021 7:00:00 AM 7.75 45.95 0.029 7.09 0.85 11.47
5/15/2021 7:15:00 AM 7.71 45.878 0.03 7.14 0.76 11.49
5/15/2021 7:30:00 AM 7.67 45.806 0.029 7.11 0.79 11.51
5/15/2021 7:45:00 AM 7.64 45.752 0.029 7.08 0.68 11.54
5/15/2021 8:00:00 AM 7.61 45.698 0.029 7.02 1.07 11.55
5/15/2021 8:15:00 AM 7.58 45.644 0.03 7.01 0.81 11.57
5/15/2021 8:30:00 AM 7.58 45.644 0.029 7.1 1 11.58
5/15/2021 8:45:00 AM 7.59 45.662 0.029 7.12 0.89 11.59
5/15/2021 9:00:00 AM 7.62 45.716 0.029 7.2 1.33 11.6
5/15/2021 9:15:00 AM 7.66 45.788 0.029 7.14 0.25 11.6
5/15/2021 9:30:00 AM 7.72 45.896 0.03 7.15 0.68 11.61
5/15/2021 9:45:00 AM 7.79 46.022 0.03 7.18 0.26 11.6
5/15/2021 10:00:00 AM 7.88 46.184 0.029 7.15 0.79 11.59
5/15/2021 10:15:00 AM 7.99 46.382 0.029 7.17 0.78 11.58
5/15/2021 10:30:00 AM 8.11 46.598 0.03 7.12 0.87 11.56
5/15/2021 10:45:00 AM 8.25 46.85 0.03 7.21 0.66 11.54
5/15/2021 11:00:00 AM 8.41 47.138 0.029 7.15 0.7 11.51
5/15/2021 11:15:00 AM 8.58 47.444 0.029 7.23 0.28 11.49
5/15/2021 11:30:00 AM 8.78 47.804 0.029 6.96 0.81 11.45
5/15/2021 11:45:00 AM 9 48.2 0.029 7.23 0.71 11.41
5/15/2021 12:00:00 PM 9.17 48.506 0.029 7.21 0.64 11.37
5/15/2021 12:15:00 PM 9.29 48.722 0.029 7.15 0.95 11.33
5/15/2021 12:30:00 PM 9.39 48.902 0.029 7.23 2.51 11.29
5/15/2021 12:45:00 PM 9.54 49.172 0.029 7.14 0.86 11.26
5/15/2021 1:00:00 PM 9.7 49.46 0.028 7.26 0.84 11.22
5/15/2021 1:15:00 PM 9.85 49.73 0.03 7.31 0.49 11.2
5/15/2021 1:30:00 PM 10.09 50.162 0.028 7.27 0.81 11.17
5/15/2021 1:45:00 PM 10.27 50.486 0.028 7.32 0.81 11.12
5/15/2021 2:00:00 PM 10.54 50.972 0.029 7.12 0.75 11.07
5/15/2021 2:15:00 PM 10.71 51.278 0.028 7.27 1.08 11.02
5/15/2021 2:30:00 PM 10.76 51.368 0.029 7.22 0.97 10.96
5/15/2021 2:45:00 PM 10.81 51.458 0.028 7.35 0.87 10.93
5/15/2021 3:00:00 PM 10.86 51.548 0.03 7.23 1.06 10.9
5/15/2021 3:15:00 PM 10.87 51.566 0.03 7.14 0.94 10.9
5/15/2021 3:30:00 PM 10.94 51.692 0.028 7.14 1.03 10.89
5/15/2021 3:45:00 PM 11.01 51.818 0.029 7.08 0.79 10.86
5/15/2021 4:00:00 PM 11 51.8 0.028 7.31 0.85 10.82
5/15/2021 4:15:00 PM 11.01 51.818 0.029 7.14 0.9 10.81
5/15/2021 4:30:00 PM 10.96 51.728 0.028 7.21 0.89 10.8
5/15/2021 4:45:00 PM 10.89 51.602 0.029 7.22 0.95 10.75
5/15/2021 5:00:00 PM 10.85 51.53 0.03 7.19 0.51 10.77
5/15/2021 5:15:00 PM 10.85 51.53 0.029 7.18 0.93 10.78
5/15/2021 5:30:00 PM 10.82 51.476 0.029 7.18 1 10.79
5/15/2021 5:45:00 PM 10.83 51.494 0.029 7.31 0.88 10.8
5/15/2021 6:00:00 PM 10.8 51.44 0.029 6.99 0.81 10.79
5/15/2021 6:15:00 PM 10.76 51.368 0.029 7.21 1.02 10.77
5/15/2021 6:30:00 PM 10.74 51.332 0.029 7.11 1.12 10.75
5/15/2021 6:45:00 PM 10.71 51.278 0.029 7.19 0.77 10.74
5/15/2021 7:00:00 PM 10.69 51.242 0.029 7.06 1.16 10.73
5/15/2021 7:15:00 PM 10.66 51.188 0.029 7.15 0.9 10.72
5/15/2021 7:30:00 PM 10.63 51.134 0.029 7.12 0.85 10.71
5/15/2021 7:45:00 PM 10.6 51.08 0.029 7.08 1.22 10.7
5/15/2021 8:00:00 PM 10.57 51.026 0.029 7.04 1.01 10.69
5/15/2021 8:15:00 PM 10.53 50.954 0.029 6.81 0.85 10.69
5/15/2021 8:30:00 PM 10.48 50.864 0.029 6.97 0.84 10.68
5/15/2021 8:45:00 PM 10.44 50.792 0.029 7.06 0.98 10.69
5/15/2021 9:00:00 PM 10.39 50.702 0.03 7.01 0.94 10.69
5/15/2021 9:15:00 PM 10.35 50.63 0.029 6.99 1.02 10.69
5/15/2021 9:30:00 PM 10.3 50.54 0.029 7.01 1.05 10.7
5/15/2021 9:45:00 PM 10.25 50.45 0.029 7 0.98 10.71
5/15/2021 10:00:00 PM 10.2 50.36 0.03 7.02 1.06 10.73
5/15/2021 10:15:00 PM 10.15 50.27 0.03 6.95 1.23 10.74
5/15/2021 10:30:00 PM 10.09 50.162 0.029 6.98 1.05 10.76
5/15/2021 10:45:00 PM 10.03 50.054 0.029 6.94 1.18 10.77
5/15/2021 11:00:00 PM 9.97 49.946 0.031 7.13 1.02 10.79
5/15/2021 11:15:00 PM 9.92 49.856 0.029 6.94 0.93 10.8
5/15/2021 11:30:00 PM 9.86 49.748 0.03 6.83 0.9 10.81
5/15/2021 11:45:00 PM 9.81 49.658 0.03 7.07 1.01 10.82
5/16/2021 12:00:00 AM 9.76 49.568 0.03 7.04 0.96 10.83
5/16/2021 12:15:00 AM 9.71 49.478 0.031 7.03 0.52 10.85
5/16/2021 12:30:00 AM 9.67 49.406 0.03 6.93 0.86 10.86
5/16/2021 12:45:00 AM 9.62 49.316 0.031 6.77 1.15 10.89
5/16/2021 1:00:00 AM 9.58 49.244 0.03 6.97 0.86 10.89
5/16/2021 1:15:00 AM 9.53 49.154 0.03 6.97 1.1 10.9
5/16/2021 1:30:00 AM 9.48 49.064 0.03 6.86 0.98 10.91
5/16/2021 1:45:00 AM 9.43 48.974 0.03 6.95 0.91 10.93
5/16/2021 2:00:00 AM 9.37 48.866 0.03 7.01 1.03 10.94
5/16/2021 2:15:00 AM 9.32 48.776 0.03 6.9 0.96 11.01
5/16/2021 2:30:00 AM 9.26 48.668 0.031 6.95 0.81 10.98
5/16/2021 2:45:00 AM 9.21 48.578 0.03 6.91 1.16 10.98
5/16/2021 3:00:00 AM 9.15 48.47 0.03 7.01 0.87 11.03
5/16/2021 3:15:00 AM 9.1 48.38 0.03 6.82 0.67 11.01
5/16/2021 3:30:00 AM 9.06 48.308 0.031 6.8 0.69 11.02
5/16/2021 3:45:00 AM 9.01 48.218 0.03 6.93 0.92 11.03
5/16/2021 4:00:00 AM 8.96 48.128 0.03 7.02 0.88 11.04
5/16/2021 4:15:00 AM 8.92 48.056 0.03 7 0.88 11.05
5/16/2021 4:30:00 AM 8.87 47.966 0.03 6.99 0.94 11.11
5/16/2021 4:45:00 AM 8.83 47.894 0.03 6.96 0.95 11.09
5/16/2021 5:00:00 AM 8.79 47.822 0.031 6.99 0.86 11.1
5/16/2021 5:15:00 AM 8.75 47.75 0.03 6.94 0.97 11.11
5/16/2021 5:30:00 AM 8.71 47.678 0.03 7 0.77 11.12
5/16/2021 5:45:00 AM 8.68 47.624 0.031 7.04 1.04 11.13
5/16/2021 6:00:00 AM 8.64 47.552 0.031 6.95 0.75 11.14
5/16/2021 6:15:00 AM 8.61 47.498 0.03 6.89 1.4 11.16
5/16/2021 6:30:00 AM 8.58 47.444 0.03 7 0.67 11.17
5/16/2021 6:45:00 AM 8.56 47.408 0.03 6.97 0.85 11.21
5/16/2021 7:00:00 AM 8.54 47.372 0.03 6.96 0.7 11.2
5/16/2021 7:15:00 AM 8.52 47.336 0.029 6.89 0.82 11.22
5/16/2021 7:30:00 AM 8.51 47.318 0.03 7.04 0.81 11.24
5/16/2021 7:45:00 AM 8.5 47.3 0.03 6.96 1.46 11.27
5/16/2021 8:00:00 AM 8.5 47.3 0.03 7.11 0.75 11.28
5/16/2021 8:15:00 AM 8.51 47.318 0.03 7 0.73 11.3
5/16/2021 8:30:00 AM 8.52 47.336 0.03 6.86 0.65 11.32
5/16/2021 8:45:00 AM 8.53 47.354 0.03 6.94 0.61 11.35
5/16/2021 9:00:00 AM 8.56 47.408 0.029 6.99 1.25 11.37
5/16/2021 9:15:00 AM 8.59 47.462 0.03 7.03 0.62 11.39
5/16/2021 9:30:00 AM 8.63 47.534 0.029 7.12 0.78 11.4
5/16/2021 9:45:00 AM 8.67 47.606 0.03 7.06 0.64 11.41
5/16/2021 10:00:00 AM 8.72 47.696 0.029 7.17 0.66 11.41
5/16/2021 10:15:00 AM 8.78 47.804 0.029 7.12 0.53 11.4
5/16/2021 10:30:00 AM 8.86 47.948 0.029 7.11 0.76 11.4
5/16/2021 10:45:00 AM 8.92 48.056 0.03 7.03 0.82 11.39
5/16/2021 11:00:00 AM 9 48.2 0.029 7.15 0.86 11.38
5/16/2021 11:15:00 AM 9.07 48.326 0.029 7.11 0.67 11.36
5/16/2021 11:30:00 AM 9.15 48.47 0.029 6.95 0.73 11.34
5/16/2021 11:45:00 AM 9.23 48.614 0.029 7.11 0.53 11.33
5/16/2021 12:00:00 PM 9.31 48.758 0.029 6.96 0.61 11.31
5/16/2021 12:15:00 PM 9.42 48.956 0.03 7.2 0.7 11.3
5/16/2021 12:30:00 PM 9.51 49.118 0.03 7.2 0.66 11.27
5/16/2021 12:45:00 PM 9.64 49.352 0.029 7.23 0.65 11.31
5/16/2021 1:00:00 PM 9.77 49.586 0.029 7.24 0.89 11.23
5/16/2021 1:15:00 PM 9.85 49.73 0.029 7.24 0.71 11.19
5/16/2021 1:30:00 PM 9.94 49.892 0.029 7.15 0.65 11.17
5/16/2021 1:45:00 PM 10.02 50.036 0.029 7.23 0.96 11.14
5/16/2021 2:00:00 PM 10.09 50.162 0.029 7.16 0.77 11.11
5/16/2021 2:15:00 PM 10.14 50.252 0.029 7.25 0.61 11.08
5/16/2021 2:30:00 PM 10.2 50.36 0.03 7.19 0.73 11.07
5/16/2021 2:45:00 PM 10.26 50.468 0.029 7.28 0.81 11.05
5/16/2021 3:00:00 PM 10.35 50.63 0.029 7.15 0.86 11.04
5/16/2021 3:15:00 PM 10.39 50.702 0.029 7.24 0.65 11.02
5/16/2021 3:30:00 PM 10.46 50.828 0.029 6.94 0.75 11
5/16/2021 3:45:00 PM 10.52 50.936 0.029 7.25 0.82 10.98
5/16/2021 4:00:00 PM 10.55 50.99 0.029 7.18 0.97 10.93
5/16/2021 4:15:00 PM 10.61 51.098 0.029 7.17 0.65 10.93
5/16/2021 4:30:00 PM 10.71 51.278 0.029 7.22 0.68 10.97
5/16/2021 4:45:00 PM 10.71 51.278 0.029 7.18 0.64 10.91
5/16/2021 5:00:00 PM 10.72 51.296 0.029 7.13 0.71 10.85
5/16/2021 5:15:00 PM 10.78 51.404 0.029 7.2 0.7 10.83
5/16/2021 5:30:00 PM 10.78 51.404 0.029 7.2 0.88 10.83
5/16/2021 5:45:00 PM 10.8 51.44 0.029 7.09 0.87 10.78
5/16/2021 6:00:00 PM 10.79 51.422 0.029 7.06 0.69 10.76
5/16/2021 6:15:00 PM 10.76 51.368 0.029 6.81 0.8 10.75
5/16/2021 6:30:00 PM 10.75 51.35 0.029 7.04 0.67 10.77
5/16/2021 6:45:00 PM 10.73 51.314 0.03 7.14 0.72 10.74
5/16/2021 7:00:00 PM 10.69 51.242 0.03 7.13 0.77 10.71
5/16/2021 7:15:00 PM 10.67 51.206 0.029 7.13 0.83 10.72
5/16/2021 7:30:00 PM 10.64 51.152 0.031 7 0.46 10.69
5/16/2021 7:45:00 PM 10.6 51.08 0.029 6.89 0.83 10.69
5/16/2021 8:00:00 PM 10.56 51.008 0.029 7 0.76 10.68
5/16/2021 8:15:00 PM 10.51 50.918 0.029 7.02 0.96 10.68
5/16/2021 8:30:00 PM 10.46 50.828 0.029 7.02 0.91 10.68
5/16/2021 8:45:00 PM 10.41 50.738 0.029 6.97 0.52 10.68
5/16/2021 9:00:00 PM 10.36 50.648 0.03 6.95 0.63 10.68
5/16/2021 9:15:00 PM 10.31 50.558 0.03 6.9 0.84 10.68
5/16/2021 9:30:00 PM 10.25 50.45 0.03 6.83 0.94 10.7
5/16/2021 9:45:00 PM 10.19 50.342 0.031 6.76 0.81 10.72
5/16/2021 10:00:00 PM 10.12 50.216 0.031 6.88 0.98 10.73
5/16/2021 10:15:00 PM 10.06 50.108 0.03 6.88 0.85 10.75
5/16/2021 10:30:00 PM 10 50 0.029 6.91 0.78 10.78
5/16/2021 10:45:00 PM 9.94 49.892 0.03 6.92 0.93 10.79
5/16/2021 11:00:00 PM 9.87 49.766 0.03 6.93 0.85 10.8
5/16/2021 11:15:00 PM 9.81 49.658 0.03 6.9 0.83 10.81
5/16/2021 11:30:00 PM 9.75 49.55 0.029 6.86 0.47 10.88
5/16/2021 11:45:00 PM 9.69 49.442 0.03 6.88 0.74 10.84
5/17/2021 12:00:00 AM 9.63 49.334 0.03 6.84 0.93 10.86
5/17/2021 12:15:00 AM 9.57 49.226 0.031 6.95 0.86 10.89
5/17/2021 12:30:00 AM 9.51 49.118 0.03 6.83 0.88 10.89
5/17/2021 12:45:00 AM 9.45 49.01 0.03 6.9 0.83 10.91
5/17/2021 1:00:00 AM 9.4 48.92 0.03 6.87 0.91 10.93
5/17/2021 1:15:00 AM 9.34 48.812 0.03 6.87 0.81 10.94
5/17/2021 1:30:00 AM 9.28 48.704 0.03 6.91 0.83 10.99
5/17/2021 1:45:00 AM 9.22 48.596 0.03 6.87 0.8 10.97
5/17/2021 2:00:00 AM 9.17 48.506 0.03 6.88 0.75 11.02
5/17/2021 2:15:00 AM 9.11 48.398 0.03 6.93 0.73 11
5/17/2021 2:30:00 AM 9.05 48.29 0.03 6.81 0.79 11.01
5/17/2021 2:45:00 AM 9 48.2 0.03 6.8 0.41 11.08
5/17/2021 3:00:00 AM 8.94 48.092 0.031 7.02 -0.02 11.04
5/17/2021 3:15:00 AM 8.89 48.002 0.029 6.83 0.53 11.06
5/17/2021 3:30:00 AM 8.84 47.912 0.03 6.85 0.93 11.07
5/17/2021 3:45:00 AM 8.78 47.804 0.031 6.72 0.84 11.09
5/17/2021 4:00:00 AM 8.73 47.714 0.03 6.8 0.76 11.11
5/17/2021 4:15:00 AM 8.68 47.624 0.03 6.83 0.76 11.12
5/17/2021 4:30:00 AM 8.63 47.534 0.03 6.71 0.91 11.13
5/17/2021 4:45:00 AM 8.57 47.426 0.03 6.85 0.87 11.14
5/17/2021 5:00:00 AM 8.52 47.336 0.03 6.79 0.74 11.16
5/17/2021 5:15:00 AM 8.47 47.246 0.03 6.86 0.75 11.17
5/17/2021 5:30:00 AM 8.42 47.156 0.03 6.65 1.72 11.18
5/17/2021 5:45:00 AM 8.37 47.066 0.03 6.68 0.84 11.2
5/17/2021 6:00:00 AM 8.32 46.976 0.03 6.92 0.85 11.24
5/17/2021 6:15:00 AM 8.27 46.886 0.031 6.68 0.85 11.23
5/17/2021 6:30:00 AM 8.22 46.796 0.031 6.9 0.74 11.27
5/17/2021 6:45:00 AM 8.18 46.724 0.03 6.92 0.8 11.29
5/17/2021 7:00:00 AM 8.14 46.652 0.031 6.91 0.74 11.31
5/17/2021 7:15:00 AM 8.1 46.58 0.031 6.88 0.74 11.33
5/17/2021 7:30:00 AM 8.06 46.508 0.032 6.97 -0.06 11.36
5/17/2021 7:45:00 AM 8.02 46.436 0.031 6.74 0.33 11.38
5/17/2021 8:00:00 AM 7.99 46.382 0.031 6.92 0.71 11.39
5/17/2021 8:15:00 AM 7.97 46.346 0.03 6.95 0.61 11.41
5/17/2021 8:30:00 AM 7.97 46.346 0.031 6.94 0.65 11.43
5/17/2021 8:45:00 AM 7.98 46.364 0.03 6.94 0.6 11.45
5/17/2021 9:00:00 AM 8.01 46.418 0.03 6.85 1.27 11.46
5/17/2021 9:15:00 AM 8.06 46.508 0.031 6.68 0.18 11.46
5/17/2021 9:30:00 AM 8.12 46.616 0.03 6.93 0.67 11.48
5/17/2021 9:45:00 AM 8.19 46.742 0.03 6.97 0.57 11.46
5/17/2021 10:00:00 AM 8.28 46.904 0.03 7 0.5 11.44
5/17/2021 10:15:00 AM 8.38 47.084 0.03 7.01 0.5 11.43
5/17/2021 10:30:00 AM 8.51 47.318 0.031 6.95 0.61 11.42
5/17/2021 10:45:00 AM 8.64 47.552 0.031 7.1 0.69 11.4
5/17/2021 11:00:00 AM 8.8 47.84 0.031 7.03 0.22 11.38
5/17/2021 11:15:00 AM 8.97 48.146 0.029 6.86 0.24 11.4
5/17/2021 11:30:00 AM 9.16 48.488 0.029 7.05 0.45 11.33
5/17/2021 11:45:00 AM 9.37 48.866 0.03 6.77 0.53 11.29
5/17/2021 12:00:00 PM 9.6 49.28 0.029 6.99 0.57 11.23
5/17/2021 12:15:00 PM 9.83 49.694 0.029 7.02 0.64 11.18
5/17/2021 12:30:00 PM 10.08 50.144 0.029 6.82 0.72 11.15
5/17/2021 12:45:00 PM 10.33 50.594 0.029 6.93 0.71 11.08
5/17/2021 1:00:00 PM 10.59 51.062 0.029 6.98 0.54 11.04
5/17/2021 1:15:00 PM 10.84 51.512 0.03 7.03 0.69 10.97
5/17/2021 1:30:00 PM 11.07 51.926 0.029 7.05 0.68 10.9
5/17/2021 1:45:00 PM 11.23 52.214 0.029 7.02 0.74 10.85
5/17/2021 2:00:00 PM 11.51 52.718 0.03 6.98 0.67 10.8
5/17/2021 2:15:00 PM 11.62 52.916 0.029 6.98 0.58 10.73
5/17/2021 2:30:00 PM 11.86 53.348 0.029 7.06 0.76 10.69
5/17/2021 2:45:00 PM 12.11 53.798 0.024 7.11 -0.12 10.65
5/17/2021 3:00:00 PM 12.28 54.104 0.029 6.96 0.78 10.59
5/17/2021 3:15:00 PM 12.37 54.266 0.031 7.12 0.49 10.54
5/17/2021 3:30:00 PM 12.49 54.482 0.03 6.96 0.63 10.52
5/17/2021 3:45:00 PM 12.55 54.59 0.029 6.99 5.99 10.48
5/17/2021 4:00:00 PM 12.64 54.752 0.029 6.96 0.73 10.45
5/17/2021 4:15:00 PM 12.71 54.878 0.029 7 0.83 10.42
5/17/2021 4:30:00 PM 12.78 55.004 0.03 7.02 0.74 10.38
5/17/2021 4:45:00 PM 12.83 55.094 0.029 7.01 0.64 10.34
5/17/2021 5:00:00 PM 12.88 55.184 0.03 7 0.68 10.31
5/17/2021 5:15:00 PM 12.91 55.238 0.03 7.14 0.95 10.28
5/17/2021 5:30:00 PM 12.91 55.238 0.03 7.02 0.8 10.27
5/17/2021 5:45:00 PM 12.9 55.22 0.028 6.88 0.49 10.27
5/17/2021 6:00:00 PM 12.87 55.166 0.03 6.92 0.24 10.21
5/17/2021 6:15:00 PM 12.81 55.058 0.029 6.98 1.09 10.19
5/17/2021 6:30:00 PM 12.75 54.95 0.03 6.96 0.87 10.18
5/17/2021 6:45:00 PM 12.69 54.842 0.029 6.8 2.46 10.18
5/17/2021 7:00:00 PM 12.62 54.716 0.03 6.96 0.8 10.19
5/17/2021 7:15:00 PM 12.54 54.572 0.031 6.94 0.87 10.19
5/17/2021 7:30:00 PM 12.46 54.428 0.03 6.89 1.08 10.19
5/17/2021 7:45:00 PM 12.38 54.284 0.031 6.96 0.37 10.2
5/17/2021 8:00:00 PM 12.3 54.14 0.029 6.74 0.28 10.25
5/17/2021 8:15:00 PM 12.22 53.996 0.03 6.78 0.91 10.22
5/17/2021 8:30:00 PM 12.15 53.87 0.03 6.84 0.74 10.22
5/17/2021 8:45:00 PM 12.07 53.726 0.031 6.89 0.88 10.23
5/17/2021 9:00:00 PM 11.99 53.582 0.03 6.77 0.88 10.25
5/17/2021 9:15:00 PM 11.92 53.456 0.03 6.84 0.69 10.26
5/17/2021 9:30:00 PM 11.84 53.312 0.03 6.9 1.04 10.28
5/17/2021 9:45:00 PM 11.76 53.168 0.031 6.93 1.44 10.3
5/17/2021 10:00:00 PM 11.67 53.006 0.031 6.91 0.92 10.31
5/17/2021 10:15:00 PM 11.59 52.862 0.03 6.9 0.85 10.34
5/17/2021 10:30:00 PM 11.5 52.7 0.031 6.92 1.49 10.36
5/17/2021 10:45:00 PM 11.42 52.556 0.031 6.95 0.55 10.39
5/17/2021 11:00:00 PM 11.33 52.394 0.027 6.9 0.6 10.41
5/17/2021 11:15:00 PM 11.25 52.25 0.03 6.86 0.93 10.44
5/17/2021 11:30:00 PM 11.16 52.088 0.03 6.89 0.94 10.45
5/17/2021 11:45:00 PM 11.08 51.944 0.03 6.88 5.01 10.47
5/18/2021 12:00:00 AM 11 51.8 0.032 6.88 0.45 10.49
5/18/2021 12:15:00 AM 10.92 51.656 0.031 6.89 2.13 10.52
5/18/2021 12:30:00 AM 10.84 51.512 0.031 6.74 0.85 10.53
5/18/2021 12:45:00 AM 10.78 51.404 0.03 6.88 0.8 10.55
5/18/2021 1:00:00 AM 10.71 51.278 0.03 6.81 0.97 10.57
5/18/2021 1:15:00 AM 10.64 51.152 0.028 6.86 0.9 10.6
5/18/2021 1:30:00 AM 10.57 51.026 0.031 6.76 0.84 10.61
5/18/2021 1:45:00 AM 10.5 50.9 0.03 6.82 1.05 10.62
5/18/2021 2:00:00 AM 10.43 50.774 0.03 6.93 0.93 10.65
5/18/2021 2:15:00 AM 10.36 50.648 0.032 6.86 0.7 10.65
5/18/2021 2:30:00 AM 10.29 50.522 0.032 7 1.05 10.68
5/18/2021 2:45:00 AM 10.23 50.414 0.032 6.87 0.92 10.7
5/18/2021 3:00:00 AM 10.16 50.288 0.032 6.82 1.21 10.71
5/18/2021 3:15:00 AM 10.1 50.18 0.031 6.86 0.84 10.73
5/18/2021 3:30:00 AM 10.03 50.054 0.03 6.84 0.68 10.75
5/18/2021 3:45:00 AM 9.97 49.946 0.031 6.92 0.89 10.77
5/18/2021 4:00:00 AM 9.91 49.838 0.032 6.85 0.84 10.78
5/18/2021 4:15:00 AM 9.85 49.73 0.031 6.86 1.81 10.8
5/18/2021 4:30:00 AM 9.78 49.604 0.031 6.82 0.93 10.81
5/18/2021 4:45:00 AM 9.73 49.514 0.032 6.84 0.92 10.83
5/18/2021 5:00:00 AM 9.67 49.406 0.031 6.9 0.79 10.85
5/18/2021 5:15:00 AM 9.6 49.28 0.031 6.81 0.76 10.85
5/18/2021 5:30:00 AM 9.55 49.19 0.03 6.78 0.82 10.88
5/18/2021 5:45:00 AM 9.49 49.082 0.032 6.65 0.51 10.89
5/18/2021 6:00:00 AM 9.44 48.992 0.031 6.72 0.89 10.91
5/18/2021 6:15:00 AM 9.38 48.884 0.032 6.79 0.52 10.94
5/18/2021 6:30:00 AM 9.33 48.794 0.03 6.94 1.58 10.96
5/18/2021 6:45:00 AM 9.28 48.704 0.032 6.92 0.39 10.99
5/18/2021 7:00:00 AM 9.24 48.632 0.023 6.92 0.33 11.02
5/18/2021 7:15:00 AM 9.19 48.542 0.032 6.94 1.6 11.03
5/18/2021 7:30:00 AM 9.15 48.47 0.032 6.88 0.25 11.05
5/18/2021 7:45:00 AM 9.11 48.398 0.032 6.91 0.65 11.07
5/18/2021 8:00:00 AM 9.08 48.344 0.03 6.92 1.44 11.1
5/18/2021 8:15:00 AM 9.05 48.29 0.032 6.73 0.37 11.11
5/18/2021 8:30:00 AM 9.04 48.272 0.03 6.92 0.61 11.13
5/18/2021 8:45:00 AM 9.05 48.29 0.032 6.89 0.42 11.13
5/18/2021 9:00:00 AM 9.07 48.326 0.031 6.97 0.5 11.15
5/18/2021 9:15:00 AM 9.11 48.398 0.031 6.99 0.53 11.15
5/18/2021 9:30:00 AM 9.15 48.47 0.025 6.88 0.12 11.18
5/18/2021 9:45:00 AM 9.21 48.578 0.03 6.87 0.94 11.16
5/18/2021 10:00:00 AM 9.29 48.722 0.029 6.8 0.15 11.21
5/18/2021 10:15:00 AM 9.4 48.92 0.03 6.93 0.66 11.16
5/18/2021 10:30:00 AM 9.51 49.118 0.03 6.77 0.47 11.14
5/18/2021 10:45:00 AM 9.64 49.352 0.031 6.97 0.69 11.13
5/18/2021 11:00:00 AM 9.8 49.64 0.03 7.11 0.4 11.11
5/18/2021 11:15:00 AM 9.97 49.946 0.03 6.93 0.55 11.09
5/18/2021 11:30:00 AM 10.15 50.27 0.031 7.05 0.31 11.06
5/18/2021 11:45:00 AM 10.38 50.684 0.03 6.96 0.72 11.03
5/18/2021 12:00:00 PM 10.61 51.098 0.03 7.11 0.55 11
5/18/2021 12:15:00 PM 10.84 51.512 0.027 7.14 0.2 10.97
5/18/2021 12:30:00 PM 11.1 51.98 0.03 7.12 0.64 10.9
5/18/2021 12:45:00 PM 11.32 52.376 0.03 7.08 0.63 10.86
5/18/2021 1:00:00 PM 11.52 52.736 0.031 6.98 0.5 10.82
5/18/2021 1:15:00 PM 11.73 53.114 0.028 7.13 0.19 10.77
5/18/2021 1:30:00 PM 11.93 53.474 0.031 7.07 0.26 10.73
5/18/2021 1:45:00 PM 11.87 53.366 0.03 7.08 0.59 10.67
5/18/2021 2:00:00 PM 12.08 53.744 0.03 7.12 0.67 10.65
5/18/2021 2:15:00 PM 12.33 54.194 0.027 7.18 0.23 10.61
5/18/2021 2:30:00 PM 12.45 54.41 0.031 6.99 0.51 10.51
5/18/2021 2:45:00 PM 12.65 54.77 0.03 7.03 0.51 10.49
5/18/2021 3:00:00 PM 12.7 54.86 0.031 7.05 0.4 10.42
5/18/2021 3:15:00 PM 12.85 55.13 0.029 7.03 1.56 10.4
5/18/2021 3:30:00 PM 13.05 55.49 0.029 7.22 0.64 10.38
5/18/2021 3:45:00 PM 13.17 55.706 0.031 7.03 0.28 10.3
5/18/2021 4:00:00 PM 13.29 55.922 0.03 7.14 0.84 10.29
5/18/2021 4:15:00 PM 13.38 56.084 0.031 7.18 0.68 10.25
5/18/2021 4:30:00 PM 13.36 56.048 0.031 7.18 0.64 10.23
5/18/2021 4:45:00 PM 13.38 56.084 0.03 7.19 0.78 10.22
5/18/2021 5:00:00 PM 13.48 56.264 0.03 7.11 0.89 10.17
5/18/2021 5:15:00 PM 13.56 56.408 0.03 7.14 1.33 10.16
5/18/2021 5:30:00 PM 13.56 56.408 0.032 7.15 0.02 10.12
5/18/2021 5:45:00 PM 13.57 56.426 0.03 7.1 1.42 10.09
5/18/2021 6:00:00 PM 13.56 56.408 0.03 7.13 0.66 10.05
5/18/2021 6:15:00 PM 13.54 56.372 0.03 7.03 0.93 10.01
5/18/2021 6:30:00 PM 13.49 56.282 0.03 7.04 0.67 9.99
5/18/2021 6:45:00 PM 13.43 56.174 0.031 7.08 0.65 10
5/18/2021 7:00:00 PM 13.34 56.012 0.03 6.98 0.66 9.99
5/18/2021 7:15:00 PM 13.26 55.868 0.03 6.99 1.48 10.01
5/18/2021 7:30:00 PM 13.17 55.706 0.03 6.99 0.7 10.02
5/18/2021 7:45:00 PM 13.08 55.544 0.03 7.06 0.7 10.02
5/18/2021 8:00:00 PM 12.99 55.382 0.031 6.87 0.69 10.02
5/18/2021 8:15:00 PM 12.91 55.238 0.03 6.9 0.67 10.04
5/18/2021 8:30:00 PM 12.83 55.094 0.031 6.92 0.79 10.05
5/18/2021 8:45:00 PM 12.76 54.968 0.03 6.87 0.84 10.05
5/18/2021 9:00:00 PM 12.69 54.842 0.031 6.93 0.88 10.06
5/18/2021 9:15:00 PM 12.62 54.716 0.03 6.88 0.78 10.08
5/18/2021 9:30:00 PM 12.55 54.59 0.031 6.96 0.89 10.09
5/18/2021 9:45:00 PM 12.48 54.464 0.032 6.64 0.5 10.11
5/18/2021 10:00:00 PM 12.4 54.32 0.031 6.8 0.92 10.12
5/18/2021 10:15:00 PM 12.32 54.176 0.03 6.66 0.92 10.14
5/18/2021 10:30:00 PM 12.23 54.014 0.032 6.84 1.15 10.18
5/18/2021 10:45:00 PM 12.14 53.852 0.031 6.65 1.6 10.2
5/18/2021 11:00:00 PM 12.05 53.69 0.03 6.72 0.92 10.23
5/18/2021 11:15:00 PM 11.97 53.546 0.032 6.76 0.87 10.25
5/18/2021 11:30:00 PM 11.88 53.384 0.031 6.72 0.84 10.3
5/18/2021 11:45:00 PM 11.79 53.222 0.031 6.79 1.46 10.28
5/19/2021 12:00:00 AM 11.71 53.078 0.031 6.76 0.93 10.3
5/19/2021 12:15:00 AM 11.63 52.934 0.032 6.76 0.81 10.33
5/19/2021 12:30:00 AM 11.55 52.79 0.032 6.81 0.86 10.34
5/19/2021 12:45:00 AM 11.47 52.646 0.032 6.71 0.81 10.37
5/19/2021 1:00:00 AM 11.4 52.52 0.031 6.78 1.96 10.4
5/19/2021 1:15:00 AM 11.32 52.376 0.031 6.77 1.38 10.42
5/19/2021 1:30:00 AM 11.24 52.232 0.031 6.78 0.95 10.43
5/19/2021 1:45:00 AM 11.17 52.106 0.032 6.73 0.86 10.45
5/19/2021 2:00:00 AM 11.1 51.98 0.031 6.69 1.07 10.46
5/19/2021 2:15:00 AM 11.03 51.854 0.031 6.73 1.03 10.48
5/19/2021 2:30:00 AM 10.96 51.728 0.031 6.79 0.67 10.49
5/19/2021 2:45:00 AM 10.9 51.62 0.031 6.81 0.77 10.51
5/19/2021 3:00:00 AM 10.83 51.494 0.031 6.77 1 10.53
5/19/2021 3:15:00 AM 10.77 51.386 0.031 6.73 0.84 10.57
5/19/2021 3:30:00 AM 10.71 51.278 0.031 6.77 1.04 10.57
5/19/2021 3:45:00 AM 10.65 51.17 0.031 6.76 0.73 10.58
5/19/2021 4:00:00 AM 10.58 51.044 0.031 6.71 0.91 10.6
5/19/2021 4:15:00 AM 10.52 50.936 0.031 6.63 1 10.61
5/19/2021 4:30:00 AM 10.46 50.828 0.031 6.7 1 10.62
5/19/2021 4:45:00 AM 10.4 50.72 0.031 6.79 0.84 10.64
5/19/2021 5:00:00 AM 10.35 50.63 0.031 6.85 1.29 10.65
5/19/2021 5:15:00 AM 10.29 50.522 0.031 6.69 0.4 10.69
5/19/2021 5:30:00 AM 10.23 50.414 0.031 6.72 0.95 10.69
5/19/2021 5:45:00 AM 10.18 50.324 0.031 6.78 0.64 10.72
5/19/2021 6:00:00 AM 10.12 50.216 0.032 6.68 0.79 10.73
5/19/2021 6:15:00 AM 10.07 50.126 0.031 6.76 0.94 10.75
5/19/2021 6:30:00 AM 10.02 50.036 0.031 6.81 0.86 10.8
5/19/2021 6:45:00 AM 9.97 49.946 0.032 6.68 0.78 10.8
5/19/2021 7:00:00 AM 9.93 49.874 0.032 6.78 1.03 10.82
5/19/2021 7:15:00 AM 9.89 49.802 0.032 6.81 0.65 10.85
5/19/2021 7:30:00 AM 9.85 49.73 0.031 6.78 0.67 10.86
5/19/2021 7:45:00 AM 9.82 49.676 0.032 6.81 0.83 10.88
5/19/2021 8:00:00 AM 9.79 49.622 0.03 6.83 0.36 10.92
5/19/2021 8:15:00 AM 9.77 49.586 0.032 6.75 0.71 10.92
5/19/2021 8:30:00 AM 9.76 49.568 0.031 6.88 0.74 10.93
5/19/2021 8:45:00 AM 9.76 49.568 0.031 6.84 0.85 10.94
5/19/2021 9:00:00 AM 9.79 49.622 0.032 6.82 0.59 10.95
5/19/2021 9:15:00 AM 9.82 49.676 0.031 6.88 0.69 10.99
5/19/2021 9:30:00 AM 9.88 49.784 0.031 6.7 0.7 10.96
5/19/2021 9:45:00 AM 9.93 49.874 0.031 6.88 0.8 10.97
5/19/2021 10:00:00 AM 10.01 50.018 0.031 6.85 0.63 10.96
5/19/2021 10:15:00 AM 10.11 50.198 0.031 6.85 0.83 10.96
5/19/2021 10:30:00 AM 10.21 50.378 0.031 6.71 0.61 10.95
5/19/2021 10:45:00 AM 10.34 50.612 0.031 6.7 0.56 10.93
5/19/2021 11:00:00 AM 10.48 50.864 0.031 6.68 0.66 10.93
5/19/2021 11:15:00 AM 10.63 51.134 0.03 6.87 0.99 10.9
5/19/2021 11:30:00 AM 10.81 51.458 0.031 6.89 0.73 10.88
5/19/2021 11:45:00 AM 11.01 51.818 0.03 6.9 0.42 10.86
5/19/2021 12:00:00 PM 11.22 52.196 0.03 6.94 0.57 10.81
5/19/2021 12:15:00 PM 11.44 52.592 0.029 6.99 0.51 10.78
5/19/2021 12:30:00 PM 11.68 53.024 0.03 6.86 0.68 10.73
5/19/2021 12:45:00 PM 11.93 53.474 0.03 6.95 0.62 10.69
5/19/2021 1:00:00 PM 12.19 53.942 0.03 6.9 0.7 10.63
5/19/2021 1:15:00 PM 12.45 54.41 0.031 6.88 0.67 10.59
5/19/2021 1:30:00 PM 12.71 54.878 0.03 6.89 0.68 10.53
5/19/2021 1:45:00 PM 12.94 55.292 0.031 6.91 0.61 10.48
5/19/2021 2:00:00 PM 13.17 55.706 0.031 6.98 0.65 10.41
5/19/2021 2:15:00 PM 13.37 56.066 0.031 6.79 0.31 10.38
5/19/2021 2:30:00 PM 13.55 56.39 0.03 7.03 0.8 10.32
5/19/2021 2:45:00 PM 13.68 56.624 0.029 7.14 0.83 10.27
5/19/2021 3:00:00 PM 13.79 56.822 0.03 7.06 5.18 10.24
5/19/2021 3:15:00 PM 13.94 57.092 0.019 7.05 -0.09 10.21
5/19/2021 3:30:00 PM 14.07 57.326 0.03 6.98 0.68 10.15
5/19/2021 3:45:00 PM 14.14 57.452 0.031 7.01 0.98 10.12
5/19/2021 4:00:00 PM 14.18 57.524 0.031 6.97 0.86 10.09
5/19/2021 4:15:00 PM 14.26 57.668 0.01 6.99 -0.09 10.07
5/19/2021 4:30:00 PM 14.34 57.812 0.025 6.96 0.29 10.04
5/19/2021 4:45:00 PM 14.37 57.866 0.03 6.96 1.8 10.01
5/19/2021 5:00:00 PM 14.39 57.902 0.031 6.94 0.41 9.96
5/19/2021 5:15:00 PM 14.42 57.956 0.03 6.95 0.76 9.94
5/19/2021 5:30:00 PM 14.44 57.992 0.031 6.81 0.66 9.91
5/19/2021 5:45:00 PM 14.45 58.01 0.032 6.83 0.45 9.89
5/19/2021 6:00:00 PM 14.45 58.01 0.03 6.92 0.76 9.88
5/19/2021 6:15:00 PM 14.44 57.992 0.03 6.82 1.06 9.86
5/19/2021 6:30:00 PM 14.42 57.956 0.026 6.9 0.26 9.87
5/19/2021 6:45:00 PM 14.4 57.92 0.029 6.72 0.42 9.85
5/19/2021 7:00:00 PM 14.38 57.884 0.032 6.73 1.09 9.83
5/19/2021 7:15:00 PM 14.35 57.83 0.031 6.85 1.49 9.83
5/19/2021 7:30:00 PM 14.31 57.758 0.031 6.75 1.68 9.81
5/19/2021 7:45:00 PM 14.25 57.65 0.032 6.82 0.98 9.79
5/19/2021 8:00:00 PM 14.19 57.542 0.031 6.81 0.95 9.79
5/19/2021 8:15:00 PM 14.12 57.416 0.03 6.79 0.89 9.78
5/19/2021 8:30:00 PM 14.04 57.272 0.032 6.83 0.81 9.78
5/19/2021 8:45:00 PM 13.97 57.146 0.031 6.79 0.94 9.78
5/19/2021 9:00:00 PM 13.89 57.002 0.032 6.84 1.17 9.79
5/19/2021 9:15:00 PM 13.81 56.858 0.031 6.77 0.76 9.79
5/19/2021 9:30:00 PM 13.73 56.714 0.031 6.92 1.16 9.81
5/19/2021 9:45:00 PM 13.65 56.57 0.032 6.77 1.01 9.82
5/19/2021 10:00:00 PM 13.57 56.426 0.032 6.77 1.79 9.86
5/19/2021 10:15:00 PM 13.48 56.264 0.031 6.76 1.91 9.87
5/19/2021 10:30:00 PM 13.4 56.12 0.028 6.72 0.52 9.9
5/19/2021 10:45:00 PM 13.31 55.958 0.033 6.63 0.83 9.91
5/19/2021 11:00:00 PM 13.22 55.796 0.032 6.77 0.95 9.94
5/19/2021 11:15:00 PM 13.14 55.652 0.032 6.81 1.77 9.96
5/19/2021 11:30:00 PM 13.05 55.49 0.031 6.88 0.96 9.97
5/19/2021 11:45:00 PM 12.97 55.346 0.01 6.66 0.06 10
5/20/2021 12:00:00 AM 12.88 55.184 0.033 6.77 0.89 10.02
5/20/2021 12:15:00 AM 12.8 55.04 0.032 6.68 0.99 10.04
5/20/2021 12:30:00 AM 12.71 54.878 0.031 6.76 0.89 10.06
5/20/2021 12:45:00 AM 12.63 54.734 0.032 6.77 1.09 10.08
5/20/2021 1:00:00 AM 12.55 54.59 0.032 6.86 1.65 10.12
5/20/2021 1:15:00 AM 12.47 54.446 0.033 6.75 0.99 10.11
5/20/2021 1:30:00 AM 12.39 54.302 0.032 6.8 0.85 10.13
5/20/2021 1:45:00 AM 12.31 54.158 0.033 6.73 0.86 10.16
5/20/2021 2:00:00 AM 12.23 54.014 0.032 6.73 1.1 10.17
5/20/2021 2:15:00 AM 12.16 53.888 0.032 6.76 0.96 10.19
5/20/2021 2:30:00 AM 12.09 53.762 0.032 6.76 0.97 10.21
5/20/2021 2:45:00 AM 12.02 53.636 0.032 6.74 1.05 10.24
5/20/2021 3:00:00 AM 11.95 53.51 0.033 6.77 0.87 10.25
5/20/2021 3:15:00 AM 11.88 53.384 0.032 6.78 1.19 10.27
5/20/2021 3:30:00 AM 11.81 53.258 0.032 6.75 0.97 10.29
5/20/2021 3:45:00 AM 11.74 53.132 0.032 6.75 0.87 10.3
5/20/2021 4:00:00 AM 11.68 53.024 0.027 6.72 0.53 10.32
5/20/2021 4:15:00 AM 11.61 52.898 0.032 6.62 1.26 10.34
5/20/2021 4:30:00 AM 11.55 52.79 0.032 6.62 1.48 10.35
5/20/2021 4:45:00 AM 11.49 52.682 0.032 6.66 0.86 10.37
5/20/2021 5:00:00 AM 11.43 52.574 0.032 6.76 1.17 10.39
5/20/2021 5:15:00 AM 11.37 52.466 0.032 6.69 1.24 10.4
5/20/2021 5:30:00 AM 11.32 52.376 0.032 6.74 1.07 10.42
5/20/2021 5:45:00 AM 11.26 52.268 0.032 6.73 0.87 10.43
5/20/2021 6:00:00 AM 11.21 52.178 0.033 6.56 0.55 10.46
5/20/2021 6:15:00 AM 11.16 52.088 0.032 6.79 1.07 10.47
5/20/2021 6:30:00 AM 11.12 52.016 0.032 6.72 2.23 10.5
5/20/2021 6:45:00 AM 11.07 51.926 0.032 6.76 0.76 10.51
5/20/2021 7:00:00 AM 11.03 51.854 0.032 6.78 1.21 10.53
5/20/2021 7:15:00 AM 10.99 51.782 0.032 6.75 0.76 10.56
5/20/2021 7:30:00 AM 10.96 51.728 0.032 6.8 0.78 10.59
5/20/2021 7:45:00 AM 10.93 51.674 0.031 6.85 0.81 10.6
5/20/2021 8:00:00 AM 10.9 51.62 0.032 6.81 1.14 10.62
5/20/2021 8:15:00 AM 10.89 51.602 0.033 6.74 0.45 10.66
5/20/2021 8:30:00 AM 10.89 51.602 0.032 6.85 0.84 10.69
5/20/2021 8:45:00 AM 10.9 51.62 0.031 6.82 0.82 10.69
5/20/2021 9:00:00 AM 10.91 51.638 0.028 6.82 0.27 10.71
5/20/2021 9:15:00 AM 10.94 51.692 0.031 6.84 1.19 10.7
5/20/2021 9:30:00 AM 10.98 51.764 0.032 6.88 0.69 10.72
5/20/2021 9:45:00 AM 11.06 51.908 0.031 6.86 1.18 10.75
5/20/2021 10:00:00 AM 11.12 52.016 0.031 6.9 0.69 10.75
5/20/2021 10:15:00 AM 11.19 52.142 0.031 6.86 0.82 10.74
5/20/2021 10:30:00 AM 11.27 52.286 0.031 6.74 0.72 10.71
5/20/2021 10:45:00 AM 11.38 52.484 0.032 6.83 1.28 10.71
5/20/2021 11:00:00 AM 11.51 52.718 0.026 6.77 0.33 10.68
5/20/2021 11:15:00 AM 11.67 53.006 0.032 6.74 0.35 10.65
5/20/2021 11:30:00 AM 11.83 53.294 0.031 6.94 0.95 10.64
5/20/2021 11:45:00 AM 12.02 53.636 0.032 6.86 0.4 10.61
5/20/2021 12:00:00 PM 12.21 53.978 0.031 6.9 0.89 10.56
5/20/2021 12:15:00 PM 12.42 54.356 0.031 6.97 0.76 10.53
5/20/2021 12:30:00 PM 12.65 54.77 0.032 6.9 0.47 10.5
5/20/2021 12:45:00 PM 12.9 55.22 0.031 6.98 0.91 10.45
5/20/2021 1:00:00 PM 13.13 55.634 0.032 6.89 0.96 10.41
5/20/2021 1:15:00 PM 13.35 56.03 0.032 6.85 -0.39 10.36
5/20/2021 1:30:00 PM 13.6 56.48 0.03 6.99 0.73 10.31
5/20/2021 1:45:00 PM 13.83 56.894 0.03 7.03 0.52 10.26
5/20/2021 2:00:00 PM 14.03 57.254 0.03 7.05 0.86 10.22
5/20/2021 2:15:00 PM 14.23 57.614 0.031 7 1 10.17
5/20/2021 2:30:00 PM 14.42 57.956 0.03 7.14 1.3 10.11
5/20/2021 2:45:00 PM 14.58 58.244 0.032 7.03 0.8 10.07
5/20/2021 3:00:00 PM 14.73 58.514 0.032 7.01 0.76 10.03
5/20/2021 3:15:00 PM 14.85 58.73 0.03 7.01 0.88 9.98
5/20/2021 3:30:00 PM 14.95 58.91 0.031 7.02 0.85 9.93
5/20/2021 3:45:00 PM 15.05 59.09 0.03 7.17 0.91 9.9
5/20/2021 4:00:00 PM 15.13 59.234 0.03 7.01 0.86 9.88
5/20/2021 4:15:00 PM 15.18 59.324 0.03 7.05 1.37 9.85
5/20/2021 4:30:00 PM 15.23 59.414 0.031 7 0.99 9.82
5/20/2021 4:45:00 PM 15.27 59.486 0.032 6.92 0.7 9.78
5/20/2021 5:00:00 PM 15.28 59.504 0.032 6.97 0.83 9.76
5/20/2021 5:15:00 PM 15.28 59.504 0.03 6.93 0.45 9.74
5/20/2021 5:30:00 PM 15.27 59.486 0.031 6.99 1.06 9.72
5/20/2021 5:45:00 PM 15.24 59.432 0.033 7.02 0.45 9.69
5/20/2021 6:00:00 PM 15.21 59.378 0.031 7.03 0.97 9.68
5/20/2021 6:15:00 PM 15.15 59.27 0.032 6.79 0.43 9.65
5/20/2021 6:30:00 PM 15.08 59.144 0.031 6.76 1.02 9.64
5/20/2021 6:45:00 PM 15.02 59.036 0.031 6.8 0.7 9.64
5/20/2021 7:00:00 PM 14.98 58.964 0.031 6.76 0.8 9.63
5/20/2021 7:15:00 PM 14.93 58.874 0.031 6.82 0.9 9.62
5/20/2021 7:30:00 PM 14.9 58.82 0.032 6.75 0.68 9.61
5/20/2021 7:45:00 PM 14.86 58.748 0.031 6.82 0.81 9.61
5/20/2021 8:00:00 PM 14.81 58.658 0.031 6.83 0.84 9.61
5/20/2021 8:15:00 PM 14.76 58.568 0.031 6.78 0.62 9.61
5/20/2021 8:30:00 PM 14.7 58.46 0.031 6.66 0.7 9.61
5/20/2021 8:45:00 PM 14.64 58.352 0.031 6.75 1.74 9.61
5/20/2021 9:00:00 PM 14.57 58.226 0.032 6.76 0.85 9.63
5/20/2021 9:15:00 PM 14.49 58.082 0.032 6.76 1.05 9.63
5/20/2021 9:30:00 PM 14.41 57.938 0.032 6.69 1.01 9.65
5/20/2021 9:45:00 PM 14.33 57.794 0.033 6.73 1 9.67
5/20/2021 10:00:00 PM 14.24 57.632 0.032 6.73 0.83 9.69
5/20/2021 10:15:00 PM 14.15 57.47 0.032 6.75 0.86 9.71
5/20/2021 10:30:00 PM 14.06 57.308 0.033 6.74 0.9 9.73
5/20/2021 10:45:00 PM 13.97 57.146 0.033 6.77 0.76 9.76
5/20/2021 11:00:00 PM 13.88 56.984 0.032 6.73 0.97 9.78
5/20/2021 11:15:00 PM 13.79 56.822 0.032 6.75 1 9.8
5/20/2021 11:30:00 PM 13.7 56.66 0.032 6.77 0.91 9.82
5/20/2021 11:45:00 PM 13.61 56.498 0.032 6.68 2.46 9.84
5/21/2021 12:00:00 AM 13.52 56.336 0.032 6.58 1.34 9.86
5/21/2021 12:15:00 AM 13.44 56.192 0.033 6.7 1.06 9.89
5/21/2021 12:30:00 AM 13.35 56.03 0.032 6.76 1.18 9.91
5/21/2021 12:45:00 AM 13.27 55.886 0.032 6.71 0.98 9.94
5/21/2021 1:00:00 AM 13.19 55.742 0.032 6.76 0.86 9.96
5/21/2021 1:15:00 AM 13.11 55.598 0.032 6.76 1.33 9.97
5/21/2021 1:30:00 AM 13.04 55.472 0.032 6.72 1.34 9.99
5/21/2021 1:45:00 AM 12.96 55.328 0.033 6.7 1.23 10.01
5/21/2021 2:00:00 AM 12.89 55.202 0.032 6.72 1.19 10.03
5/21/2021 2:15:00 AM 12.82 55.076 0.033 6.76 1.03 10.05
5/21/2021 2:30:00 AM 12.74 54.932 0.032 6.68 0.91 10.07
5/21/2021 2:45:00 AM 12.68 54.824 0.033 6.7 0.94 10.09
5/21/2021 3:00:00 AM 12.61 54.698 0.032 6.71 1.13 10.1
5/21/2021 3:15:00 AM 12.54 54.572 0.032 6.69 0.92 10.12
5/21/2021 3:30:00 AM 12.48 54.464 0.032 6.66 1.12 10.13
5/21/2021 3:45:00 AM 12.42 54.356 0.032 6.81 1 10.15
5/21/2021 4:00:00 AM 12.36 54.248 0.032 6.74 1.28 10.16
5/21/2021 4:15:00 AM 12.3 54.14 0.032 6.74 0.97 10.17
5/21/2021 4:30:00 AM 12.24 54.032 0.032 6.71 1.18 10.19
5/21/2021 4:45:00 AM 12.18 53.924 0.032 6.7 0.96 10.21
5/21/2021 5:00:00 AM 12.12 53.816 0.033 6.77 0.84 10.22
5/21/2021 5:15:00 AM 12.07 53.726 0.033 6.52 1.35 10.25
5/21/2021 5:30:00 AM 12.01 53.618 0.032 6.73 0.98 10.26
5/21/2021 5:45:00 AM 11.96 53.528 0.033 6.71 0.94 10.27
5/21/2021 6:00:00 AM 11.91 53.438 0.033 6.53 1.68 10.28
5/21/2021 6:15:00 AM 11.86 53.348 0.032 6.75 0.89 10.31
5/21/2021 6:30:00 AM 11.81 53.258 0.032 6.77 1.05 10.32
5/21/2021 6:45:00 AM 11.76 53.168 0.032 6.76 1.04 10.35
5/21/2021 7:00:00 AM 11.72 53.096 0.032 6.79 0.96 10.37
5/21/2021 7:15:00 AM 11.68 53.024 0.032 6.57 0.82 10.39
5/21/2021 7:30:00 AM 11.64 52.952 0.032 6.74 0.74 10.41
5/21/2021 7:45:00 AM 11.61 52.898 0.032 6.74 0.8 10.42
5/21/2021 8:00:00 AM 11.58 52.844 0.032 6.73 1.02 10.44
5/21/2021 8:15:00 AM 11.56 52.808 0.032 6.71 0.81 10.46
5/21/2021 8:30:00 AM 11.55 52.79 0.032 6.72 0.77 10.48
5/21/2021 8:45:00 AM 11.55 52.79 0.032 6.74 0.75 10.48
5/21/2021 9:00:00 AM 11.56 52.808 0.032 6.75 0.73 10.5
5/21/2021 9:15:00 AM 11.58 52.844 0.032 6.72 0.87 10.5
5/21/2021 9:30:00 AM 11.62 52.916 0.032 6.81 0.77 10.5
5/21/2021 9:45:00 AM 11.68 53.024 0.032 6.78 0.67 10.51
5/21/2021 10:00:00 AM 11.74 53.132 0.032 6.78 0.99 10.5
5/21/2021 10:15:00 AM 11.83 53.294 0.032 6.79 0.69 10.5
5/21/2021 10:30:00 AM 11.92 53.456 0.032 6.84 0.78 10.51
5/21/2021 10:45:00 AM 12.03 53.654 0.032 6.82 0.74 10.49
5/21/2021 11:00:00 AM 12.16 53.888 0.032 6.84 0.63 10.48
5/21/2021 11:15:00 AM 12.31 54.158 0.031 6.8 0.81 10.45
5/21/2021 11:30:00 AM 12.48 54.464 0.031 6.79 0.95 10.44
5/21/2021 11:45:00 AM 12.68 54.824 0.031 6.86 0.87 10.41
5/21/2021 12:00:00 PM 12.89 55.202 0.031 6.85 0.74 10.38
5/21/2021 12:15:00 PM 13.11 55.598 0.031 6.85 0.79 10.35
5/21/2021 12:30:00 PM 13.34 56.012 0.031 6.92 0.84 10.32
5/21/2021 12:45:00 PM 13.59 56.462 0.031 6.84 0.83 10.27
5/21/2021 1:00:00 PM 13.83 56.894 0.031 6.9 0.94 10.24
5/21/2021 1:15:00 PM 14.07 57.326 0.031 6.97 1 10.2
5/21/2021 1:30:00 PM 14.33 57.794 0.031 6.86 0.77 10.15
5/21/2021 1:45:00 PM 14.5 58.1 0.031 6.89 0.89 10.1
5/21/2021 2:00:00 PM 14.52 58.136 0.032 6.88 -0.24 10.03
5/21/2021 2:15:00 PM 14.76 58.568 0.031 6.88 0.75 10.03
5/21/2021 2:30:00 PM 14.86 58.748 0.031 6.89 0.89 9.99
5/21/2021 2:45:00 PM 15.05 59.09 0.031 6.94 0.79 9.93
5/21/2021 3:00:00 PM 15.22 59.396 0.031 6.91 1.53 9.92
5/21/2021 3:15:00 PM 15.32 59.576 0.032 6.95 0.97 9.89
5/21/2021 3:30:00 PM 15.38 59.684 0.032 6.9 0.29 9.86
5/21/2021 3:45:00 PM 15.42 59.756 0.031 6.83 0.63 9.81
5/21/2021 4:00:00 PM 15.42 59.756 0.031 6.91 1.72 9.78
5/21/2021 4:15:00 PM 15.43 59.774 0.032 6.78 0.36 9.74
5/21/2021 4:30:00 PM 15.5 59.9 0.031 6.92 0.73 9.75
5/21/2021 4:45:00 PM 15.52 59.936 0.032 6.88 0.87 9.68
5/21/2021 5:00:00 PM 15.5 59.9 0.031 6.81 0.97 9.64
5/21/2021 5:15:00 PM 15.51 59.918 0.032 6.87 1 9.64
5/21/2021 5:30:00 PM 15.5 59.9 0.031 6.81 1.1 9.61
5/21/2021 5:45:00 PM 15.51 59.918 0.031 6.78 1.18 9.59
5/21/2021 6:00:00 PM 15.49 59.882 0.028 6.85 0.32 9.57
5/21/2021 6:15:00 PM 15.48 59.864 0.032 6.82 0.9 9.56
5/21/2021 6:30:00 PM 15.45 59.81 0.031 6.83 0.7 9.55
5/21/2021 6:45:00 PM 15.44 59.792 0.032 6.8 0.67 9.54
5/21/2021 7:00:00 PM 15.42 59.756 0.032 6.79 0.9 9.51
5/21/2021 7:15:00 PM 15.4 59.72 0.033 6.53 0.54 9.5
5/21/2021 7:30:00 PM 15.37 59.666 0.018 6.79 0.19 9.5
5/21/2021 7:45:00 PM 15.33 59.594 0.032 6.75 1.19 9.49
5/21/2021 8:00:00 PM 15.29 59.522 0.032 6.77 1.02 9.5
5/21/2021 8:15:00 PM 15.23 59.414 0.033 6.68 0.82 9.49
5/21/2021 8:30:00 PM 15.17 59.306 0.032 6.75 0.91 9.49
5/21/2021 8:45:00 PM 15.12 59.216 0.032 6.72 1.08 9.49
5/21/2021 9:00:00 PM 15.06 59.108 0.032 6.65 0.96 9.5
5/21/2021 9:15:00 PM 15 59 0.032 6.75 0.85 9.5
5/21/2021 9:30:00 PM 14.94 58.892 0.032 6.69 1.18 9.52
5/21/2021 9:45:00 PM 14.88 58.784 0.032 6.75 1.14 9.53
5/21/2021 10:00:00 PM 14.81 58.658 0.032 6.71 1.21 9.55
5/21/2021 10:15:00 PM 14.74 58.532 0.033 6.72 1.2 9.57
5/21/2021 10:30:00 PM 14.67 58.406 0.032 6.72 1.1 9.58
5/21/2021 10:45:00 PM 14.59 58.262 0.033 6.74 0.91 9.6
5/21/2021 11:00:00 PM 14.5 58.1 0.034 6.72 1.38 9.63
5/21/2021 11:15:00 PM 14.42 57.956 0.033 6.75 0.88 9.64
5/21/2021 11:30:00 PM 14.33 57.794 0.033 6.74 0.91 9.65
5/21/2021 11:45:00 PM 14.24 57.632 0.034 6.74 1.15 9.68
5/22/2021 12:00:00 AM 14.16 57.488 0.033 6.69 1 9.7
5/22/2021 12:15:00 AM 14.07 57.326 0.033 6.68 0.98 9.73
5/22/2021 12:30:00 AM 13.98 57.164 0.033 6.71 0.95 9.74
5/22/2021 12:45:00 AM 13.89 57.002 0.033 6.63 0.95 9.76
5/22/2021 1:00:00 AM 13.82 56.876 0.033 6.68 0.97 9.78
5/22/2021 1:15:00 AM 13.73 56.714 0.033 6.73 1.02 9.8
5/22/2021 1:30:00 AM 13.66 56.588 0.033 6.72 0.98 9.81
5/22/2021 1:45:00 AM 13.58 56.444 0.033 6.67 1.11 9.83
5/22/2021 2:00:00 AM 13.51 56.318 0.034 6.71 0.72 9.85
5/22/2021 2:15:00 AM 13.43 56.174 0.033 6.68 0.94 9.87
5/22/2021 2:30:00 AM 13.36 56.048 0.033 6.72 0.99 9.9
5/22/2021 2:45:00 AM 13.29 55.922 0.033 6.65 0.86 9.91
5/22/2021 3:00:00 AM 13.23 55.814 0.033 6.72 1.07 9.92
5/22/2021 3:15:00 AM 13.16 55.688 0.033 6.71 1.13 9.94
5/22/2021 3:30:00 AM 13.1 55.58 0.033 6.71 1.14 9.94
5/22/2021 3:45:00 AM 13.04 55.472 0.033 6.68 1.11 9.96
5/22/2021 4:00:00 AM 12.98 55.364 0.034 6.73 1.12 9.98
5/22/2021 4:15:00 AM 12.92 55.256 0.033 6.72 0.92 9.99
5/22/2021 4:30:00 AM 12.86 55.148 0.033 6.71 0.96 10
5/22/2021 4:45:00 AM 12.8 55.04 0.033 6.65 1.02 10.02
5/22/2021 5:00:00 AM 12.74 54.932 0.033 6.65 1.43 10.04
5/22/2021 5:15:00 AM 12.68 54.824 0.033 6.7 1.19 10.05
5/22/2021 5:30:00 AM 12.63 54.734 0.034 6.72 0.93 10.07
5/22/2021 5:45:00 AM 12.57 54.626 0.033 6.71 1.09 10.07
5/22/2021 6:00:00 AM 12.52 54.536 0.033 6.72 0.84 10.09
5/22/2021 6:15:00 AM 12.47 54.446 0.033 6.72 0.97 10.11
5/22/2021 6:30:00 AM 12.42 54.356 0.032 6.62 1.21 10.15
5/22/2021 6:45:00 AM 12.37 54.266 0.033 6.75 0.91 10.15
5/22/2021 7:00:00 AM 12.33 54.194 0.033 6.72 1.06 10.16
5/22/2021 7:15:00 AM 12.29 54.122 0.032 6.75 1 10.19
5/22/2021 7:30:00 AM 12.27 54.086 0.033 6.73 1.09 10.23
5/22/2021 7:45:00 AM 12.25 54.05 0.032 6.73 0.82 10.26
5/22/2021 8:00:00 AM 12.23 54.014 0.033 6.75 1.11 10.27
5/22/2021 8:15:00 AM 12.21 53.978 0.034 6.6 0.47 10.29
5/22/2021 8:30:00 AM 12.2 53.96 0.03 6.63 0.66 10.3
5/22/2021 8:45:00 AM 12.2 53.96 0.033 6.75 0.74 10.32
5/22/2021 9:00:00 AM 12.22 53.996 0.032 6.68 0.88 10.33
5/22/2021 9:15:00 AM 12.25 54.05 0.032 6.74 1.16 10.36
5/22/2021 9:30:00 AM 12.27 54.086 0.032 6.71 0.95 10.36
5/22/2021 9:45:00 AM 12.31 54.158 0.032 6.64 0.96 10.37
5/22/2021 10:00:00 AM 12.34 54.212 0.032 6.72 0.93 10.38
5/22/2021 10:15:00 AM 12.39 54.302 0.032 6.78 0.95 10.38
5/22/2021 10:30:00 AM 12.45 54.41 0.032 6.71 1.47 10.39
5/22/2021 10:45:00 AM 12.52 54.536 0.033 6.83 1.07 10.39
5/22/2021 11:00:00 AM 12.59 54.662 0.032 6.84 1.12 10.39
5/22/2021 11:15:00 AM 12.65 54.77 0.033 6.86 0.72 10.38
5/22/2021 11:30:00 AM 12.72 54.896 0.032 6.82 0.82 10.37
5/22/2021 11:45:00 AM 12.81 55.058 0.032 6.84 0.83 10.36
5/22/2021 12:00:00 PM 12.91 55.238 0.033 6.84 1.19 10.34
5/22/2021 12:15:00 PM 13.11 55.598 0.033 6.85 0.64 10.32
5/22/2021 12:30:00 PM 13.25 55.85 0.033 6.88 0.78 10.29
5/22/2021 12:45:00 PM 13.43 56.174 0.032 6.87 1.06 10.26
5/22/2021 1:00:00 PM 13.58 56.444 0.031 6.95 0.89 10.22
5/22/2021 1:15:00 PM 13.7 56.66 0.032 6.9 1.07 10.2
5/22/2021 1:30:00 PM 13.83 56.894 0.031 6.9 1.2 10.17
5/22/2021 1:45:00 PM 14.06 57.308 0.032 6.85 0.85 10.15
5/22/2021 2:00:00 PM 14.24 57.632 0.032 6.94 0.82 10.08
5/22/2021 2:15:00 PM 14.26 57.668 0.033 6.92 1.22 10.02
5/22/2021 2:30:00 PM 14.34 57.812 0.033 6.91 0.66 9.99
5/22/2021 2:45:00 PM 14.41 57.938 0.031 6.87 0.81 9.98
5/22/2021 3:00:00 PM 14.47 58.046 0.031 6.89 0.79 9.94
5/22/2021 3:15:00 PM 14.52 58.136 0.032 6.86 0.7 9.91
5/22/2021 3:30:00 PM 14.57 58.226 0.031 6.85 0.75 9.88
5/22/2021 3:45:00 PM 14.6 58.28 0.033 6.91 0.84 9.85
5/22/2021 4:00:00 PM 14.62 58.316 0.033 6.87 0.89 9.81
5/22/2021 4:15:00 PM 14.72 58.496 0.033 6.78 1.08 9.82
5/22/2021 4:30:00 PM 14.77 58.586 0.032 6.91 0.74 9.82
5/22/2021 4:45:00 PM 14.81 58.658 0.032 6.92 1 9.8
5/22/2021 5:00:00 PM 14.84 58.712 0.032 6.86 0.81 9.79
5/22/2021 5:15:00 PM 14.86 58.748 0.031 6.86 0.96 9.77
5/22/2021 5:30:00 PM 14.89 58.802 0.032 6.9 0.83 9.75
5/22/2021 5:45:00 PM 14.95 58.91 0.031 6.84 0.89 9.73
5/22/2021 6:00:00 PM 14.98 58.964 0.031 6.88 0.84 9.7
5/22/2021 6:15:00 PM 14.98 58.964 0.032 6.87 1.21 9.65
5/22/2021 6:30:00 PM 14.97 58.946 0.032 6.84 0.87 9.63
5/22/2021 6:45:00 PM 14.96 58.928 0.033 6.76 0.91 9.61
5/22/2021 7:00:00 PM 14.95 58.91 0.032 6.84 0.92 9.58
5/22/2021 7:15:00 PM 14.93 58.874 0.032 6.84 0.81 9.55
5/22/2021 7:30:00 PM 14.92 58.856 0.033 6.83 1.04 9.54
5/22/2021 7:45:00 PM 14.9 58.82 0.033 6.81 0.9 9.53
5/22/2021 8:00:00 PM 14.87 58.766 0.033 6.79 1.15 9.53
5/22/2021 8:15:00 PM 14.84 58.712 0.033 6.78 1.04 9.52
5/22/2021 8:30:00 PM 14.81 58.658 0.033 6.75 0.88 9.51
5/22/2021 8:45:00 PM 14.78 58.604 0.032 6.73 1.1 9.5
5/22/2021 9:00:00 PM 14.76 58.568 0.032 6.77 0.97 9.5
5/22/2021 9:15:00 PM 14.73 58.514 0.034 6.78 0.49 9.5
5/22/2021 9:30:00 PM 14.7 58.46 0.034 6.72 1.04 9.51
5/22/2021 9:45:00 PM 14.66 58.388 0.033 6.61 1.9 9.52
5/22/2021 10:00:00 PM 14.62 58.316 0.034 6.75 1.03 9.53
5/22/2021 10:15:00 PM 14.58 58.244 0.033 6.7 1.15 9.53
5/22/2021 10:30:00 PM 14.53 58.154 0.033 6.65 1.06 9.53
5/22/2021 10:45:00 PM 14.49 58.082 0.033 6.74 1.04 9.55
5/22/2021 11:00:00 PM 14.44 57.992 0.033 6.74 1.03 9.57
5/22/2021 11:15:00 PM 14.4 57.92 0.033 6.72 1.21 9.56
5/22/2021 11:30:00 PM 14.35 57.83 0.034 6.7 0.98 9.57
5/22/2021 11:45:00 PM 14.31 57.758 0.032 6.67 0.65 9.6
5/23/2021 12:00:00 AM 14.26 57.668 0.033 6.68 1.32 9.6
5/23/2021 12:15:00 AM 14.21 57.578 0.034 6.7 1.15 9.6
5/23/2021 12:30:00 AM 14.15 57.47 0.033 6.65 1.95 9.62
5/23/2021 12:45:00 AM 14.1 57.38 0.033 6.67 1.05 9.64
5/23/2021 1:00:00 AM 14.05 57.29 0.034 6.69 1.03 9.65
5/23/2021 1:15:00 AM 14 57.2 0.033 6.7 1.26 9.66
5/23/2021 1:30:00 AM 13.94 57.092 0.034 6.7 1.15 9.67
5/23/2021 1:45:00 AM 13.89 57.002 0.033 6.63 0.97 9.69
5/23/2021 2:00:00 AM 13.83 56.894 0.033 6.72 1.03 9.69
5/23/2021 2:15:00 AM 13.78 56.804 0.034 6.72 1.24 9.7
5/23/2021 2:30:00 AM 13.72 56.696 0.033 6.54 1.09 9.71
5/23/2021 2:45:00 AM 13.67 56.606 0.033 6.65 1.29 9.72
5/23/2021 3:00:00 AM 13.62 56.516 0.034 6.64 1.08 9.73
5/23/2021 3:15:00 AM 13.57 56.426 0.034 6.62 0.48 9.75
5/23/2021 3:30:00 AM 13.52 56.336 0.034 6.65 0.96 9.77
5/23/2021 3:45:00 AM 13.47 56.246 0.034 6.71 1.03 9.78
5/23/2021 4:00:00 AM 13.42 56.156 0.035 6.62 1.04 9.78
5/23/2021 4:15:00 AM 13.37 56.066 0.033 6.7 0.72 9.79
5/23/2021 4:30:00 AM 13.32 55.976 0.034 6.73 1.09 9.81
5/23/2021 4:45:00 AM 13.27 55.886 0.033 6.71 1.79 9.82
5/23/2021 5:00:00 AM 13.22 55.796 0.033 6.66 1 9.83
5/23/2021 5:15:00 AM 13.17 55.706 0.033 6.72 1.13 9.83
5/23/2021 5:30:00 AM 13.13 55.634 0.034 6.72 1.4 9.84
5/23/2021 5:45:00 AM 13.08 55.544 0.034 6.71 1.12 9.86
5/23/2021 6:00:00 AM 13.03 55.454 0.035 6.6 1.35 9.87
5/23/2021 6:15:00 AM 12.99 55.382 0.03 6.59 0.42 9.89
5/23/2021 6:30:00 AM 12.94 55.292 0.033 6.72 2.3 9.92
5/23/2021 6:45:00 AM 12.9 55.22 0.033 6.74 0.79 9.93
5/23/2021 7:00:00 AM 12.86 55.148 0.033 6.75 0.98 9.94
5/23/2021 7:15:00 AM 12.82 55.076 0.033 6.73 0.88 9.97
5/23/2021 7:30:00 AM 12.79 55.022 0.033 6.7 1.14 9.98
5/23/2021 7:45:00 AM 12.75 54.95 0.034 6.76 1.01 9.99
5/23/2021 8:00:00 AM 12.72 54.896 0.031 6.74 0.54 10.01
5/23/2021 8:15:00 AM 12.7 54.86 0.033 6.73 1.64 10.02
5/23/2021 8:30:00 AM 12.68 54.824 0.033 6.74 0.98 10.03
5/23/2021 8:45:00 AM 12.67 54.806 0.033 6.79 0.74 10.04
5/23/2021 9:00:00 AM 12.68 54.824 0.033 6.75 0.87 10.05
5/23/2021 9:15:00 AM 12.69 54.842 0.033 6.71 0.87 10.06
5/23/2021 9:30:00 AM 12.73 54.914 0.033 6.77 1.02 10.06
5/23/2021 9:45:00 AM 12.76 54.968 0.033 6.77 1 10.07
5/23/2021 10:00:00 AM 12.83 55.094 0.034 6.78 0.88 10.11
5/23/2021 10:15:00 AM 12.92 55.256 0.033 6.84 0.78 10.12
5/23/2021 10:30:00 AM 13.01 55.418 0.033 6.76 1.05 10.11
5/23/2021 10:45:00 AM 13.12 55.616 0.033 6.88 0.94 10.11
5/23/2021 11:00:00 AM 13.24 55.832 0.032 6.88 0.91 10.09
5/23/2021 11:15:00 AM 13.41 56.138 0.034 6.76 0.82 10.08
5/23/2021 11:30:00 AM 13.57 56.426 0.033 6.88 1.04 10.05
5/23/2021 11:45:00 AM 13.76 56.768 0.032 6.75 0.87 10.03
5/23/2021 12:00:00 PM 13.87 56.966 0.032 6.86 0.56 10.01
5/23/2021 12:15:00 PM 13.94 57.092 0.032 6.91 1.4 9.98
5/23/2021 12:30:00 PM 14.05 57.29 0.032 6.86 1.19 9.97
5/23/2021 12:45:00 PM 14.26 57.668 0.033 6.92 0.95 9.93
5/23/2021 1:00:00 PM 14.3 57.74 0.032 6.89 1.19 9.88
5/23/2021 1:15:00 PM 14.4 57.92 0.032 6.85 0.87 9.87
5/23/2021 1:30:00 PM 14.46 58.028 0.031 6.91 0.97 9.84
5/23/2021 1:45:00 PM 14.64 58.352 0.032 6.86 1.04 9.84
5/23/2021 2:00:00 PM 14.69 58.442 0.033 6.89 1.01 9.79
5/23/2021 2:15:00 PM 14.96 58.928 0.032 6.92 1.14 9.78
5/23/2021 2:30:00 PM 15.11 59.198 0.032 6.91 0.88 9.75
5/23/2021 2:45:00 PM 15.18 59.324 0.032 6.91 1.5 9.7
5/23/2021 3:00:00 PM 15.26 59.468 0.032 6.88 1.28 9.67
5/23/2021 3:15:00 PM 15.46 59.828 0.032 6.93 1.01 9.67
5/23/2021 3:30:00 PM 15.59 60.062 0.032 6.82 0.89 9.61
5/23/2021 3:45:00 PM 15.65 60.17 0.032 6.9 0.98 9.57
5/23/2021 4:00:00 PM 15.71 60.278 0.032 6.87 1.06 9.54
5/23/2021 4:15:00 PM 15.78 60.404 0.032 6.9 0.93 9.48
5/23/2021 4:30:00 PM 15.87 60.566 0.029 6.81 0.48 9.47
5/23/2021 4:45:00 PM 15.99 60.782 0.032 6.85 1.8 9.46
5/23/2021 5:00:00 PM 16.06 60.908 0.032 6.89 1.27 9.41
5/23/2021 5:15:00 PM 16.17 61.106 0.03 6.89 0.53 9.41
5/23/2021 5:30:00 PM 16.22 61.196 0.032 6.9 1.46 9.37
5/23/2021 5:45:00 PM 16.26 61.268 0.032 6.83 1.41 9.33
5/23/2021 6:00:00 PM 16.31 61.358 0.032 6.82 0.99 9.33
5/23/2021 6:15:00 PM 16.34 61.412 0.032 6.81 1 9.29
5/23/2021 6:30:00 PM 16.35 61.43 0.033 6.73 1.16 9.28
5/23/2021 6:45:00 PM 16.34 61.412 0.033 6.8 0.97 9.25
5/23/2021 7:00:00 PM 16.34 61.412 0.032 6.75 1.32 9.23
5/23/2021 7:15:00 PM 16.33 61.394 0.033 6.79 1.06 9.23
5/23/2021 7:30:00 PM 16.31 61.358 0.032 6.78 0.97 9.2
5/23/2021 7:45:00 PM 16.28 61.304 0.032 6.7 0.8 9.18
5/23/2021 8:00:00 PM 16.26 61.268 0.033 6.85 0.9 9.17
5/23/2021 8:15:00 PM 16.2 61.16 0.033 6.81 1.59 9.17
5/23/2021 8:30:00 PM 16.15 61.07 0.033 6.72 0.86 9.17
5/23/2021 8:45:00 PM 16.09 60.962 0.033 6.7 1.13 9.17
5/23/2021 9:00:00 PM 16.03 60.854 0.033 6.73 1.88 9.19
5/23/2021 9:15:00 PM 15.96 60.728 0.033 6.77 1.44 9.19
5/23/2021 9:30:00 PM 15.88 60.584 0.033 6.74 1.07 9.21
5/23/2021 9:45:00 PM 15.81 60.458 0.033 6.76 1.65 9.22
5/23/2021 10:00:00 PM 15.75 60.35 0.034 6.71 1.2 9.23
5/23/2021 10:15:00 PM 15.7 60.26 0.033 6.76 1.1 9.25
5/23/2021 10:30:00 PM 15.64 60.152 0.033 6.75 1.57 9.26
5/23/2021 10:45:00 PM 15.59 60.062 0.034 6.75 1.48 9.28
5/23/2021 11:00:00 PM 15.52 59.936 0.033 6.73 1.58 9.3
5/23/2021 11:15:00 PM 15.46 59.828 0.033 6.77 1.43 9.32
5/23/2021 11:30:00 PM 15.39 59.702 0.035 6.66 1.17 9.33
5/23/2021 11:45:00 PM 15.32 59.576 0.033 6.79 0.98 9.35
5/24/2021 12:00:00 AM 15.24 59.432 0.033 6.75 1.11 9.37
5/24/2021 12:15:00 AM 15.18 59.324 0.033 6.73 1.27 9.38
5/24/2021 12:30:00 AM 15.11 59.198 0.033 6.72 1.18 9.4
5/24/2021 12:45:00 AM 15.04 59.072 0.033 6.74 1.35 9.42
5/24/2021 1:00:00 AM 14.97 58.946 0.034 6.79 1.11 9.42
5/24/2021 1:15:00 AM 14.9 58.82 0.034 6.79 1.08 9.44
5/24/2021 1:30:00 AM 14.83 58.694 0.034 6.78 1.98 9.46
5/24/2021 1:45:00 AM 14.74 58.532 0.034 6.74 1.17 9.49
5/24/2021 2:00:00 AM 14.66 58.388 0.034 6.81 3.05 9.5
5/24/2021 2:15:00 AM 14.58 58.244 0.033 6.67 1.38 9.53
5/24/2021 2:30:00 AM 14.51 58.118 0.034 6.71 1.27 9.54
5/24/2021 2:45:00 AM 14.43 57.974 0.034 6.77 1.34 9.55
5/24/2021 3:00:00 AM 14.36 57.848 0.034 6.75 1.34 9.57
5/24/2021 3:15:00 AM 14.29 57.722 0.034 6.75 1.45 9.59
5/24/2021 3:30:00 AM 14.22 57.596 0.034 6.76 1.26 9.62
5/24/2021 3:45:00 AM 14.14 57.452 0.034 6.77 1.2 9.63
5/24/2021 4:00:00 AM 14.07 57.326 0.033 6.76 1.21 9.65
5/24/2021 4:15:00 AM 14 57.2 0.033 6.77 2.27 9.67
5/24/2021 4:30:00 AM 13.92 57.056 0.034 6.76 1.07 9.69
5/24/2021 4:45:00 AM 13.85 56.93 0.034 6.77 1.14 9.7
5/24/2021 5:00:00 AM 13.78 56.804 0.034 6.72 1.28 9.71
5/24/2021 5:15:00 AM 13.7 56.66 0.033 6.77 1.34 9.73
5/24/2021 5:30:00 AM 13.63 56.534 0.034 6.79 1.17 9.75
5/24/2021 5:45:00 AM 13.56 56.408 0.034 6.72 1.18 9.76
5/24/2021 6:00:00 AM 13.5 56.3 0.033 6.75 1.28 9.79
5/24/2021 6:15:00 AM 13.43 56.174 0.033 6.77 1.74 9.82
5/24/2021 6:30:00 AM 13.38 56.084 0.034 6.83 1.09 9.85
5/24/2021 6:45:00 AM 13.32 55.976 0.033 6.74 1.02 9.86
5/24/2021 7:00:00 AM 13.27 55.886 0.033 6.75 0.96 9.9
5/24/2021 7:15:00 AM 13.22 55.796 0.033 6.75 1.32 9.92
5/24/2021 7:30:00 AM 13.19 55.742 0.034 6.82 0.96 9.96
5/24/2021 7:45:00 AM 13.16 55.688 0.033 6.83 1.11 9.98
5/24/2021 8:00:00 AM 13.13 55.634 0.033 6.8 1.87 10.01
5/24/2021 8:15:00 AM 13.1 55.58 0.034 6.85 0.95 10.03
5/24/2021 8:30:00 AM 13.08 55.544 0.033 6.78 1.01 10.05
5/24/2021 8:45:00 AM 13.06 55.508 0.033 6.78 0.85 10.06
5/24/2021 9:00:00 AM 13.05 55.49 0.033 6.87 1.02 10.08
5/24/2021 9:15:00 AM 13.05 55.49 0.033 6.84 0.91 10.08
5/24/2021 9:30:00 AM 13.05 55.49 0.033 6.89 0.97 10.08
5/24/2021 9:45:00 AM 13.08 55.544 0.033 6.82 0.68 10.11
5/24/2021 10:00:00 AM 13.13 55.634 0.033 6.85 1.01 10.13
5/24/2021 10:15:00 AM 13.19 55.742 0.033 6.82 0.89 10.17
5/24/2021 10:30:00 AM 13.24 55.832 0.033 6.91 1.16 10.16
5/24/2021 10:45:00 AM 13.25 55.85 0.033 6.87 0.89 10.12
5/24/2021 11:00:00 AM 13.28 55.904 0.032 6.92 1.01 10.12
5/24/2021 11:15:00 AM 13.3 55.94 0.032 6.89 0.86 10.11
5/24/2021 11:30:00 AM 13.33 55.994 0.032 6.9 1.32 10.11
5/24/2021 11:45:00 AM 13.38 56.084 0.033 6.89 0.8 10.12
5/24/2021 12:00:00 PM 13.46 56.228 0.032 6.92 1.19 10.12
5/24/2021 12:15:00 PM 13.5 56.3 0.032 6.88 1.36 10.12
5/24/2021 12:30:00 PM 13.54 56.372 0.033 6.9 0.91 10.11
5/24/2021 12:45:00 PM 13.56 56.408 0.032 6.92 1.15 10.08
5/24/2021 1:00:00 PM 13.57 56.426 0.032 6.87 1.24 10.08
5/24/2021 1:15:00 PM 13.57 56.426 0.033 6.9 1.22 10.06
5/24/2021 1:30:00 PM 13.59 56.462 0.032 6.78 0.85 10.06
5/24/2021 1:45:00 PM 13.62 56.516 0.033 6.91 0.87 10.05
5/24/2021 2:00:00 PM 13.64 56.552 0.032 6.92 0.92 10.03
5/24/2021 2:15:00 PM 13.67 56.606 0.032 6.83 1.79 10.02
5/24/2021 2:30:00 PM 13.69 56.642 0.032 6.88 0.84 10.01
5/24/2021 2:45:00 PM 13.7 56.66 0.032 6.87 0.97 10
5/24/2021 3:00:00 PM 13.71 56.678 0.032 6.83 1.04 9.98
5/24/2021 3:15:00 PM 13.71 56.678 0.033 6.91 1 9.97
5/24/2021 3:30:00 PM 13.72 56.696 0.032 6.87 0.85 9.96
5/24/2021 3:45:00 PM 13.72 56.696 0.032 6.86 1.63 9.94
5/24/2021 4:00:00 PM 13.72 56.696 0.033 6.83 0.71 9.95
5/24/2021 4:15:00 PM 13.72 56.696 0.032 6.85 0.89 9.92
5/24/2021 4:30:00 PM 13.73 56.714 0.032 6.83 1.47 9.92
5/24/2021 4:45:00 PM 13.73 56.714 0.033 6.86 0.93 9.9
5/24/2021 5:00:00 PM 13.72 56.696 0.032 6.85 0.98 9.89
5/24/2021 5:15:00 PM 13.71 56.678 0.032 6.85 2.21 9.89
5/24/2021 5:30:00 PM 13.7 56.66 0.033 6.86 0.94 9.89
5/24/2021 5:45:00 PM 13.69 56.642 0.032 6.71 5.87 9.91
5/24/2021 6:00:00 PM 13.69 56.642 0.033 6.86 0.93 9.91
5/24/2021 6:15:00 PM 13.68 56.624 0.033 6.85 0.89 9.9
5/24/2021 6:30:00 PM 13.66 56.588 0.033 6.83 0.89 9.88
5/24/2021 6:45:00 PM 13.64 56.552 0.033 6.85 1.12 9.87
5/24/2021 7:00:00 PM 13.62 56.516 0.033 6.79 1.03 9.87
5/24/2021 7:15:00 PM 13.6 56.48 0.033 6.8 0.92 9.85
5/24/2021 7:30:00 PM 13.58 56.444 0.033 6.73 1.09 9.85
5/24/2021 7:45:00 PM 13.56 56.408 0.033 6.83 1.37 9.84
5/24/2021 8:00:00 PM 13.53 56.354 0.033 6.74 1.18 9.83
5/24/2021 8:15:00 PM 13.5 56.3 0.033 6.79 1.07 9.82
5/24/2021 8:30:00 PM 13.47 56.246 0.033 6.8 1.34 9.82
5/24/2021 8:45:00 PM 13.44 56.192 0.034 6.76 1.1 9.84
5/24/2021 9:00:00 PM 13.41 56.138 0.033 6.77 1.25 9.84
5/24/2021 9:15:00 PM 13.38 56.084 0.034 6.79 0.99 9.85
5/24/2021 9:30:00 PM 13.35 56.03 0.033 6.71 0.99 9.84
5/24/2021 9:45:00 PM 13.32 55.976 0.033 6.78 1.48 9.85
5/24/2021 10:00:00 PM 13.29 55.922 0.033 6.71 1.01 9.86
5/24/2021 10:15:00 PM 13.26 55.868 0.033 6.75 0.98 9.87
5/24/2021 10:30:00 PM 13.23 55.814 0.033 6.75 1.05 9.88
5/24/2021 10:45:00 PM 13.2 55.76 0.033 6.78 1.28 9.88
5/24/2021 11:00:00 PM 13.17 55.706 0.034 6.76 0.97 9.89
5/24/2021 11:15:00 PM 13.14 55.652 0.033 6.75 1.14 9.9
5/24/2021 11:30:00 PM 13.12 55.616 0.033 6.81 1.15 9.89
5/24/2021 11:45:00 PM 13.09 55.562 0.033 6.78 1.64 9.9
5/25/2021 12:00:00 AM 13.07 55.526 0.034 6.73 1.15 9.9
5/25/2021 12:15:00 AM 13.04 55.472 0.033 6.76 1.33 9.91
5/25/2021 12:30:00 AM 13.01 55.418 0.034 6.72 1.12 9.92
5/25/2021 12:45:00 AM 12.99 55.382 0.034 6.85 0.96 9.93
5/25/2021 1:00:00 AM 12.96 55.328 0.034 6.84 1.13 9.93
5/25/2021 1:15:00 AM 12.94 55.292 0.034 6.83 0.99 9.94
5/25/2021 1:30:00 AM 12.92 55.256 0.034 6.79 0.98 9.94
5/25/2021 1:45:00 AM 12.89 55.202 0.034 6.8 1.1 9.95
5/25/2021 2:00:00 AM 12.87 55.166 0.034 6.78 1.49 9.96
5/25/2021 2:15:00 AM 12.84 55.112 0.034 6.77 1.07 9.96
5/25/2021 2:30:00 AM 12.82 55.076 0.034 6.7 1.44 9.97
5/25/2021 2:45:00 AM 12.8 55.04 0.034 6.76 0.9 9.97
5/25/2021 3:00:00 AM 12.78 55.004 0.034 6.81 1.87 9.98
5/25/2021 3:15:00 AM 12.75 54.95 0.034 6.85 1.23 9.98
5/25/2021 3:30:00 AM 12.73 54.914 0.034 6.7 1.75 9.99
5/25/2021 3:45:00 AM 12.71 54.878 0.034 6.84 1.11 10
5/25/2021 4:00:00 AM 12.69 54.842 0.034 6.78 1.56 10
5/25/2021 4:15:00 AM 12.67 54.806 0.034 6.84 1.21 10.01
5/25/2021 4:30:00 AM 12.65 54.77 0.034 6.85 1.2 10.02
5/25/2021 4:45:00 AM 12.63 54.734 0.034 6.83 1.58 10.01
5/25/2021 5:00:00 AM 12.61 54.698 0.034 6.79 1 10.02
5/25/2021 5:15:00 AM 12.59 54.662 0.035 6.84 1.06 10.02
5/25/2021 5:30:00 AM 12.58 54.644 0.034 6.76 1.19 10.03
5/25/2021 5:45:00 AM 12.56 54.608 0.034 6.76 1.07 10.04
5/25/2021 6:00:00 AM 12.54 54.572 0.034 6.78 1.01 10.04
5/25/2021 6:15:00 AM 12.52 54.536 0.034 6.76 1.05 10.05
5/25/2021 6:30:00 AM 12.51 54.518 0.034 6.73 1.2 10.06
5/25/2021 6:45:00 AM 12.49 54.482 0.034 6.78 1.22 10.07
5/25/2021 7:00:00 AM 12.48 54.464 0.034 6.74 1.72 10.08
5/25/2021 7:15:00 AM 12.47 54.446 0.034 6.7 1.32 10.09
5/25/2021 7:30:00 AM 12.46 54.428 0.034 6.77 1.63 10.1
5/25/2021 7:45:00 AM 12.46 54.428 0.035 6.73 0.95 10.12
5/25/2021 8:00:00 AM 12.45 54.41 0.033 6.84 0.95 10.13
5/25/2021 8:15:00 AM 12.46 54.428 0.034 6.85 1.08 10.15
5/25/2021 8:30:00 AM 12.47 54.446 0.034 6.78 1.1 10.17
5/25/2021 8:45:00 AM 12.47 54.446 0.034 6.88 1.07 10.18
5/25/2021 9:00:00 AM 12.48 54.464 0.034 6.81 0.98 10.18
5/25/2021 9:15:00 AM 12.49 54.482 0.034 6.82 1.21 10.19
5/25/2021 9:30:00 AM 12.51 54.518 0.033 6.76 0.88 10.21
5/25/2021 9:45:00 AM 12.53 54.554 0.033 6.85 0.92 10.22
5/25/2021 10:00:00 AM 12.55 54.59 0.033 6.75 1.47 10.23
5/25/2021 10:15:00 AM 12.57 54.626 0.033 6.8 1.33 10.23
5/25/2021 10:30:00 AM 12.6 54.68 0.033 6.78 1.28 10.24
5/25/2021 10:45:00 AM 12.65 54.77 0.033 6.85 0.99 10.25
5/25/2021 11:00:00 AM 12.68 54.824 0.034 6.9 1.15 10.26
5/25/2021 11:15:00 AM 12.73 54.914 0.033 6.83 1.31 10.27
5/25/2021 11:30:00 AM 12.79 55.022 0.033 6.85 0.91 10.26
5/25/2021 11:45:00 AM 12.85 55.13 0.033 6.89 0.97 10.26
5/25/2021 12:00:00 PM 12.93 55.274 0.033 6.82 1.99 10.26
5/25/2021 12:15:00 PM 12.99 55.382 0.033 6.95 1.07 10.24
5/25/2021 12:30:00 PM 13.06 55.508 0.033 6.84 0.98 10.22
5/25/2021 12:45:00 PM 13.13 55.634 0.033 6.93 1.03 10.21
5/25/2021 1:00:00 PM 13.18 55.724 0.033 6.83 1.47 10.19
5/25/2021 1:15:00 PM 13.26 55.868 0.033 6.9 0.92 10.18
5/25/2021 1:30:00 PM 13.34 56.012 0.033 6.85 1.62 10.17
5/25/2021 1:45:00 PM 13.42 56.156 0.033 6.89 1.05 10.16
5/25/2021 2:00:00 PM 13.56 56.408 0.033 6.9 0.89 10.13
5/25/2021 2:15:00 PM 13.84 56.912 0.032 6.97 2.17 10.11
5/25/2021 2:30:00 PM 14.05 57.29 0.034 6.74 0.92 10.07
5/25/2021 2:45:00 PM 14.21 57.578 0.032 6.86 0.62 10.02
5/25/2021 3:00:00 PM 14.38 57.884 0.032 6.9 0.93 9.97
5/25/2021 3:15:00 PM 14.43 57.974 0.033 6.88 0.82 9.93
5/25/2021 3:30:00 PM 14.48 58.064 0.032 6.93 1 9.89
5/25/2021 3:45:00 PM 14.5 58.1 0.033 6.9 1.5 9.86
5/25/2021 4:00:00 PM 14.53 58.154 0.032 6.86 1.27 9.8
5/25/2021 4:15:00 PM 14.66 58.388 0.032 6.85 0.82 9.8
5/25/2021 4:30:00 PM 14.76 58.568 0.032 6.87 0.88 9.77
5/25/2021 4:45:00 PM 14.83 58.694 0.032 6.84 1.34 9.75
5/25/2021 5:00:00 PM 14.84 58.712 0.033 6.88 0.86 9.74
5/25/2021 5:15:00 PM 14.85 58.73 0.032 6.88 2.02 9.73
5/25/2021 5:30:00 PM 14.89 58.802 0.033 6.87 0.89 9.72
5/25/2021 5:45:00 PM 14.88 58.784 0.032 6.85 1.31 9.66
5/25/2021 6:00:00 PM 14.87 58.766 0.033 6.85 0.98 9.63
5/25/2021 6:15:00 PM 14.85 58.73 0.033 6.81 1.65 9.62
5/25/2021 6:30:00 PM 14.84 58.712 0.033 6.81 1.12 9.59
5/25/2021 6:45:00 PM 14.84 58.712 0.032 6.76 0.6 9.58
5/25/2021 7:00:00 PM 14.84 58.712 0.033 6.8 1.35 9.57
5/25/2021 7:15:00 PM 14.82 58.676 0.033 6.8 0.91 9.56
5/25/2021 7:30:00 PM 14.81 58.658 0.033 6.73 1.3 9.54
5/25/2021 7:45:00 PM 14.8 58.64 0.033 6.8 1.02 9.53
5/25/2021 8:00:00 PM 14.79 58.622 0.033 6.68 1.04 9.53
5/25/2021 8:15:00 PM 14.76 58.568 0.033 6.76 0.95 9.51
5/25/2021 8:30:00 PM 14.73 58.514 0.033 6.76 0.97 9.51
5/25/2021 8:45:00 PM 14.7 58.46 0.033 6.71 0.95 9.5
5/25/2021 9:00:00 PM 14.66 58.388 0.032 6.72 0.58 9.49
5/25/2021 9:15:00 PM 14.63 58.334 0.033 6.72 1.71 9.5
5/25/2021 9:30:00 PM 14.59 58.262 0.033 6.72 1.02 9.5
5/25/2021 9:45:00 PM 14.56 58.208 0.033 6.7 2.12 9.51
5/25/2021 10:00:00 PM 14.52 58.136 0.033 6.72 1.14 9.51
5/25/2021 10:15:00 PM 14.48 58.064 0.034 6.7 1.18 9.52
5/25/2021 10:30:00 PM 14.44 57.992 0.034 6.74 0.96 9.53
5/25/2021 10:45:00 PM 14.4 57.92 0.034 6.66 2.14 9.54
5/25/2021 11:00:00 PM 14.35 57.83 0.035 6.69 0.53 9.55
5/25/2021 11:15:00 PM 14.31 57.758 0.032 6.68 0.64 9.56
5/25/2021 11:30:00 PM 14.27 57.686 0.035 6.78 1.07 9.57
5/25/2021 11:45:00 PM 14.22 57.596 0.034 6.7 1.28 9.58
5/26/2021 12:00:00 AM 14.17 57.506 0.034 6.7 1.22 9.59
5/26/2021 12:15:00 AM 14.13 57.434 0.034 6.69 1.26 9.6
5/26/2021 12:30:00 AM 14.08 57.344 0.034 6.68 1.16 9.62
5/26/2021 12:45:00 AM 14.03 57.254 0.035 6.74 2.19 9.63
5/26/2021 1:00:00 AM 13.98 57.164 0.033 6.71 1.39 9.64
5/26/2021 1:15:00 AM 13.93 57.074 0.034 6.79 1.25 9.65
5/26/2021 1:30:00 AM 13.88 56.984 0.028 6.75 0.69 9.66
5/26/2021 1:45:00 AM 13.83 56.894 0.034 6.7 1.75 9.67
5/26/2021 2:00:00 AM 13.78 56.804 0.034 6.72 1.37 9.69
5/26/2021 2:15:00 AM 13.73 56.714 0.034 6.74 1.29 9.69
5/26/2021 2:30:00 AM 13.68 56.624 0.035 6.73 1.07 9.7
5/26/2021 2:45:00 AM 13.62 56.516 0.035 6.73 1.04 9.72
5/26/2021 3:00:00 AM 13.57 56.426 0.033 6.74 0.65 9.73
5/26/2021 3:15:00 AM 13.52 56.336 0.035 6.75 1.25 9.74
5/26/2021 3:30:00 AM 13.47 56.246 0.034 6.7 1 9.78
5/26/2021 3:45:00 AM 13.42 56.156 0.035 6.74 1.22 9.77
5/26/2021 4:00:00 AM 13.38 56.084 0.035 6.71 1.3 9.77
5/26/2021 4:15:00 AM 13.34 56.012 0.034 6.74 1.27 9.79
5/26/2021 4:30:00 AM 13.3 55.94 0.034 6.73 1.44 9.8
5/26/2021 4:45:00 AM 13.26 55.868 0.035 6.71 1.02 9.81
5/26/2021 5:00:00 AM 13.22 55.796 0.034 6.71 1.27 9.81
5/26/2021 5:15:00 AM 13.19 55.742 0.034 6.71 1.32 9.82
5/26/2021 5:30:00 AM 13.16 55.688 0.034 6.7 1.99 9.83
5/26/2021 5:45:00 AM 13.12 55.616 0.034 6.7 1.14 9.83
5/26/2021 6:00:00 AM 13.09 55.562 0.034 6.71 2.62 9.84
5/26/2021 6:15:00 AM 13.07 55.526 0.034 6.64 1.53 9.86
5/26/2021 6:30:00 AM 13.04 55.472 0.034 6.69 1.55 9.87
5/26/2021 6:45:00 AM 13.02 55.436 0.034 6.73 1.58 9.89
5/26/2021 7:00:00 AM 13 55.4 0.035 6.66 1.22 9.91
5/26/2021 7:15:00 AM 12.98 55.364 0.034 6.71 1.2 9.91
5/26/2021 7:30:00 AM 12.97 55.346 0.036 6.73 0.86 9.93
5/26/2021 7:45:00 AM 12.95 55.31 0.034 6.72 0.7 9.95
5/26/2021 8:00:00 AM 12.95 55.31 0.035 6.7 1.03 9.97
5/26/2021 8:15:00 AM 12.94 55.292 0.035 6.69 0.9 9.99
5/26/2021 8:30:00 AM 12.94 55.292 0.034 6.71 0.97 10
5/26/2021 8:45:00 AM 12.93 55.274 0.034 6.68 0.92 10.01
5/26/2021 9:00:00 AM 12.95 55.31 0.03 6.67 0.41 10.02
5/26/2021 9:15:00 AM 12.97 55.346 0.034 6.74 1.02 10.02
5/26/2021 9:30:00 AM 13.02 55.436 0.034 6.79 1.29 10.04
5/26/2021 9:45:00 AM 13.07 55.526 0.035 6.8 1.21 10.02
5/26/2021 10:00:00 AM 13.13 55.634 0.034 6.66 0.61 10.02
5/26/2021 10:15:00 AM 13.2 55.76 0.035 6.81 0.85 10.02
5/26/2021 10:30:00 AM 13.28 55.904 0.034 6.78 1.09 10.02
5/26/2021 10:45:00 AM 13.38 56.084 0.034 6.85 0.94 10
5/26/2021 11:00:00 AM 13.51 56.318 0.034 6.86 1.82 9.98
5/26/2021 11:15:00 AM 13.63 56.534 0.03 6.86 0.49 9.96
5/26/2021 11:30:00 AM 13.81 56.858 0.035 6.73 0.74 9.95
5/26/2021 11:45:00 AM 14.01 57.218 0.033 6.9 1.17 9.94
5/26/2021 12:00:00 PM 14.18 57.524 0.033 6.84 1.36 9.91
5/26/2021 12:15:00 PM 14.3 57.74 0.033 6.82 0.6 9.85
5/26/2021 12:30:00 PM 14.35 57.83 0.034 6.88 1.06 9.77
5/26/2021 12:45:00 PM 14.61 58.298 0.034 6.88 0.99 9.79
5/26/2021 1:00:00 PM 14.86 58.748 0.033 6.88 1.09 9.77
5/26/2021 1:15:00 PM 15.06 59.108 0.033 6.92 1.52 9.73
5/26/2021 1:30:00 PM 15.06 59.108 0.034 6.85 0.91 9.63
5/26/2021 1:45:00 PM 15.26 59.468 0.034 6.78 0.94 9.63
5/26/2021 2:00:00 PM 15.26 59.468 0.033 6.87 1.28 9.53
5/26/2021 2:15:00 PM 15.27 59.486 0.033 6.88 1.9 9.55
5/26/2021 2:30:00 PM 15.33 59.594 0.033 6.86 1.33 9.55
5/26/2021 2:45:00 PM 15.36 59.648 0.033 6.88 1.17 9.48
5/26/2021 3:00:00 PM 15.59 60.062 0.033 6.87 1.21 9.53
5/26/2021 3:15:00 PM 15.72 60.296 0.033 6.88 4.44 9.5
5/26/2021 3:30:00 PM 15.78 60.404 0.032 6.84 1.06 9.49
5/26/2021 3:45:00 PM 15.72 60.296 0.034 6.88 1.28 9.43
5/26/2021 4:00:00 PM 15.78 60.404 0.033 6.86 1.02 9.45
5/26/2021 4:15:00 PM 15.83 60.494 0.033 6.81 1.2 9.42
5/26/2021 4:30:00 PM 15.88 60.584 0.033 6.79 1.23 9.38
5/26/2021 4:45:00 PM 15.95 60.71 0.033 6.84 1.43 9.36
5/26/2021 5:00:00 PM 15.99 60.782 0.033 6.84 1.1 9.36
5/26/2021 5:15:00 PM 16 60.8 0.033 6.79 5.14 9.32
5/26/2021 5:30:00 PM 16 60.8 0.033 6.79 0.91 9.27
5/26/2021 5:45:00 PM 16.03 60.854 0.034 6.76 0.95 9.25
5/26/2021 6:00:00 PM 16.03 60.854 0.034 6.82 1.64 9.27
5/26/2021 6:15:00 PM 15.98 60.764 0.035 6.67 0.69 9.26
5/26/2021 6:30:00 PM 15.97 60.746 0.034 6.79 1.16 9.25
5/26/2021 6:45:00 PM 15.94 60.692 0.033 6.74 0.83 9.22
5/26/2021 7:00:00 PM 15.93 60.674 0.033 6.73 0.94 9.23
5/26/2021 7:15:00 PM 15.91 60.638 0.034 6.73 1.07 9.22
5/26/2021 7:30:00 PM 15.87 60.566 0.034 6.76 1.3 9.2
5/26/2021 7:45:00 PM 15.83 60.494 0.034 6.7 1.05 9.19
5/26/2021 8:00:00 PM 15.8 60.44 0.034 6.73 1.38 9.17
5/26/2021 8:15:00 PM 15.76 60.368 0.035 6.66 1.62 9.18
5/26/2021 8:30:00 PM 15.72 60.296 0.03 6.7 0.65 9.18
5/26/2021 8:45:00 PM 15.67 60.206 0.035 6.72 1.08 9.19
5/26/2021 9:00:00 PM 15.63 60.134 0.034 6.7 1.16 9.19
5/26/2021 9:15:00 PM 15.59 60.062 0.034 6.65 0.95 9.19
5/26/2021 9:30:00 PM 15.55 59.99 0.034 6.65 1.28 9.21
5/26/2021 9:45:00 PM 15.5 59.9 0.034 6.62 1.95 9.22
5/26/2021 10:00:00 PM 15.45 59.81 0.034 6.6 1.56 9.24
5/26/2021 10:15:00 PM 15.39 59.702 0.035 6.61 1.28 9.26
5/26/2021 10:30:00 PM 15.34 59.612 0.034 6.66 1.08 9.27
5/26/2021 10:45:00 PM 15.28 59.504 0.036 6.53 1.1 9.29
5/26/2021 11:00:00 PM 15.23 59.414 0.034 6.65 1.53 9.3
5/26/2021 11:15:00 PM 15.17 59.306 0.034 6.61 1.09 9.32
5/26/2021 11:30:00 PM 15.12 59.216 0.034 6.66 1.11 9.32
5/26/2021 11:45:00 PM 15.06 59.108 0.035 6.68 1.21 9.33
5/27/2021 12:00:00 AM 15.01 59.018 0.035 6.68 1.31 9.35
5/27/2021 12:15:00 AM 14.95 58.91 0.034 6.67 1.41 9.36
5/27/2021 12:30:00 AM 14.89 58.802 0.035 6.66 1.08 9.39
5/27/2021 12:45:00 AM 14.83 58.694 0.036 6.55 1.07 9.41
5/27/2021 1:00:00 AM 14.77 58.586 0.035 6.7 1.68 9.42
5/27/2021 1:15:00 AM 14.71 58.478 0.035 6.62 1.41 9.44
5/27/2021 1:30:00 AM 14.65 58.37 0.033 6.71 1.02 9.45
5/27/2021 1:45:00 AM 14.6 58.28 0.035 6.69 1.65 9.46
5/27/2021 2:00:00 AM 14.54 58.172 0.034 6.67 0.65 9.48
5/27/2021 2:15:00 AM 14.48 58.064 0.035 6.65 1.17 9.48
5/27/2021 2:30:00 AM 14.42 57.956 0.035 6.66 0.96 9.49
5/27/2021 2:45:00 AM 14.36 57.848 0.036 6.63 1.23 9.51
5/27/2021 3:00:00 AM 14.31 57.758 0.036 6.7 1.27 9.52
5/27/2021 3:15:00 AM 14.25 57.65 0.035 6.65 1.61 9.54
5/27/2021 3:30:00 AM 14.2 57.56 0.035 6.66 1.12 9.54
5/27/2021 3:45:00 AM 14.15 57.47 0.036 6.68 1.36 9.56
5/27/2021 4:00:00 AM 14.09 57.362 0.035 6.65 1.28 9.58
5/27/2021 4:15:00 AM 14.03 57.254 0.035 6.69 1.1 9.6
5/27/2021 4:30:00 AM 13.98 57.164 0.036 6.69 1.39 9.61
5/27/2021 4:45:00 AM 13.93 57.074 0.035 6.64 1.24 9.62
5/27/2021 5:00:00 AM 13.88 56.984 0.036 6.58 1.06 9.63
5/27/2021 5:15:00 AM 13.84 56.912 0.035 6.7 1.11 9.64
5/27/2021 5:30:00 AM 13.8 56.84 0.035 6.53 1.2 9.65
5/27/2021 5:45:00 AM 13.76 56.768 0.035 6.66 0.75 9.66
5/27/2021 6:00:00 AM 13.72 56.696 0.035 6.7 1.07 9.67
5/27/2021 6:15:00 AM 13.69 56.642 0.036 6.68 1.08 9.68
5/27/2021 6:30:00 AM 13.65 56.57 0.035 6.68 0.96 9.7
5/27/2021 6:45:00 AM 13.62 56.516 0.035 6.71 1.38 9.73
5/27/2021 7:00:00 AM 13.59 56.462 0.035 6.7 1.05 9.74
5/27/2021 7:15:00 AM 13.56 56.408 0.035 6.67 0.9 9.77
5/27/2021 7:30:00 AM 13.53 56.354 0.035 6.73 1.23 9.78
5/27/2021 7:45:00 AM 13.48 56.264 0.035 6.7 1.07 9.79
5/27/2021 8:00:00 AM 13.45 56.21 0.035 6.69 0.92 9.81
5/27/2021 8:15:00 AM 13.41 56.138 0.035 6.74 1.1 9.81
5/27/2021 8:30:00 AM 13.37 56.066 0.034 6.61 1.09 9.83
5/27/2021 8:45:00 AM 13.34 56.012 0.033 6.68 0.73 9.84
5/27/2021 9:00:00 AM 13.33 55.994 0.035 6.74 0.96 9.86
5/27/2021 9:15:00 AM 13.33 55.994 0.035 6.75 1.26 9.87
5/27/2021 9:30:00 AM 13.33 55.994 0.036 6.76 1.01 9.87
5/27/2021 9:45:00 AM 13.34 56.012 0.034 6.73 0.96 9.88
5/27/2021 10:00:00 AM 13.36 56.048 0.03 6.79 1.35 9.88
5/27/2021 10:15:00 AM 13.38 56.084 0.035 6.78 1.15 9.9
5/27/2021 10:30:00 AM 13.42 56.156 0.034 6.78 0.96 9.9
5/27/2021 10:45:00 AM 13.48 56.264 0.032 6.79 0.84 9.9
5/27/2021 11:00:00 AM 13.56 56.408 0.034 6.78 0.87 9.9
5/27/2021 11:15:00 AM 13.66 56.588 0.034 6.77 1.43 9.89
5/27/2021 11:30:00 AM 13.78 56.804 0.034 6.82 1.05 9.87
5/27/2021 11:45:00 AM 13.93 57.074 0.034 6.8 1.28 9.86
5/27/2021 12:00:00 PM 14.1 57.38 0.034 6.82 0.91 9.85
5/27/2021 12:15:00 PM 14.29 57.722 0.034 6.84 1.31 9.82
5/27/2021 12:30:00 PM 14.49 58.082 0.034 6.82 1.07 9.8
5/27/2021 12:45:00 PM 14.7 58.46 0.034 6.8 1.26 9.77
5/27/2021 1:00:00 PM 14.9 58.82 0.031 6.84 0.85 9.73
5/27/2021 1:15:00 PM 15.13 59.234 0.035 6.86 2.97 9.7
5/27/2021 1:30:00 PM 15.32 59.576 0.033 6.82 0.86 9.67
5/27/2021 1:45:00 PM 15.49 59.882 0.034 6.87 1.18 9.64
5/27/2021 2:00:00 PM 15.63 60.134 0.033 6.86 1.42 9.61
5/27/2021 2:15:00 PM 15.76 60.368 0.034 6.91 0.93 9.58
5/27/2021 2:30:00 PM 15.91 60.638 0.035 6.87 1.12 9.55
5/27/2021 2:45:00 PM 15.98 60.764 0.033 6.86 1.44 9.54
5/27/2021 3:00:00 PM 16.01 60.818 0.034 6.88 0.93 9.5
5/27/2021 3:15:00 PM 15.99 60.782 0.033 6.85 1.12 9.5
5/27/2021 3:30:00 PM 16.07 60.926 0.034 6.9 2.1 9.48
5/27/2021 3:45:00 PM 16.12 61.016 0.033 6.86 1.99 9.45
5/27/2021 4:00:00 PM 16.17 61.106 0.033 6.86 4.07 9.41
5/27/2021 4:15:00 PM 16.2 61.16 0.034 6.83 1.31 9.38
5/27/2021 4:30:00 PM 16.16 61.088 0.034 6.83 1.32 9.34
5/27/2021 4:45:00 PM 16.12 61.016 0.033 6.83 0.88 9.36
5/27/2021 5:00:00 PM 16.15 61.07 0.034 6.82 1 9.36
5/27/2021 5:15:00 PM 16.13 61.034 0.033 6.83 1.21 9.34
5/27/2021 5:30:00 PM 16.14 61.052 0.029 6.84 0.52 9.31
5/27/2021 5:45:00 PM 16.12 61.016 0.035 6.72 0.65 9.28
5/27/2021 6:00:00 PM 16.07 60.926 0.034 6.8 1.46 9.28
5/27/2021 6:15:00 PM 16.01 60.818 0.034 6.82 1.24 9.26
5/27/2021 6:30:00 PM 15.92 60.656 0.034 6.76 1.29 9.24
5/27/2021 6:45:00 PM 15.86 60.548 0.034 6.79 1.26 9.23
5/27/2021 7:00:00 PM 15.8 60.44 0.034 6.74 1.67 9.24
5/27/2021 7:15:00 PM 15.75 60.35 0.034 6.76 1.1 9.24
5/27/2021 7:30:00 PM 15.7 60.26 0.034 6.73 1.25 9.24
5/27/2021 7:45:00 PM 15.65 60.17 0.034 6.8 0.96 9.26
5/27/2021 8:00:00 PM 15.61 60.098 0.034 6.75 1.1 9.27
5/27/2021 8:15:00 PM 15.55 59.99 0.034 6.74 1.14 9.27
5/27/2021 8:30:00 PM 15.49 59.882 0.034 6.71 1.51 9.27
5/27/2021 8:45:00 PM 15.41 59.738 0.034 6.73 0.94 9.27
5/27/2021 9:00:00 PM 15.34 59.612 0.034 6.71 2.32 9.29
5/27/2021 9:15:00 PM 15.26 59.468 0.034 6.73 1.41 9.3
5/27/2021 9:30:00 PM 15.17 59.306 0.034 6.72 2.03 9.32
5/27/2021 9:45:00 PM 15.09 59.162 0.035 6.77 1.63 9.33
5/27/2021 10:00:00 PM 15.01 59.018 0.034 6.76 1.35 9.35
5/27/2021 10:15:00 PM 14.92 58.856 0.034 6.61 1.45 9.38
5/27/2021 10:30:00 PM 14.83 58.694 0.035 6.72 1.19 9.39
5/27/2021 10:45:00 PM 14.73 58.514 0.034 6.67 0.88 9.42
5/27/2021 11:00:00 PM 14.64 58.352 0.035 6.76 1.05 9.44
5/27/2021 11:15:00 PM 14.55 58.19 0.036 6.64 1.12 9.47
5/27/2021 11:30:00 PM 14.46 58.028 0.034 6.73 1.27 9.47
5/27/2021 11:45:00 PM 14.37 57.866 0.035 6.75 1.11 9.5
5/28/2021 12:00:00 AM 14.29 57.722 0.035 6.75 1.84 9.52
5/28/2021 12:15:00 AM 14.2 57.56 0.035 6.76 1.04 9.56
5/28/2021 12:30:00 AM 14.11 57.398 0.036 6.6 1.47 9.58
5/28/2021 12:45:00 AM 14.03 57.254 0.035 6.78 0.93 9.6
5/28/2021 1:00:00 AM 13.94 57.092 0.029 6.71 0.64 9.61
5/28/2021 1:15:00 AM 13.86 56.948 0.035 6.75 1.12 9.64
5/28/2021 1:30:00 AM 13.77 56.786 0.036 6.6 1.02 9.65
5/28/2021 1:45:00 AM 13.69 56.642 0.035 6.73 1.44 9.67
5/28/2021 2:00:00 AM 13.61 56.498 0.036 6.72 1.07 9.69
5/28/2021 2:15:00 AM 13.53 56.354 0.035 6.69 1.09 9.72
5/28/2021 2:30:00 AM 13.45 56.21 0.035 6.72 1.11 9.73
5/28/2021 2:45:00 AM 13.36 56.048 0.033 6.68 0.94 9.76
5/28/2021 3:00:00 AM 13.29 55.922 0.035 6.73 1.22 9.76
5/28/2021 3:15:00 AM 13.21 55.778 0.036 6.72 1.08 9.79
5/28/2021 3:30:00 AM 13.13 55.634 0.035 6.7 1.65 9.8
5/28/2021 3:45:00 AM 13.06 55.508 0.036 6.63 0.96 9.81
5/28/2021 4:00:00 AM 12.98 55.364 0.035 6.62 1.61 9.84
5/28/2021 4:15:00 AM 12.89 55.202 0.035 6.73 2.31 9.85
5/28/2021 4:30:00 AM 12.81 55.058 0.036 6.72 1.29 9.88
5/28/2021 4:45:00 AM 12.72 54.896 0.035 6.69 1.25 9.9
5/28/2021 5:00:00 AM 12.64 54.752 0.035 6.74 1.21 9.92
5/28/2021 5:15:00 AM 12.56 54.608 0.032 6.71 0.82 9.94
5/28/2021 5:30:00 AM 12.47 54.446 0.035 6.71 1.06 9.96
5/28/2021 5:45:00 AM 12.39 54.302 0.035 6.71 1 9.98
5/28/2021 6:00:00 AM 12.32 54.176 0.034 6.69 0.57 9.99
5/28/2021 6:15:00 AM 12.25 54.05 0.035 6.71 1.25 10.02
5/28/2021 6:30:00 AM 12.19 53.942 0.035 6.7 0.97 10.05
5/28/2021 6:45:00 AM 12.13 53.834 0.034 6.7 0.67 10.07
5/28/2021 7:00:00 AM 12.08 53.744 0.035 6.7 1.01 10.1
5/28/2021 7:15:00 AM 12.03 53.654 0.035 6.74 1.14 10.12
5/28/2021 7:30:00 AM 11.99 53.582 0.035 6.74 0.86 10.14
5/28/2021 7:45:00 AM 11.94 53.492 0.035 6.7 1 10.16
5/28/2021 8:00:00 AM 11.91 53.438 0.035 6.76 1.34 10.17
5/28/2021 8:15:00 AM 11.87 53.366 0.035 6.76 0.92 10.18
5/28/2021 8:30:00 AM 11.84 53.312 0.035 6.73 1 10.2
5/28/2021 8:45:00 AM 11.81 53.258 0.035 6.74 0.89 10.22
5/28/2021 9:00:00 AM 11.79 53.222 0.035 6.79 1.07 10.24
5/28/2021 9:15:00 AM 11.78 53.204 0.036 6.8 0.8 10.27
5/28/2021 9:30:00 AM 11.78 53.204 0.035 6.78 0.93 10.29
5/28/2021 9:45:00 AM 11.78 53.204 0.036 6.78 0.87 10.3
5/28/2021 10:00:00 AM 11.77 53.186 0.034 6.73 1.49 10.3
5/28/2021 10:15:00 AM